<?xml version="1.0" encoding="UTF-8" standalone="no" ?>
<gpx xmlns="http://www.topografix.com/GPX/1/1" xmlns:xsi="http://www.w3.org/2001/XMLSchema-instance" xsi:schemaLocation="http://www.topografix.com/GPX/1/1 http://www.topografix.com/GPX/1/1/gpx.xsd" version="1.1" creator="VisuGPX - https://www.visugpx.com">
  <metadata>
    <name>Chartreuse Verne</name>
    <desc><![CDATA[parcours autour de la Chartreuse de la Verne 
Massif des Maures]]></desc>
  </metadata>
  <trk>
    <name><![CDATA[Move]]></name>
    <trkseg>
      <trkpt lat="43.2352" lon="6.39838">
        <ele>419.0043559011</ele>
        <time>2015-04-29T09:59:16.000Z</time>
      </trkpt>
      <trkpt lat="43.23517" lon="6.39835">
        <ele>418.76579362733</ele>
        <time>2015-04-29T09:59:18.190Z</time>
      </trkpt>
      <trkpt lat="43.23507" lon="6.39832">
        <ele>417.55664484068</ele>
        <time>2015-04-29T09:59:29.290Z</time>
      </trkpt>
      <trkpt lat="43.23499" lon="6.39824">
        <ele>417</ele>
        <time>2015-04-29T09:59:37.010Z</time>
      </trkpt>
      <trkpt lat="43.23492" lon="6.39813">
        <ele>416.71242471348</ele>
        <time>2015-04-29T09:59:47.290Z</time>
      </trkpt>
      <trkpt lat="43.23484" lon="6.39803">
        <ele>415.42200064</ele>
        <time>2015-04-29T09:59:57.290Z</time>
      </trkpt>
      <trkpt lat="43.23474" lon="6.39806">
        <ele>415.27900032</ele>
        <time>2015-04-29T10:00:17.190Z</time>
      </trkpt>
      <trkpt lat="43.23474" lon="6.3982">
        <ele>416.95800064</ele>
        <time>2015-04-29T10:00:29.190Z</time>
      </trkpt>
      <trkpt lat="43.23474" lon="6.39834">
        <ele>418.67900032</ele>
        <time>2015-04-29T10:00:41.190Z</time>
      </trkpt>
      <trkpt lat="43.23475" lon="6.39847">
        <ele>420.55800064</ele>
        <time>2015-04-29T10:00:52.190Z</time>
      </trkpt>
      <trkpt lat="43.23476" lon="6.39861">
        <ele>421.87900032</ele>
        <time>2015-04-29T10:01:03.190Z</time>
      </trkpt>
      <trkpt lat="43.23472" lon="6.39874">
        <ele>422</ele>
        <time>2015-04-29T10:01:13.190Z</time>
      </trkpt>
      <trkpt lat="43.23463" lon="6.39883">
        <ele>422.77900032</ele>
        <time>2015-04-29T10:01:22.190Z</time>
      </trkpt>
      <trkpt lat="43.23457" lon="6.39895">
        <ele>423</ele>
        <time>2015-04-29T10:01:32.190Z</time>
      </trkpt>
      <trkpt lat="43.2345" lon="6.39906">
        <ele>423.69869911553</ele>
        <time>2015-04-29T10:01:41.390Z</time>
      </trkpt>
      <trkpt lat="43.23443" lon="6.39917">
        <ele>425.15800064</ele>
        <time>2015-04-29T10:01:50.190Z</time>
      </trkpt>
      <trkpt lat="43.23441" lon="6.3993">
        <ele>427.57900032</ele>
        <time>2015-04-29T10:02:10.190Z</time>
      </trkpt>
      <trkpt lat="43.23445" lon="6.39944">
        <ele>428.87900032</ele>
        <time>2015-04-29T10:02:23.190Z</time>
      </trkpt>
      <trkpt lat="43.23452" lon="6.39954">
        <ele>429</ele>
        <time>2015-04-29T10:02:32.190Z</time>
      </trkpt>
      <trkpt lat="43.23459" lon="6.39966">
        <ele>429.59900032</ele>
        <time>2015-04-29T10:02:40.390Z</time>
      </trkpt>
      <trkpt lat="43.23466" lon="6.39978">
        <ele>430.37900032</ele>
        <time>2015-04-29T10:02:48.190Z</time>
      </trkpt>
      <trkpt lat="43.2347" lon="6.39989">
        <ele>431</ele>
        <time>2015-04-29T10:02:55.190Z</time>
      </trkpt>
      <trkpt lat="43.23476" lon="6.39999">
        <ele>431</ele>
        <time>2015-04-29T10:03:01.190Z</time>
      </trkpt>
      <trkpt lat="43.23481" lon="6.40009">
        <ele>431</ele>
        <time>2015-04-29T10:03:09.190Z</time>
      </trkpt>
      <trkpt lat="43.23483" lon="6.40022">
        <ele>431.09900032</ele>
        <time>2015-04-29T10:03:25.390Z</time>
      </trkpt>
      <trkpt lat="43.23484" lon="6.40032">
        <ele>431.67900032</ele>
        <time>2015-04-29T10:03:31.190Z</time>
      </trkpt>
      <trkpt lat="43.2349" lon="6.40041">
        <ele>432</ele>
        <time>2015-04-29T10:03:37.390Z</time>
      </trkpt>
      <trkpt lat="43.23495" lon="6.40046">
        <ele>432</ele>
        <time>2015-04-29T10:03:44.390Z</time>
      </trkpt>
      <trkpt lat="43.23501" lon="6.40046">
        <ele>431.12187752148</ele>
        <time>2015-04-29T10:03:53.190Z</time>
      </trkpt>
      <trkpt lat="43.23509" lon="6.4005">
        <ele>431</ele>
        <time>2015-04-29T10:04:01.190Z</time>
      </trkpt>
      <trkpt lat="43.23511" lon="6.40051">
        <ele>431</ele>
        <time>2015-04-29T10:04:04.390Z</time>
      </trkpt>
      <trkpt lat="43.23478" lon="6.40157">
        <ele>431</ele>
        <time>2015-04-29T10:14:41.160Z</time>
      </trkpt>
      <trkpt lat="43.23471" lon="6.4016">
        <ele>431</ele>
        <time>2015-04-29T10:14:46.390Z</time>
      </trkpt>
      <trkpt lat="43.23461" lon="6.40165">
        <ele>431.19900032</ele>
        <time>2015-04-29T10:14:52.390Z</time>
      </trkpt>
      <trkpt lat="43.23452" lon="6.40172">
        <ele>431.97900032</ele>
        <time>2015-04-29T10:15:00.190Z</time>
      </trkpt>
      <trkpt lat="43.23441" lon="6.40179">
        <ele>432</ele>
        <time>2015-04-29T10:15:08.190Z</time>
      </trkpt>
      <trkpt lat="43.23431" lon="6.40184">
        <ele>432.59840210938</ele>
        <time>2015-04-29T10:15:16.390Z</time>
      </trkpt>
      <trkpt lat="43.23421" lon="6.40187">
        <ele>433.95695793171</ele>
        <time>2015-04-29T10:15:25.190Z</time>
      </trkpt>
      <trkpt lat="43.23411" lon="6.40193">
        <ele>435</ele>
        <time>2015-04-29T10:15:33.190Z</time>
      </trkpt>
      <trkpt lat="43.23402" lon="6.40201">
        <ele>435</ele>
        <time>2015-04-29T10:15:39.190Z</time>
      </trkpt>
      <trkpt lat="43.23391" lon="6.40206">
        <ele>435.79900032</ele>
        <time>2015-04-29T10:15:48.390Z</time>
      </trkpt>
      <trkpt lat="43.23382" lon="6.4021">
        <ele>436</ele>
        <time>2015-04-29T10:15:54.190Z</time>
      </trkpt>
      <trkpt lat="43.23372" lon="6.40215">
        <ele>436.19900032</ele>
        <time>2015-04-29T10:16:02.390Z</time>
      </trkpt>
      <trkpt lat="43.23363" lon="6.40223">
        <ele>437.19800064</ele>
        <time>2015-04-29T10:16:11.390Z</time>
      </trkpt>
      <trkpt lat="43.23356" lon="6.40232">
        <ele>438.59800064</ele>
        <time>2015-04-29T10:16:18.390Z</time>
      </trkpt>
      <trkpt lat="43.23353" lon="6.40246">
        <ele>439</ele>
        <time>2015-04-29T10:16:27.390Z</time>
      </trkpt>
      <trkpt lat="43.23356" lon="6.40259">
        <ele>439.79720369141</ele>
        <time>2015-04-29T10:16:34.390Z</time>
      </trkpt>
      <trkpt lat="43.23357" lon="6.40272">
        <ele>441</ele>
        <time>2015-04-29T10:16:41.390Z</time>
      </trkpt>
      <trkpt lat="43.23352" lon="6.40286">
        <ele>441</ele>
        <time>2015-04-29T10:16:49.190Z</time>
      </trkpt>
      <trkpt lat="43.2335" lon="6.403">
        <ele>441</ele>
        <time>2015-04-29T10:16:57.390Z</time>
      </trkpt>
      <trkpt lat="43.23352" lon="6.40315">
        <ele>441.47900032</ele>
        <time>2015-04-29T10:17:05.190Z</time>
      </trkpt>
      <trkpt lat="43.23354" lon="6.40329">
        <ele>442</ele>
        <time>2015-04-29T10:17:11.390Z</time>
      </trkpt>
      <trkpt lat="43.23355" lon="6.40343">
        <ele>442</ele>
        <time>2015-04-29T10:17:18.390Z</time>
      </trkpt>
      <trkpt lat="43.23355" lon="6.40356">
        <ele>441.50099968</ele>
        <time>2015-04-29T10:17:25.390Z</time>
      </trkpt>
      <trkpt lat="43.23355" lon="6.40371">
        <ele>441</ele>
        <time>2015-04-29T10:17:33.390Z</time>
      </trkpt>
      <trkpt lat="43.23352" lon="6.40385">
        <ele>440.90099968</ele>
        <time>2015-04-29T10:17:41.390Z</time>
      </trkpt>
      <trkpt lat="43.2335" lon="6.40399">
        <ele>440.20099968</ele>
        <time>2015-04-29T10:17:48.390Z</time>
      </trkpt>
      <trkpt lat="43.23348" lon="6.40413">
        <ele>440.49900032</ele>
        <time>2015-04-29T10:17:55.390Z</time>
      </trkpt>
      <trkpt lat="43.23348" lon="6.40427">
        <ele>441</ele>
        <time>2015-04-29T10:18:03.390Z</time>
      </trkpt>
      <trkpt lat="43.23346" lon="6.40442">
        <ele>441</ele>
        <time>2015-04-29T10:18:11.400Z</time>
      </trkpt>
      <trkpt lat="43.2334" lon="6.40455">
        <ele>441</ele>
        <time>2015-04-29T10:18:18.390Z</time>
      </trkpt>
      <trkpt lat="43.23334" lon="6.40465">
        <ele>440.60099968</ele>
        <time>2015-04-29T10:18:24.390Z</time>
      </trkpt>
      <trkpt lat="43.23328" lon="6.40477">
        <ele>440</ele>
        <time>2015-04-29T10:18:32.390Z</time>
      </trkpt>
      <trkpt lat="43.23321" lon="6.40488">
        <ele>440</ele>
        <time>2015-04-29T10:18:38.390Z</time>
      </trkpt>
      <trkpt lat="43.23315" lon="6.405">
        <ele>439.50099968</ele>
        <time>2015-04-29T10:18:45.390Z</time>
      </trkpt>
      <trkpt lat="43.2331" lon="6.40513">
        <ele>439</ele>
        <time>2015-04-29T10:18:52.390Z</time>
      </trkpt>
      <trkpt lat="43.23307" lon="6.40527">
        <ele>439</ele>
        <time>2015-04-29T10:19:00.390Z</time>
      </trkpt>
      <trkpt lat="43.23307" lon="6.40541">
        <ele>438.20099968</ele>
        <time>2015-04-29T10:19:08.390Z</time>
      </trkpt>
      <trkpt lat="43.23308" lon="6.40555">
        <ele>438</ele>
        <time>2015-04-29T10:19:16.290Z</time>
      </trkpt>
      <trkpt lat="43.23307" lon="6.40569">
        <ele>438.38899968</ele>
        <time>2015-04-29T10:19:24.290Z</time>
      </trkpt>
      <trkpt lat="43.23308" lon="6.40582">
        <ele>439</ele>
        <time>2015-04-29T10:19:31.290Z</time>
      </trkpt>
      <trkpt lat="43.23309" lon="6.40597">
        <ele>439</ele>
        <time>2015-04-29T10:19:38.290Z</time>
      </trkpt>
      <trkpt lat="43.2331" lon="6.40613">
        <ele>439</ele>
        <time>2015-04-29T10:19:45.290Z</time>
      </trkpt>
      <trkpt lat="43.23309" lon="6.40627">
        <ele>439</ele>
        <time>2015-04-29T10:19:52.290Z</time>
      </trkpt>
      <trkpt lat="43.23309" lon="6.40641">
        <ele>439</ele>
        <time>2015-04-29T10:20:00.290Z</time>
      </trkpt>
      <trkpt lat="43.23311" lon="6.40655">
        <ele>439</ele>
        <time>2015-04-29T10:20:07.290Z</time>
      </trkpt>
      <trkpt lat="43.23316" lon="6.40669">
        <ele>439.68899968</ele>
        <time>2015-04-29T10:20:17.290Z</time>
      </trkpt>
      <trkpt lat="43.23326" lon="6.40676">
        <ele>440.38899968</ele>
        <time>2015-04-29T10:20:24.290Z</time>
      </trkpt>
      <trkpt lat="43.23334" lon="6.40682">
        <ele>440.98899968</ele>
        <time>2015-04-29T10:20:30.290Z</time>
      </trkpt>
      <trkpt lat="43.23344" lon="6.40687">
        <ele>441</ele>
        <time>2015-04-29T10:20:36.290Z</time>
      </trkpt>
      <trkpt lat="43.23355" lon="6.40693">
        <ele>441</ele>
        <time>2015-04-29T10:20:43.290Z</time>
      </trkpt>
      <trkpt lat="43.23364" lon="6.40699">
        <ele>441</ele>
        <time>2015-04-29T10:20:49.290Z</time>
      </trkpt>
      <trkpt lat="43.23373" lon="6.40707">
        <ele>441</ele>
        <time>2015-04-29T10:20:56.290Z</time>
      </trkpt>
      <trkpt lat="43.23381" lon="6.40715">
        <ele>441</ele>
        <time>2015-04-29T10:21:03.290Z</time>
      </trkpt>
      <trkpt lat="43.23389" lon="6.40724">
        <ele>441</ele>
        <time>2015-04-29T10:21:10.300Z</time>
      </trkpt>
      <trkpt lat="43.23397" lon="6.40733">
        <ele>441.68899968</ele>
        <time>2015-04-29T10:21:17.290Z</time>
      </trkpt>
      <trkpt lat="43.23404" lon="6.40743">
        <ele>442</ele>
        <time>2015-04-29T10:21:24.290Z</time>
      </trkpt>
      <trkpt lat="43.2341" lon="6.40754">
        <ele>442.08899968</ele>
        <time>2015-04-29T10:21:31.290Z</time>
      </trkpt>
      <trkpt lat="43.23417" lon="6.40765">
        <ele>442.78899968</ele>
        <time>2015-04-29T10:21:38.290Z</time>
      </trkpt>
      <trkpt lat="43.2342" lon="6.40779">
        <ele>444.14200064</ele>
        <time>2015-04-29T10:21:46.110Z</time>
      </trkpt>
      <trkpt lat="43.23425" lon="6.40793">
        <ele>445</ele>
        <time>2015-04-29T10:21:53.390Z</time>
      </trkpt>
      <trkpt lat="43.23431" lon="6.40804">
        <ele>445</ele>
        <time>2015-04-29T10:21:59.390Z</time>
      </trkpt>
      <trkpt lat="43.23437" lon="6.40817">
        <ele>444.30099968</ele>
        <time>2015-04-29T10:22:07.390Z</time>
      </trkpt>
      <trkpt lat="43.23441" lon="6.4083">
        <ele>444.29900032</ele>
        <time>2015-04-29T10:22:13.390Z</time>
      </trkpt>
      <trkpt lat="43.23442" lon="6.40843">
        <ele>444.88</ele>
        <time>2015-04-29T10:22:19.200Z</time>
      </trkpt>
      <trkpt lat="43.23441" lon="6.40857">
        <ele>445.59900032</ele>
        <time>2015-04-29T10:22:26.390Z</time>
      </trkpt>
      <trkpt lat="43.23433" lon="6.40885">
        <ele>446.87100032</ele>
        <time>2015-04-29T10:22:39.110Z</time>
      </trkpt>
      <trkpt lat="43.23427" lon="6.40872">
        <ele>448.79800064</ele>
        <time>2015-04-29T10:22:59.390Z</time>
      </trkpt>
      <trkpt lat="43.2343" lon="6.40855">
        <ele>449</ele>
        <time>2015-04-29T10:23:07.390Z</time>
      </trkpt>
      <trkpt lat="43.2343" lon="6.40839">
        <ele>449.49900032</ele>
        <time>2015-04-29T10:23:15.390Z</time>
      </trkpt>
      <trkpt lat="43.23425" lon="6.40825">
        <ele>450.29900032</ele>
        <time>2015-04-29T10:23:23.390Z</time>
      </trkpt>
      <trkpt lat="43.23419" lon="6.40814">
        <ele>451</ele>
        <time>2015-04-29T10:23:31.390Z</time>
      </trkpt>
      <trkpt lat="43.23413" lon="6.40798">
        <ele>451</ele>
        <time>2015-04-29T10:23:39.590Z</time>
      </trkpt>
      <trkpt lat="43.23407" lon="6.40784">
        <ele>451.77900032</ele>
        <time>2015-04-29T10:23:48.190Z</time>
      </trkpt>
      <trkpt lat="43.23399" lon="6.4077">
        <ele>452.90099968</ele>
        <time>2015-04-29T10:24:01.390Z</time>
      </trkpt>
      <trkpt lat="43.2339" lon="6.40763">
        <ele>452.10099968</ele>
        <time>2015-04-29T10:24:09.390Z</time>
      </trkpt>
      <trkpt lat="43.23379" lon="6.40757">
        <ele>452.69900032</ele>
        <time>2015-04-29T10:24:17.390Z</time>
      </trkpt>
      <trkpt lat="43.23369" lon="6.40752">
        <ele>453.99800064</ele>
        <time>2015-04-29T10:24:25.390Z</time>
      </trkpt>
      <trkpt lat="43.23359" lon="6.40746">
        <ele>455.29900032</ele>
        <time>2015-04-29T10:24:33.390Z</time>
      </trkpt>
      <trkpt lat="43.23347" lon="6.40742">
        <ele>456</ele>
        <time>2015-04-29T10:24:41.390Z</time>
      </trkpt>
      <trkpt lat="43.23336" lon="6.40737">
        <ele>456</ele>
        <time>2015-04-29T10:24:49.390Z</time>
      </trkpt>
      <trkpt lat="43.23326" lon="6.40735">
        <ele>457.35800064</ele>
        <time>2015-04-29T10:24:57.190Z</time>
      </trkpt>
      <trkpt lat="43.23315" lon="6.40732">
        <ele>458.69900032</ele>
        <time>2015-04-29T10:25:07.390Z</time>
      </trkpt>
      <trkpt lat="43.23303" lon="6.40729">
        <ele>459</ele>
        <time>2015-04-29T10:25:14.910Z</time>
      </trkpt>
      <trkpt lat="43.23284" lon="6.40714">
        <ele>459</ele>
        <time>2015-04-29T10:25:30.110Z</time>
      </trkpt>
      <trkpt lat="43.23279" lon="6.407">
        <ele>459.69001073038</ele>
        <time>2015-04-29T10:25:37.390Z</time>
      </trkpt>
      <trkpt lat="43.23275" lon="6.40683">
        <ele>460.56099968</ele>
        <time>2015-04-29T10:25:46.010Z</time>
      </trkpt>
      <trkpt lat="43.23266" lon="6.40658">
        <ele>461.872</ele>
        <time>2015-04-29T10:25:59.120Z</time>
      </trkpt>
      <trkpt lat="43.23264" lon="6.40638">
        <ele>462.19800064</ele>
        <time>2015-04-29T10:26:11.390Z</time>
      </trkpt>
      <trkpt lat="43.23254" lon="6.40646">
        <ele>464.65100032</ele>
        <time>2015-04-29T10:26:26.910Z</time>
      </trkpt>
      <trkpt lat="43.23252" lon="6.40662">
        <ele>465</ele>
        <time>2015-04-29T10:26:35.190Z</time>
      </trkpt>
      <trkpt lat="43.23256" lon="6.40683">
        <ele>465.77100032</ele>
        <time>2015-04-29T10:26:48.110Z</time>
      </trkpt>
      <trkpt lat="43.23255" lon="6.40701">
        <ele>466.67100032</ele>
        <time>2015-04-29T10:26:57.110Z</time>
      </trkpt>
      <trkpt lat="43.23259" lon="6.40737">
        <ele>468</ele>
        <time>2015-04-29T10:27:18.010Z</time>
      </trkpt>
      <trkpt lat="43.23248" lon="6.4073">
        <ele>469.10200064</ele>
        <time>2015-04-29T10:27:25.910Z</time>
      </trkpt>
      <trkpt lat="43.23237" lon="6.40715">
        <ele>470.45054991426</ele>
        <time>2015-04-29T10:27:34.910Z</time>
      </trkpt>
      <trkpt lat="43.23229" lon="6.40697">
        <ele>471</ele>
        <time>2015-04-29T10:27:47.190Z</time>
      </trkpt>
      <trkpt lat="43.23226" lon="6.4068">
        <ele>471.94363520113</ele>
        <time>2015-04-29T10:28:00.110Z</time>
      </trkpt>
      <trkpt lat="43.23226" lon="6.4066">
        <ele>472.89598388598</ele>
        <time>2015-04-29T10:28:09.390Z</time>
      </trkpt>
      <trkpt lat="43.2323" lon="6.40637">
        <ele>474.19681959646</ele>
        <time>2015-04-29T10:28:21.390Z</time>
      </trkpt>
      <trkpt lat="43.23232" lon="6.40622">
        <ele>475.94632146556</ele>
        <time>2015-04-29T10:28:30.190Z</time>
      </trkpt>
      <trkpt lat="43.23231" lon="6.40607">
        <ele>476</ele>
        <time>2015-04-29T10:28:39.390Z</time>
      </trkpt>
      <trkpt lat="43.23229" lon="6.40583">
        <ele>477.27100032</ele>
        <time>2015-04-29T10:28:53.110Z</time>
      </trkpt>
      <trkpt lat="43.23229" lon="6.40567">
        <ele>478.25193019305</ele>
        <time>2015-04-29T10:29:03.010Z</time>
      </trkpt>
      <trkpt lat="43.23224" lon="6.40552">
        <ele>478.91891891892</ele>
        <time>2015-04-29T10:29:09.920Z</time>
      </trkpt>
      <trkpt lat="43.23216" lon="6.40533">
        <ele>480</ele>
        <time>2015-04-29T10:29:22.020Z</time>
      </trkpt>
      <trkpt lat="43.23211" lon="6.40513">
        <ele>480.16199936</ele>
        <time>2015-04-29T10:29:32.020Z</time>
      </trkpt>
      <trkpt lat="43.23214" lon="6.40495">
        <ele>481.1238774422</ele>
        <time>2015-04-29T10:29:41.020Z</time>
      </trkpt>
      <trkpt lat="43.23213" lon="6.40479">
        <ele>482.70229824649</ele>
        <time>2015-04-29T10:29:48.920Z</time>
      </trkpt>
      <trkpt lat="43.23216" lon="6.4046">
        <ele>483</ele>
        <time>2015-04-29T10:29:58.390Z</time>
      </trkpt>
      <trkpt lat="43.23226" lon="6.40428">
        <ele>484.34200064</ele>
        <time>2015-04-29T10:30:12.110Z</time>
      </trkpt>
      <trkpt lat="43.23232" lon="6.40417">
        <ele>486</ele>
        <time>2015-04-29T10:30:21.020Z</time>
      </trkpt>
      <trkpt lat="43.23238" lon="6.40395">
        <ele>486.90200064</ele>
        <time>2015-04-29T10:30:34.910Z</time>
      </trkpt>
      <trkpt lat="43.23245" lon="6.40383">
        <ele>488.24199936</ele>
        <time>2015-04-29T10:30:42.820Z</time>
      </trkpt>
      <trkpt lat="43.2325" lon="6.40367">
        <ele>489.16199936</ele>
        <time>2015-04-29T10:30:52.020Z</time>
      </trkpt>
      <trkpt lat="43.23256" lon="6.40349">
        <ele>490</ele>
        <time>2015-04-29T10:31:04.290Z</time>
      </trkpt>
      <trkpt lat="43.23261" lon="6.4033">
        <ele>490</ele>
        <time>2015-04-29T10:31:16.300Z</time>
      </trkpt>
      <trkpt lat="43.23262" lon="6.40316">
        <ele>490.38899968</ele>
        <time>2015-04-29T10:31:24.290Z</time>
      </trkpt>
      <trkpt lat="43.23265" lon="6.40301">
        <ele>491</ele>
        <time>2015-04-29T10:31:32.290Z</time>
      </trkpt>
      <trkpt lat="43.23263" lon="6.4028">
        <ele>491.38899968</ele>
        <time>2015-04-29T10:31:44.290Z</time>
      </trkpt>
      <trkpt lat="43.2326" lon="6.40265">
        <ele>492.35800064</ele>
        <time>2015-04-29T10:31:52.190Z</time>
      </trkpt>
      <trkpt lat="43.23258" lon="6.40244">
        <ele>494</ele>
        <time>2015-04-29T10:32:03.010Z</time>
      </trkpt>
      <trkpt lat="43.23256" lon="6.40227">
        <ele>494</ele>
        <time>2015-04-29T10:32:14.010Z</time>
      </trkpt>
      <trkpt lat="43.23258" lon="6.40206">
        <ele>494</ele>
        <time>2015-04-29T10:32:26.290Z</time>
      </trkpt>
      <trkpt lat="43.23263" lon="6.40191">
        <ele>494.38899968</ele>
        <time>2015-04-29T10:32:34.290Z</time>
      </trkpt>
      <trkpt lat="43.23274" lon="6.40171">
        <ele>495.58899968</ele>
        <time>2015-04-29T10:32:46.290Z</time>
      </trkpt>
      <trkpt lat="43.23281" lon="6.40161">
        <ele>496</ele>
        <time>2015-04-29T10:32:54.290Z</time>
      </trkpt>
      <trkpt lat="43.2329" lon="6.40149">
        <ele>496.18899968</ele>
        <time>2015-04-29T10:33:02.290Z</time>
      </trkpt>
      <trkpt lat="43.23296" lon="6.40136">
        <ele>496.98899968</ele>
        <time>2015-04-29T10:33:10.290Z</time>
      </trkpt>
      <trkpt lat="43.23302" lon="6.40124">
        <ele>497</ele>
        <time>2015-04-29T10:33:18.290Z</time>
      </trkpt>
      <trkpt lat="43.23309" lon="6.40111">
        <ele>498.17799936</ele>
        <time>2015-04-29T10:33:26.290Z</time>
      </trkpt>
      <trkpt lat="43.23314" lon="6.40098">
        <ele>499</ele>
        <time>2015-04-29T10:33:34.290Z</time>
      </trkpt>
      <trkpt lat="43.23323" lon="6.40086">
        <ele>499</ele>
        <time>2015-04-29T10:33:42.290Z</time>
      </trkpt>
      <trkpt lat="43.23332" lon="6.40074">
        <ele>499</ele>
        <time>2015-04-29T10:33:50.290Z</time>
      </trkpt>
      <trkpt lat="43.23333" lon="6.40057">
        <ele>499.69900032</ele>
        <time>2015-04-29T10:33:57.390Z</time>
      </trkpt>
      <trkpt lat="43.23324" lon="6.40047">
        <ele>500</ele>
        <time>2015-04-29T10:34:06.120Z</time>
      </trkpt>
      <trkpt lat="43.23315" lon="6.40035">
        <ele>500.372</ele>
        <time>2015-04-29T10:34:14.120Z</time>
      </trkpt>
      <trkpt lat="43.23307" lon="6.40025">
        <ele>501</ele>
        <time>2015-04-29T10:34:22.390Z</time>
      </trkpt>
      <trkpt lat="43.23294" lon="6.40006">
        <ele>501</ele>
        <time>2015-04-29T10:34:36.010Z</time>
      </trkpt>
      <trkpt lat="43.23278" lon="6.39983">
        <ele>502</ele>
        <time>2015-04-29T10:34:55.010Z</time>
      </trkpt>
      <trkpt lat="43.23268" lon="6.3997">
        <ele>502</ele>
        <time>2015-04-29T10:35:02.640Z</time>
      </trkpt>
      <trkpt lat="43.23264" lon="6.39947">
        <ele>502.46099968</ele>
        <time>2015-04-29T10:35:15.010Z</time>
      </trkpt>
      <trkpt lat="43.23274" lon="6.39935">
        <ele>502.73926097559</ele>
        <time>2015-04-29T10:35:23.010Z</time>
      </trkpt>
      <trkpt lat="43.23285" lon="6.39924">
        <ele>502</ele>
        <time>2015-04-29T10:35:35.290Z</time>
      </trkpt>
      <trkpt lat="43.23295" lon="6.39918">
        <ele>502</ele>
        <time>2015-04-29T10:35:43.290Z</time>
      </trkpt>
      <trkpt lat="43.23305" lon="6.39908">
        <ele>502</ele>
        <time>2015-04-29T10:35:51.290Z</time>
      </trkpt>
      <trkpt lat="43.23316" lon="6.39895">
        <ele>502</ele>
        <time>2015-04-29T10:35:59.290Z</time>
      </trkpt>
      <trkpt lat="43.23329" lon="6.3987">
        <ele>500</ele>
        <time>2015-04-29T10:36:30.120Z</time>
      </trkpt>
      <trkpt lat="43.23328" lon="6.39856">
        <ele>499.21730200872</ele>
        <time>2015-04-29T10:36:38.290Z</time>
      </trkpt>
      <trkpt lat="43.23322" lon="6.39839">
        <ele>499</ele>
        <time>2015-04-29T10:36:50.390Z</time>
      </trkpt>
      <trkpt lat="43.23315" lon="6.39808">
        <ele>501</ele>
        <time>2015-04-29T10:37:07.010Z</time>
      </trkpt>
      <trkpt lat="43.23307" lon="6.39793">
        <ele>501</ele>
        <time>2015-04-29T10:37:15.110Z</time>
      </trkpt>
      <trkpt lat="43.23296" lon="6.39776">
        <ele>501</ele>
        <time>2015-04-29T10:37:25.010Z</time>
      </trkpt>
      <trkpt lat="43.23275" lon="6.39755">
        <ele>502</ele>
        <time>2015-04-29T10:37:41.010Z</time>
      </trkpt>
      <trkpt lat="43.23277" lon="6.3973">
        <ele>502</ele>
        <time>2015-04-29T10:37:54.110Z</time>
      </trkpt>
      <trkpt lat="43.23286" lon="6.39719">
        <ele>502</ele>
        <time>2015-04-29T10:38:02.110Z</time>
      </trkpt>
      <trkpt lat="43.23289" lon="6.39701">
        <ele>502</ele>
        <time>2015-04-29T10:38:10.110Z</time>
      </trkpt>
      <trkpt lat="43.23289" lon="6.39685">
        <ele>502</ele>
        <time>2015-04-29T10:38:18.390Z</time>
      </trkpt>
      <trkpt lat="43.23288" lon="6.39667">
        <ele>502</ele>
        <time>2015-04-29T10:38:28.390Z</time>
      </trkpt>
      <trkpt lat="43.23286" lon="6.39648">
        <ele>502</ele>
        <time>2015-04-29T10:38:36.390Z</time>
      </trkpt>
      <trkpt lat="43.23282" lon="6.3963">
        <ele>502</ele>
        <time>2015-04-29T10:38:44.390Z</time>
      </trkpt>
      <trkpt lat="43.23275" lon="6.39618">
        <ele>502.19900032</ele>
        <time>2015-04-29T10:38:52.390Z</time>
      </trkpt>
      <trkpt lat="43.23265" lon="6.39603">
        <ele>503</ele>
        <time>2015-04-29T10:39:02.010Z</time>
      </trkpt>
      <trkpt lat="43.23249" lon="6.39592">
        <ele>503.26099968</ele>
        <time>2015-04-29T10:39:13.010Z</time>
      </trkpt>
      <trkpt lat="43.23242" lon="6.39578">
        <ele>504</ele>
        <time>2015-04-29T10:39:21.010Z</time>
      </trkpt>
      <trkpt lat="43.23237" lon="6.3956">
        <ele>504</ele>
        <time>2015-04-29T10:39:30.110Z</time>
      </trkpt>
      <trkpt lat="43.23224" lon="6.39553">
        <ele>504.89598388598</ele>
        <time>2015-04-29T10:39:39.390Z</time>
      </trkpt>
      <trkpt lat="43.23212" lon="6.39541">
        <ele>505.77100032</ele>
        <time>2015-04-29T10:39:48.110Z</time>
      </trkpt>
      <trkpt lat="43.23202" lon="6.39532">
        <ele>507</ele>
        <time>2015-04-29T10:40:01.010Z</time>
      </trkpt>
      <trkpt lat="43.23179" lon="6.39529">
        <ele>507.07100032</ele>
        <time>2015-04-29T10:40:11.110Z</time>
      </trkpt>
      <trkpt lat="43.23174" lon="6.39505">
        <ele>508.65100032</ele>
        <time>2015-04-29T10:40:26.910Z</time>
      </trkpt>
      <trkpt lat="43.23169" lon="6.39487">
        <ele>509</ele>
        <time>2015-04-29T10:40:35.010Z</time>
      </trkpt>
      <trkpt lat="43.23164" lon="6.39474">
        <ele>509.23900032</ele>
        <time>2015-04-29T10:40:42.790Z</time>
      </trkpt>
      <trkpt lat="43.23157" lon="6.39445">
        <ele>510</ele>
        <time>2015-04-29T10:40:55.110Z</time>
      </trkpt>
      <trkpt lat="43.23151" lon="6.39425">
        <ele>510</ele>
        <time>2015-04-29T10:41:06.810Z</time>
      </trkpt>
      <trkpt lat="43.2314" lon="6.39407">
        <ele>510</ele>
        <time>2015-04-29T10:41:19.190Z</time>
      </trkpt>
      <trkpt lat="43.23089" lon="6.39389">
        <ele>511.75299968</ele>
        <time>2015-04-29T10:41:48.200Z</time>
      </trkpt>
      <trkpt lat="43.23087" lon="6.39367">
        <ele>512.87564263125</ele>
        <time>2015-04-29T10:41:59.190Z</time>
      </trkpt>
      <trkpt lat="43.23093" lon="6.39345">
        <ele>513</ele>
        <time>2015-04-29T10:42:08.110Z</time>
      </trkpt>
      <trkpt lat="43.23101" lon="6.39327">
        <ele>513.94345269841</ele>
        <time>2015-04-29T10:42:19.910Z</time>
      </trkpt>
      <trkpt lat="43.23103" lon="6.39311">
        <ele>514</ele>
        <time>2015-04-29T10:42:28.190Z</time>
      </trkpt>
      <trkpt lat="43.23103" lon="6.39291">
        <ele>514</ele>
        <time>2015-04-29T10:42:40.190Z</time>
      </trkpt>
      <trkpt lat="43.23101" lon="6.39277">
        <ele>514</ele>
        <time>2015-04-29T10:42:48.590Z</time>
      </trkpt>
      <trkpt lat="43.23101" lon="6.3925">
        <ele>514</ele>
        <time>2015-04-29T10:42:59.190Z</time>
      </trkpt>
      <trkpt lat="43.23091" lon="6.39234">
        <ele>514</ele>
        <time>2015-04-29T10:43:07.910Z</time>
      </trkpt>
      <trkpt lat="43.2309" lon="6.3922">
        <ele>514</ele>
        <time>2015-04-29T10:43:13.110Z</time>
      </trkpt>
      <trkpt lat="43.23088" lon="6.39204">
        <ele>514</ele>
        <time>2015-04-29T10:43:21.910Z</time>
      </trkpt>
      <trkpt lat="43.2309" lon="6.39183">
        <ele>514</ele>
        <time>2015-04-29T10:43:29.910Z</time>
      </trkpt>
      <trkpt lat="43.23084" lon="6.39149">
        <ele>515.37100032</ele>
        <time>2015-04-29T10:43:54.390Z</time>
      </trkpt>
      <trkpt lat="43.23075" lon="6.39153">
        <ele>516.06093876074</ele>
        <time>2015-04-29T10:44:21.010Z</time>
      </trkpt>
      <trkpt lat="43.23086" lon="6.39141">
        <ele>517</ele>
        <time>2015-04-29T10:44:43.190Z</time>
      </trkpt>
      <trkpt lat="43.23082" lon="6.39155">
        <ele>516.12899968</ele>
        <time>2015-04-29T10:44:59.110Z</time>
      </trkpt>
      <trkpt lat="43.23077" lon="6.39173">
        <ele>516</ele>
        <time>2015-04-29T10:45:15.290Z</time>
      </trkpt>
      <trkpt lat="43.23079" lon="6.39158">
        <ele>517</ele>
        <time>2015-04-29T10:46:38.810Z</time>
      </trkpt>
      <trkpt lat="43.23069" lon="6.3916">
        <ele>516.51543176955</ele>
        <time>2015-04-29T10:46:45.390Z</time>
      </trkpt>
      <trkpt lat="43.23054" lon="6.39076">
        <ele>514.96505717247</ele>
        <time>2015-04-29T10:48:18.290Z</time>
      </trkpt>
      <trkpt lat="43.23056" lon="6.39061">
        <ele>515</ele>
        <time>2015-04-29T10:49:46.290Z</time>
      </trkpt>
      <trkpt lat="43.23055" lon="6.3904">
        <ele>514.30099968</ele>
        <time>2015-04-29T10:49:54.390Z</time>
      </trkpt>
      <trkpt lat="43.23051" lon="6.39019">
        <ele>514</ele>
        <time>2015-04-29T10:50:05.710Z</time>
      </trkpt>
      <trkpt lat="43.23052" lon="6.38979">
        <ele>513.15100032</ele>
        <time>2015-04-29T10:50:25.890Z</time>
      </trkpt>
      <trkpt lat="43.23053" lon="6.38946">
        <ele>511</ele>
        <time>2015-04-29T10:50:49.590Z</time>
      </trkpt>
      <trkpt lat="43.23045" lon="6.38928">
        <ele>509.86299904</ele>
        <time>2015-04-29T10:51:01.190Z</time>
      </trkpt>
      <trkpt lat="43.2304" lon="6.38896">
        <ele>508</ele>
        <time>2015-04-29T10:51:09.510Z</time>
      </trkpt>
      <trkpt lat="43.23037" lon="6.38876">
        <ele>507.46054056681</ele>
        <time>2015-04-29T10:51:30.100Z</time>
      </trkpt>
      <trkpt lat="43.23035" lon="6.38861">
        <ele>506</ele>
        <time>2015-04-29T10:51:37.510Z</time>
      </trkpt>
      <trkpt lat="43.23029" lon="6.38844">
        <ele>506</ele>
        <time>2015-04-29T10:51:46.310Z</time>
      </trkpt>
      <trkpt lat="43.23018" lon="6.38831">
        <ele>504.42099968</ele>
        <time>2015-04-29T10:52:03.190Z</time>
      </trkpt>
      <trkpt lat="43.23012" lon="6.38809">
        <ele>504</ele>
        <time>2015-04-29T10:52:11.590Z</time>
      </trkpt>
      <trkpt lat="43.23002" lon="6.38806">
        <ele>503.36099968</ele>
        <time>2015-04-29T10:52:23.790Z</time>
      </trkpt>
      <trkpt lat="43.22988" lon="6.38802">
        <ele>502.58099968</ele>
        <time>2015-04-29T10:52:31.590Z</time>
      </trkpt>
      <trkpt lat="43.22987" lon="6.38785">
        <ele>502</ele>
        <time>2015-04-29T10:52:40.190Z</time>
      </trkpt>
      <trkpt lat="43.22968" lon="6.38764">
        <ele>502</ele>
        <time>2015-04-29T10:52:54.390Z</time>
      </trkpt>
      <trkpt lat="43.22966" lon="6.38748">
        <ele>502</ele>
        <time>2015-04-29T10:53:02.010Z</time>
      </trkpt>
      <trkpt lat="43.22958" lon="6.38736">
        <ele>502</ele>
        <time>2015-04-29T10:53:10.290Z</time>
      </trkpt>
      <trkpt lat="43.22951" lon="6.38724">
        <ele>502</ele>
        <time>2015-04-29T10:53:18.290Z</time>
      </trkpt>
      <trkpt lat="43.22949" lon="6.3871">
        <ele>502</ele>
        <time>2015-04-29T10:53:26.290Z</time>
      </trkpt>
      <trkpt lat="43.22948" lon="6.38694">
        <ele>502</ele>
        <time>2015-04-29T10:53:34.290Z</time>
      </trkpt>
      <trkpt lat="43.22946" lon="6.38679">
        <ele>501.51100032</ele>
        <time>2015-04-29T10:53:42.290Z</time>
      </trkpt>
      <trkpt lat="43.22944" lon="6.38664">
        <ele>500.71100032</ele>
        <time>2015-04-29T10:53:50.290Z</time>
      </trkpt>
      <trkpt lat="43.22942" lon="6.3865">
        <ele>499.82200064</ele>
        <time>2015-04-29T10:53:58.290Z</time>
      </trkpt>
      <trkpt lat="43.22939" lon="6.38626">
        <ele>498</ele>
        <time>2015-04-29T10:54:10.190Z</time>
      </trkpt>
      <trkpt lat="43.22937" lon="6.38608">
        <ele>497.90099968</ele>
        <time>2015-04-29T10:54:18.390Z</time>
      </trkpt>
      <trkpt lat="43.22938" lon="6.38594">
        <ele>497.10099968</ele>
        <time>2015-04-29T10:54:26.390Z</time>
      </trkpt>
      <trkpt lat="43.22935" lon="6.38577">
        <ele>496</ele>
        <time>2015-04-29T10:54:40.110Z</time>
      </trkpt>
      <trkpt lat="43.22926" lon="6.38557">
        <ele>495.62899968</ele>
        <time>2015-04-29T10:54:51.110Z</time>
      </trkpt>
      <trkpt lat="43.2292" lon="6.38541">
        <ele>495</ele>
        <time>2015-04-29T10:55:01.320Z</time>
      </trkpt>
      <trkpt lat="43.22913" lon="6.38528">
        <ele>494.71011610895</ele>
        <time>2015-04-29T10:55:10.390Z</time>
      </trkpt>
      <trkpt lat="43.22908" lon="6.38515">
        <ele>494.02918225681</ele>
        <time>2015-04-29T10:55:17.390Z</time>
      </trkpt>
      <trkpt lat="43.22894" lon="6.38496">
        <ele>492.72899968</ele>
        <time>2015-04-29T10:55:30.110Z</time>
      </trkpt>
      <trkpt lat="43.22892" lon="6.38481">
        <ele>492</ele>
        <time>2015-04-29T10:55:37.920Z</time>
      </trkpt>
      <trkpt lat="43.22888" lon="6.38468">
        <ele>492</ele>
        <time>2015-04-29T10:55:45.910Z</time>
      </trkpt>
      <trkpt lat="43.2288" lon="6.38457">
        <ele>491.31100032</ele>
        <time>2015-04-29T10:55:54.290Z</time>
      </trkpt>
      <trkpt lat="43.22884" lon="6.3844">
        <ele>490.53000064</ele>
        <time>2015-04-29T10:56:02.100Z</time>
      </trkpt>
      <trkpt lat="43.22891" lon="6.38427">
        <ele>490</ele>
        <time>2015-04-29T10:56:10.110Z</time>
      </trkpt>
      <trkpt lat="43.22899" lon="6.3841">
        <ele>490</ele>
        <time>2015-04-29T10:56:18.190Z</time>
      </trkpt>
      <trkpt lat="43.2291" lon="6.38403">
        <ele>490</ele>
        <time>2015-04-29T10:56:25.590Z</time>
      </trkpt>
      <trkpt lat="43.22927" lon="6.38396">
        <ele>488.64199936</ele>
        <time>2015-04-29T10:56:34.190Z</time>
      </trkpt>
      <trkpt lat="43.22935" lon="6.38387">
        <ele>486.85799936</ele>
        <time>2015-04-29T10:56:43.110Z</time>
      </trkpt>
      <trkpt lat="43.22935" lon="6.38368">
        <ele>485.12187752148</ele>
        <time>2015-04-29T10:56:56.190Z</time>
      </trkpt>
      <trkpt lat="43.22938" lon="6.38349">
        <ele>484.1011007484</ele>
        <time>2015-04-29T10:57:06.390Z</time>
      </trkpt>
      <trkpt lat="43.22942" lon="6.38331">
        <ele>483.93900032</ele>
        <time>2015-04-29T10:57:18.010Z</time>
      </trkpt>
      <trkpt lat="43.22952" lon="6.38313">
        <ele>482.67800064</ele>
        <time>2015-04-29T10:57:29.010Z</time>
      </trkpt>
      <trkpt lat="43.22961" lon="6.383">
        <ele>480.86247678587</ele>
        <time>2015-04-29T10:57:38.100Z</time>
      </trkpt>
      <trkpt lat="43.22965" lon="6.38286">
        <ele>479.11395010518</ele>
        <time>2015-04-29T10:57:47.000Z</time>
      </trkpt>
      <trkpt lat="43.22968" lon="6.38268">
        <ele>478</ele>
        <time>2015-04-29T10:58:41.610Z</time>
      </trkpt>
      <trkpt lat="43.22965" lon="6.38284">
        <ele>478</ele>
        <time>2015-04-29T10:58:56.390Z</time>
      </trkpt>
      <trkpt lat="43.22951" lon="6.38279">
        <ele>477.93900032</ele>
        <time>2015-04-29T10:59:08.010Z</time>
      </trkpt>
      <trkpt lat="43.22937" lon="6.38278">
        <ele>476.31100032</ele>
        <time>2015-04-29T10:59:24.290Z</time>
      </trkpt>
      <trkpt lat="43.22926" lon="6.38272">
        <ele>472.44400128</ele>
        <time>2015-04-29T10:59:36.290Z</time>
      </trkpt>
      <trkpt lat="43.22919" lon="6.38259">
        <ele>469.73300096</ele>
        <time>2015-04-29T10:59:48.290Z</time>
      </trkpt>
      <trkpt lat="43.22914" lon="6.38244">
        <ele>466.42200064</ele>
        <time>2015-04-29T11:00:00.290Z</time>
      </trkpt>
      <trkpt lat="43.22918" lon="6.38228">
        <ele>465</ele>
        <time>2015-04-29T11:00:12.390Z</time>
      </trkpt>
      <trkpt lat="43.2291" lon="6.38215">
        <ele>464.70299904</ele>
        <time>2015-04-29T11:00:28.390Z</time>
      </trkpt>
      <trkpt lat="43.22906" lon="6.382">
        <ele>461</ele>
        <time>2015-04-29T11:01:32.390Z</time>
      </trkpt>
      <trkpt lat="43.22904" lon="6.38186">
        <ele>460.40199936</ele>
        <time>2015-04-29T11:01:40.390Z</time>
      </trkpt>
      <trkpt lat="43.22905" lon="6.38167">
        <ele>457.00399872</ele>
        <time>2015-04-29T11:01:52.390Z</time>
      </trkpt>
      <trkpt lat="43.229" lon="6.38147">
        <ele>453.60199936</ele>
        <time>2015-04-29T11:02:04.390Z</time>
      </trkpt>
      <trkpt lat="43.22895" lon="6.38136">
        <ele>452.51100032</ele>
        <time>2015-04-29T11:02:12.290Z</time>
      </trkpt>
      <trkpt lat="43.22889" lon="6.38124">
        <ele>451.42200064</ele>
        <time>2015-04-29T11:02:20.290Z</time>
      </trkpt>
      <trkpt lat="43.22884" lon="6.38111">
        <ele>449.64400128</ele>
        <time>2015-04-29T11:02:28.290Z</time>
      </trkpt>
      <trkpt lat="43.22882" lon="6.38094">
        <ele>446.44400128</ele>
        <time>2015-04-29T11:02:36.290Z</time>
      </trkpt>
      <trkpt lat="43.22887" lon="6.3808">
        <ele>441.02200064</ele>
        <time>2015-04-29T11:02:52.290Z</time>
      </trkpt>
      <trkpt lat="43.2289" lon="6.38049">
        <ele>435.82899968</ele>
        <time>2015-04-29T11:03:09.110Z</time>
      </trkpt>
      <trkpt lat="43.22894" lon="6.38035">
        <ele>426.60560381002</ele>
        <time>2015-04-29T11:03:33.390Z</time>
      </trkpt>
      <trkpt lat="43.22896" lon="6.3802">
        <ele>422.60299904</ele>
        <time>2015-04-29T11:03:45.390Z</time>
      </trkpt>
      <trkpt lat="43.229" lon="6.38003">
        <ele>417.80299904</ele>
        <time>2015-04-29T11:04:01.390Z</time>
      </trkpt>
      <trkpt lat="43.22895" lon="6.37975">
        <ele>412.48699904</ele>
        <time>2015-04-29T11:04:19.110Z</time>
      </trkpt>
      <trkpt lat="43.22889" lon="6.37961">
        <ele>405.75700096</ele>
        <time>2015-04-29T11:04:38.210Z</time>
      </trkpt>
      <trkpt lat="43.22885" lon="6.37931">
        <ele>401.01700096</ele>
        <time>2015-04-29T11:04:54.010Z</time>
      </trkpt>
      <trkpt lat="43.22879" lon="6.3791">
        <ele>395.25825753489</ele>
        <time>2015-04-29T11:05:16.110Z</time>
      </trkpt>
      <trkpt lat="43.2288" lon="6.37896">
        <ele>388.1449984</ele>
        <time>2015-04-29T11:05:33.110Z</time>
      </trkpt>
      <trkpt lat="43.22876" lon="6.37874">
        <ele>380.6449984</ele>
        <time>2015-04-29T11:05:54.110Z</time>
      </trkpt>
      <trkpt lat="43.22869" lon="6.37861">
        <ele>378.05636479887</ele>
        <time>2015-04-29T11:06:07.110Z</time>
      </trkpt>
      <trkpt lat="43.22863" lon="6.37847">
        <ele>375.1950016</ele>
        <time>2015-04-29T11:06:19.010Z</time>
      </trkpt>
      <trkpt lat="43.22856" lon="6.37833">
        <ele>368.16909439661</ele>
        <time>2015-04-29T11:06:37.110Z</time>
      </trkpt>
      <trkpt lat="43.22851" lon="6.37822">
        <ele>365.67600128</ele>
        <time>2015-04-29T11:06:48.210Z</time>
      </trkpt>
      <trkpt lat="43.22843" lon="6.37807">
        <ele>359.95904126563</ele>
        <time>2015-04-29T11:07:04.210Z</time>
      </trkpt>
      <trkpt lat="43.22834" lon="6.37789">
        <ele>357.20220149679</ele>
        <time>2015-04-29T11:07:16.390Z</time>
      </trkpt>
      <trkpt lat="43.22828" lon="6.37769">
        <ele>353.83800064</ele>
        <time>2015-04-29T11:07:28.210Z</time>
      </trkpt>
      <trkpt lat="43.22822" lon="6.37754">
        <ele>351.81718371778</ele>
        <time>2015-04-29T11:07:38.010Z</time>
      </trkpt>
      <trkpt lat="43.22816" lon="6.37728">
        <ele>348.13913941489</ele>
        <time>2015-04-29T11:07:56.010Z</time>
      </trkpt>
      <trkpt lat="43.22828" lon="6.37734">
        <ele>347.50099968</ele>
        <time>2015-04-29T11:08:32.390Z</time>
      </trkpt>
      <trkpt lat="43.22805" lon="6.37742">
        <ele>346.33900032</ele>
        <time>2015-04-29T11:08:44.010Z</time>
      </trkpt>
      <trkpt lat="43.22794" lon="6.37766">
        <ele>346</ele>
        <time>2015-04-29T11:08:56.290Z</time>
      </trkpt>
      <trkpt lat="43.22785" lon="6.37773">
        <ele>346.66033955176</ele>
        <time>2015-04-29T11:09:04.010Z</time>
      </trkpt>
      <trkpt lat="43.22777" lon="6.37784">
        <ele>346.51151166798</ele>
        <time>2015-04-29T11:09:12.290Z</time>
      </trkpt>
      <trkpt lat="43.22769" lon="6.37794">
        <ele>345.70099968</ele>
        <time>2015-04-29T11:09:20.390Z</time>
      </trkpt>
      <trkpt lat="43.22754" lon="6.37793">
        <ele>345</ele>
        <time>2015-04-29T11:09:32.390Z</time>
      </trkpt>
      <trkpt lat="43.22751" lon="6.37779">
        <ele>345</ele>
        <time>2015-04-29T11:09:40.390Z</time>
      </trkpt>
      <trkpt lat="43.22753" lon="6.37763">
        <ele>345.49900032</ele>
        <time>2015-04-29T11:09:52.390Z</time>
      </trkpt>
      <trkpt lat="43.22757" lon="6.37748">
        <ele>345.70099968</ele>
        <time>2015-04-29T11:10:00.390Z</time>
      </trkpt>
      <trkpt lat="43.22762" lon="6.37735">
        <ele>345.19800064</ele>
        <time>2015-04-29T11:10:08.390Z</time>
      </trkpt>
      <trkpt lat="43.22764" lon="6.37722">
        <ele>346.79800064</ele>
        <time>2015-04-29T11:10:16.390Z</time>
      </trkpt>
      <trkpt lat="43.22767" lon="6.37706">
        <ele>347</ele>
        <time>2015-04-29T11:10:24.390Z</time>
      </trkpt>
      <trkpt lat="43.22774" lon="6.3769">
        <ele>347</ele>
        <time>2015-04-29T11:10:32.390Z</time>
      </trkpt>
      <trkpt lat="43.22783" lon="6.37678">
        <ele>347.29900032</ele>
        <time>2015-04-29T11:10:40.390Z</time>
      </trkpt>
      <trkpt lat="43.22789" lon="6.37664">
        <ele>348</ele>
        <time>2015-04-29T11:10:48.390Z</time>
      </trkpt>
      <trkpt lat="43.22794" lon="6.37649">
        <ele>348</ele>
        <time>2015-04-29T11:10:56.390Z</time>
      </trkpt>
      <trkpt lat="43.22795" lon="6.37634">
        <ele>348</ele>
        <time>2015-04-29T11:11:03.390Z</time>
      </trkpt>
      <trkpt lat="43.22803" lon="6.3762">
        <ele>348</ele>
        <time>2015-04-29T11:11:10.210Z</time>
      </trkpt>
      <trkpt lat="43.22808" lon="6.37604">
        <ele>348</ele>
        <time>2015-04-29T11:11:19.210Z</time>
      </trkpt>
      <trkpt lat="43.22805" lon="6.37587">
        <ele>348</ele>
        <time>2015-04-29T11:11:26.110Z</time>
      </trkpt>
      <trkpt lat="43.22813" lon="6.37565">
        <ele>348</ele>
        <time>2015-04-29T11:11:38.210Z</time>
      </trkpt>
      <trkpt lat="43.2282" lon="6.37555">
        <ele>348</ele>
        <time>2015-04-29T11:11:44.110Z</time>
      </trkpt>
      <trkpt lat="43.22829" lon="6.3753">
        <ele>348</ele>
        <time>2015-04-29T11:11:57.110Z</time>
      </trkpt>
      <trkpt lat="43.22838" lon="6.37513">
        <ele>348</ele>
        <time>2015-04-29T11:12:08.210Z</time>
      </trkpt>
      <trkpt lat="43.22837" lon="6.37492">
        <ele>348</ele>
        <time>2015-04-29T11:12:17.110Z</time>
      </trkpt>
      <trkpt lat="43.22841" lon="6.37475">
        <ele>348</ele>
        <time>2015-04-29T11:12:25.390Z</time>
      </trkpt>
      <trkpt lat="43.22849" lon="6.3746">
        <ele>348.99900032</ele>
        <time>2015-04-29T11:12:37.390Z</time>
      </trkpt>
      <trkpt lat="43.22854" lon="6.37447">
        <ele>349</ele>
        <time>2015-04-29T11:12:45.390Z</time>
      </trkpt>
      <trkpt lat="43.22863" lon="6.37436">
        <ele>349.59780432875</ele>
        <time>2015-04-29T11:12:53.390Z</time>
      </trkpt>
      <trkpt lat="43.2287" lon="6.37423">
        <ele>349.60220447436</ele>
        <time>2015-04-29T11:13:01.390Z</time>
      </trkpt>
      <trkpt lat="43.22875" lon="6.37409">
        <ele>349.19900032</ele>
        <time>2015-04-29T11:13:09.390Z</time>
      </trkpt>
      <trkpt lat="43.22882" lon="6.3738">
        <ele>350</ele>
        <time>2015-04-29T11:13:22.210Z</time>
      </trkpt>
      <trkpt lat="43.22889" lon="6.37366">
        <ele>350.28071905078</ele>
        <time>2015-04-29T11:13:30.210Z</time>
      </trkpt>
      <trkpt lat="43.229" lon="6.37354">
        <ele>351</ele>
        <time>2015-04-29T11:13:39.110Z</time>
      </trkpt>
      <trkpt lat="43.22899" lon="6.37335">
        <ele>351.08099968</ele>
        <time>2015-04-29T11:13:48.210Z</time>
      </trkpt>
      <trkpt lat="43.22892" lon="6.3732">
        <ele>351.57100032</ele>
        <time>2015-04-29T11:13:53.110Z</time>
      </trkpt>
      <trkpt lat="43.2289" lon="6.37287">
        <ele>353</ele>
        <time>2015-04-29T11:14:09.210Z</time>
      </trkpt>
      <trkpt lat="43.22889" lon="6.37271">
        <ele>353</ele>
        <time>2015-04-29T11:14:18.210Z</time>
      </trkpt>
      <trkpt lat="43.22886" lon="6.37254">
        <ele>353</ele>
        <time>2015-04-29T11:14:26.210Z</time>
      </trkpt>
      <trkpt lat="43.22897" lon="6.37243">
        <ele>353.10899968</ele>
        <time>2015-04-29T11:14:38.490Z</time>
      </trkpt>
      <trkpt lat="43.229" lon="6.37227">
        <ele>353.90899968</ele>
        <time>2015-04-29T11:14:46.490Z</time>
      </trkpt>
      <trkpt lat="43.22906" lon="6.37201">
        <ele>354.18099968</ele>
        <time>2015-04-29T11:14:59.210Z</time>
      </trkpt>
      <trkpt lat="43.22903" lon="6.37158">
        <ele>355</ele>
        <time>2015-04-29T11:15:19.210Z</time>
      </trkpt>
      <trkpt lat="43.22901" lon="6.37141">
        <ele>355</ele>
        <time>2015-04-29T11:15:28.490Z</time>
      </trkpt>
      <trkpt lat="43.22908" lon="6.37128">
        <ele>355</ele>
        <time>2015-04-29T11:15:41.110Z</time>
      </trkpt>
      <trkpt lat="43.22913" lon="6.37109">
        <ele>355.444</ele>
        <time>2015-04-29T11:15:51.840Z</time>
      </trkpt>
      <trkpt lat="43.22926" lon="6.37087">
        <ele>356</ele>
        <time>2015-04-29T11:16:04.110Z</time>
      </trkpt>
      <trkpt lat="43.22946" lon="6.37067">
        <ele>357</ele>
        <time>2015-04-29T11:16:18.210Z</time>
      </trkpt>
      <trkpt lat="43.22953" lon="6.37049">
        <ele>357</ele>
        <time>2015-04-29T11:16:29.010Z</time>
      </trkpt>
      <trkpt lat="43.22958" lon="6.3702">
        <ele>357</ele>
        <time>2015-04-29T11:16:43.010Z</time>
      </trkpt>
      <trkpt lat="43.22968" lon="6.37006">
        <ele>357</ele>
        <time>2015-04-29T11:16:55.010Z</time>
      </trkpt>
      <trkpt lat="43.2298" lon="6.36995">
        <ele>358.97797734439</ele>
        <time>2015-04-29T11:17:07.290Z</time>
      </trkpt>
      <trkpt lat="43.22992" lon="6.36993">
        <ele>359</ele>
        <time>2015-04-29T11:17:15.290Z</time>
      </trkpt>
      <trkpt lat="43.23003" lon="6.36988">
        <ele>359</ele>
        <time>2015-04-29T11:17:23.290Z</time>
      </trkpt>
      <trkpt lat="43.23012" lon="6.36978">
        <ele>359</ele>
        <time>2015-04-29T11:17:31.290Z</time>
      </trkpt>
      <trkpt lat="43.2302" lon="6.36967">
        <ele>359.07879346304</ele>
        <time>2015-04-29T11:17:38.210Z</time>
      </trkpt>
      <trkpt lat="43.2303" lon="6.36955">
        <ele>359.94455284047</ele>
        <time>2015-04-29T11:17:47.110Z</time>
      </trkpt>
      <trkpt lat="43.23038" lon="6.36938">
        <ele>360</ele>
        <time>2015-04-29T11:17:56.300Z</time>
      </trkpt>
      <trkpt lat="43.23044" lon="6.36924">
        <ele>360.67100032</ele>
        <time>2015-04-29T11:18:04.110Z</time>
      </trkpt>
      <trkpt lat="43.23051" lon="6.36911">
        <ele>361</ele>
        <time>2015-04-29T11:18:16.120Z</time>
      </trkpt>
      <trkpt lat="43.23063" lon="6.36898">
        <ele>361</ele>
        <time>2015-04-29T11:18:24.110Z</time>
      </trkpt>
      <trkpt lat="43.23076" lon="6.36886">
        <ele>361</ele>
        <time>2015-04-29T11:18:32.390Z</time>
      </trkpt>
      <trkpt lat="43.23089" lon="6.36874">
        <ele>361</ele>
        <time>2015-04-29T11:18:43.110Z</time>
      </trkpt>
      <trkpt lat="43.23098" lon="6.3686">
        <ele>361.67100032</ele>
        <time>2015-04-29T11:18:54.110Z</time>
      </trkpt>
      <trkpt lat="43.23108" lon="6.36843">
        <ele>361.52899968</ele>
        <time>2015-04-29T11:19:02.110Z</time>
      </trkpt>
      <trkpt lat="43.23121" lon="6.36834">
        <ele>361.29900032</ele>
        <time>2015-04-29T11:19:10.390Z</time>
      </trkpt>
      <trkpt lat="43.23132" lon="6.36826">
        <ele>362</ele>
        <time>2015-04-29T11:19:22.390Z</time>
      </trkpt>
      <trkpt lat="43.23139" lon="6.36815">
        <ele>362</ele>
        <time>2015-04-29T11:19:30.390Z</time>
      </trkpt>
      <trkpt lat="43.23149" lon="6.36807">
        <ele>362.2</ele>
        <time>2015-04-29T11:19:38.400Z</time>
      </trkpt>
      <trkpt lat="43.2316" lon="6.36798">
        <ele>363.79800064</ele>
        <time>2015-04-29T11:19:46.390Z</time>
      </trkpt>
      <trkpt lat="43.23172" lon="6.36789">
        <ele>364</ele>
        <time>2015-04-29T11:19:54.390Z</time>
      </trkpt>
      <trkpt lat="43.23199" lon="6.36765">
        <ele>365</ele>
        <time>2015-04-29T11:20:16.210Z</time>
      </trkpt>
      <trkpt lat="43.23214" lon="6.3675">
        <ele>365</ele>
        <time>2015-04-29T11:20:30.210Z</time>
      </trkpt>
      <trkpt lat="43.2323" lon="6.36723">
        <ele>365.87087123255</ele>
        <time>2015-04-29T11:20:46.110Z</time>
      </trkpt>
      <trkpt lat="43.23233" lon="6.36706">
        <ele>366</ele>
        <time>2015-04-29T11:20:54.110Z</time>
      </trkpt>
      <trkpt lat="43.23239" lon="6.36689">
        <ele>366.8988992516</ele>
        <time>2015-04-29T11:21:06.390Z</time>
      </trkpt>
      <trkpt lat="43.23247" lon="6.36657">
        <ele>367</ele>
        <time>2015-04-29T11:21:19.110Z</time>
      </trkpt>
      <trkpt lat="43.23257" lon="6.36639">
        <ele>367</ele>
        <time>2015-04-29T11:21:33.110Z</time>
      </trkpt>
      <trkpt lat="43.23318" lon="6.36486">
        <ele>370</ele>
        <time>2015-04-29T11:23:11.390Z</time>
      </trkpt>
      <trkpt lat="43.23308" lon="6.36476">
        <ele>370.16649477213</ele>
        <time>2015-04-29T11:23:19.290Z</time>
      </trkpt>
      <trkpt lat="43.23296" lon="6.36482">
        <ele>371.05998003854</ele>
        <time>2015-04-29T11:23:28.010Z</time>
      </trkpt>
      <trkpt lat="43.23288" lon="6.3649">
        <ele>371.85644109544</ele>
        <time>2015-04-29T11:23:36.110Z</time>
      </trkpt>
      <trkpt lat="43.23277" lon="6.36494">
        <ele>372</ele>
        <time>2015-04-29T11:23:43.110Z</time>
      </trkpt>
      <trkpt lat="43.23269" lon="6.3654">
        <ele>373</ele>
        <time>2015-04-29T11:24:08.290Z</time>
      </trkpt>
      <trkpt lat="43.23265" lon="6.36557">
        <ele>373</ele>
        <time>2015-04-29T11:24:16.290Z</time>
      </trkpt>
      <trkpt lat="43.23252" lon="6.36562">
        <ele>373</ele>
        <time>2015-04-29T11:24:22.490Z</time>
      </trkpt>
      <trkpt lat="43.23236" lon="6.3656">
        <ele>373</ele>
        <time>2015-04-29T11:24:33.110Z</time>
      </trkpt>
      <trkpt lat="43.23214" lon="6.36565">
        <ele>373</ele>
        <time>2015-04-29T11:24:49.110Z</time>
      </trkpt>
      <trkpt lat="43.232" lon="6.36568">
        <ele>373</ele>
        <time>2015-04-29T11:25:01.120Z</time>
      </trkpt>
      <trkpt lat="43.23188" lon="6.36565">
        <ele>373</ele>
        <time>2015-04-29T11:25:09.390Z</time>
      </trkpt>
      <trkpt lat="43.23177" lon="6.36561">
        <ele>373</ele>
        <time>2015-04-29T11:25:17.390Z</time>
      </trkpt>
      <trkpt lat="43.23166" lon="6.3656">
        <ele>373</ele>
        <time>2015-04-29T11:25:25.390Z</time>
      </trkpt>
      <trkpt lat="43.23152" lon="6.36531">
        <ele>373.76704007584</ele>
        <time>2015-04-29T11:25:45.110Z</time>
      </trkpt>
      <trkpt lat="43.23152" lon="6.36496">
        <ele>374</ele>
        <time>2015-04-29T11:25:59.220Z</time>
      </trkpt>
      <trkpt lat="43.23156" lon="6.36465">
        <ele>374</ele>
        <time>2015-04-29T11:26:16.390Z</time>
      </trkpt>
      <trkpt lat="43.23153" lon="6.36445">
        <ele>374.07107136863</ele>
        <time>2015-04-29T11:26:28.120Z</time>
      </trkpt>
      <trkpt lat="43.23143" lon="6.36425">
        <ele>375</ele>
        <time>2015-04-29T11:26:39.110Z</time>
      </trkpt>
      <trkpt lat="43.23129" lon="6.36421">
        <ele>375</ele>
        <time>2015-04-29T11:26:51.120Z</time>
      </trkpt>
      <trkpt lat="43.23116" lon="6.36421">
        <ele>375.59900032</ele>
        <time>2015-04-29T11:27:03.390Z</time>
      </trkpt>
      <trkpt lat="43.23105" lon="6.3642">
        <ele>376.79800064</ele>
        <time>2015-04-29T11:27:11.390Z</time>
      </trkpt>
      <trkpt lat="43.2309" lon="6.36423">
        <ele>378</ele>
        <time>2015-04-29T11:27:19.390Z</time>
      </trkpt>
      <trkpt lat="43.2308" lon="6.36414">
        <ele>378</ele>
        <time>2015-04-29T11:27:31.390Z</time>
      </trkpt>
      <trkpt lat="43.23064" lon="6.36392">
        <ele>378.77100032</ele>
        <time>2015-04-29T11:27:45.110Z</time>
      </trkpt>
      <trkpt lat="43.23053" lon="6.36381">
        <ele>379</ele>
        <time>2015-04-29T11:27:53.110Z</time>
      </trkpt>
      <trkpt lat="43.23044" lon="6.36371">
        <ele>379.39900032</ele>
        <time>2015-04-29T11:28:01.390Z</time>
      </trkpt>
      <trkpt lat="43.23035" lon="6.36359">
        <ele>380.19900032</ele>
        <time>2015-04-29T11:28:09.390Z</time>
      </trkpt>
      <trkpt lat="43.23024" lon="6.36351">
        <ele>380.99900032</ele>
        <time>2015-04-29T11:28:17.390Z</time>
      </trkpt>
      <trkpt lat="43.23013" lon="6.36347">
        <ele>381.79900032</ele>
        <time>2015-04-29T11:28:25.390Z</time>
      </trkpt>
      <trkpt lat="43.22997" lon="6.3635">
        <ele>382.99900032</ele>
        <time>2015-04-29T11:28:37.390Z</time>
      </trkpt>
      <trkpt lat="43.22987" lon="6.36359">
        <ele>383.79900032</ele>
        <time>2015-04-29T11:28:45.390Z</time>
      </trkpt>
      <trkpt lat="43.23101" lon="6.3616">
        <ele>404</ele>
        <time>2015-04-29T11:34:13.120Z</time>
      </trkpt>
      <trkpt lat="43.23114" lon="6.36145">
        <ele>404.382322839</ele>
        <time>2015-04-29T11:34:21.390Z</time>
      </trkpt>
      <trkpt lat="43.23126" lon="6.36126">
        <ele>405.27072967696</ele>
        <time>2015-04-29T11:34:30.110Z</time>
      </trkpt>
      <trkpt lat="43.23131" lon="6.36095">
        <ele>406.58058039461</ele>
        <time>2015-04-29T11:34:43.210Z</time>
      </trkpt>
      <trkpt lat="43.23141" lon="6.36065">
        <ele>407.47100032</ele>
        <time>2015-04-29T11:35:02.110Z</time>
      </trkpt>
      <trkpt lat="43.23144" lon="6.36042">
        <ele>408</ele>
        <time>2015-04-29T11:35:15.020Z</time>
      </trkpt>
      <trkpt lat="43.23145" lon="6.36023">
        <ele>409.14086014493</ele>
        <time>2015-04-29T11:35:23.110Z</time>
      </trkpt>
      <trkpt lat="43.23148" lon="6.36009">
        <ele>410</ele>
        <time>2015-04-29T11:35:31.390Z</time>
      </trkpt>
      <trkpt lat="43.2315" lon="6.35995">
        <ele>410.39800064</ele>
        <time>2015-04-29T11:35:39.390Z</time>
      </trkpt>
      <trkpt lat="43.23149" lon="6.35979">
        <ele>411.99800064</ele>
        <time>2015-04-29T11:35:47.390Z</time>
      </trkpt>
      <trkpt lat="43.23146" lon="6.35961">
        <ele>412</ele>
        <time>2015-04-29T11:35:55.390Z</time>
      </trkpt>
      <trkpt lat="43.23142" lon="6.35941">
        <ele>412.65548747968</ele>
        <time>2015-04-29T11:36:04.010Z</time>
      </trkpt>
      <trkpt lat="43.23136" lon="6.35921">
        <ele>413</ele>
        <time>2015-04-29T11:36:11.010Z</time>
      </trkpt>
      <trkpt lat="43.23134" lon="6.35887">
        <ele>413.57100032</ele>
        <time>2015-04-29T11:36:23.110Z</time>
      </trkpt>
      <trkpt lat="43.23138" lon="6.35869">
        <ele>414.77100032</ele>
        <time>2015-04-29T11:36:35.110Z</time>
      </trkpt>
      <trkpt lat="43.23144" lon="6.3585">
        <ele>415</ele>
        <time>2015-04-29T11:36:47.390Z</time>
      </trkpt>
      <trkpt lat="43.2315" lon="6.35837">
        <ele>415.79900032</ele>
        <time>2015-04-29T11:36:55.390Z</time>
      </trkpt>
      <trkpt lat="43.23153" lon="6.35822">
        <ele>416</ele>
        <time>2015-04-29T11:37:03.390Z</time>
      </trkpt>
      <trkpt lat="43.23155" lon="6.35807">
        <ele>416.39900032</ele>
        <time>2015-04-29T11:37:11.390Z</time>
      </trkpt>
      <trkpt lat="43.23158" lon="6.35794">
        <ele>417</ele>
        <time>2015-04-29T11:37:19.390Z</time>
      </trkpt>
      <trkpt lat="43.23157" lon="6.35775">
        <ele>417</ele>
        <time>2015-04-29T11:37:27.390Z</time>
      </trkpt>
      <trkpt lat="43.23157" lon="6.35753">
        <ele>417</ele>
        <time>2015-04-29T11:37:35.390Z</time>
      </trkpt>
      <trkpt lat="43.2315" lon="6.35738">
        <ele>418.19800064</ele>
        <time>2015-04-29T11:37:43.390Z</time>
      </trkpt>
      <trkpt lat="43.23138" lon="6.35717">
        <ele>419</ele>
        <time>2015-04-29T11:37:55.390Z</time>
      </trkpt>
      <trkpt lat="43.23124" lon="6.35717">
        <ele>420</ele>
        <time>2015-04-29T11:38:11.290Z</time>
      </trkpt>
      <trkpt lat="43.23109" lon="6.35721">
        <ele>420.46099968</ele>
        <time>2015-04-29T11:38:22.010Z</time>
      </trkpt>
      <trkpt lat="43.23098" lon="6.35723">
        <ele>421</ele>
        <time>2015-04-29T11:38:30.290Z</time>
      </trkpt>
      <trkpt lat="43.23086" lon="6.35728">
        <ele>421</ele>
        <time>2015-04-29T11:38:39.120Z</time>
      </trkpt>
      <trkpt lat="43.23073" lon="6.35733">
        <ele>421</ele>
        <time>2015-04-29T11:38:47.020Z</time>
      </trkpt>
      <trkpt lat="43.23057" lon="6.35736">
        <ele>421.92293293233</ele>
        <time>2015-04-29T11:38:57.390Z</time>
      </trkpt>
      <trkpt lat="43.23044" lon="6.35734">
        <ele>422.65397252528</ele>
        <time>2015-04-29T11:39:04.220Z</time>
      </trkpt>
      <trkpt lat="43.23031" lon="6.35734">
        <ele>423</ele>
        <time>2015-04-29T11:39:12.490Z</time>
      </trkpt>
      <trkpt lat="43.23019" lon="6.35733">
        <ele>423.30899968</ele>
        <time>2015-04-29T11:39:20.490Z</time>
      </trkpt>
      <trkpt lat="43.23006" lon="6.3573">
        <ele>424</ele>
        <time>2015-04-29T11:39:28.490Z</time>
      </trkpt>
      <trkpt lat="43.22993" lon="6.35726">
        <ele>424</ele>
        <time>2015-04-29T11:39:36.490Z</time>
      </trkpt>
      <trkpt lat="43.22981" lon="6.3572">
        <ele>424.70899968</ele>
        <time>2015-04-29T11:39:44.490Z</time>
      </trkpt>
      <trkpt lat="43.22974" lon="6.35712">
        <ele>424.09100032</ele>
        <time>2015-04-29T11:39:56.490Z</time>
      </trkpt>
      <trkpt lat="43.22956" lon="6.35676">
        <ele>425.56614723735</ele>
        <time>2015-04-29T11:40:13.220Z</time>
      </trkpt>
      <trkpt lat="43.22944" lon="6.35666">
        <ele>426</ele>
        <time>2015-04-29T11:40:23.290Z</time>
      </trkpt>
      <trkpt lat="43.22934" lon="6.35665">
        <ele>426</ele>
        <time>2015-04-29T11:40:30.490Z</time>
      </trkpt>
      <trkpt lat="43.22923" lon="6.35666">
        <ele>426</ele>
        <time>2015-04-29T11:40:38.490Z</time>
      </trkpt>
      <trkpt lat="43.22912" lon="6.35664">
        <ele>426</ele>
        <time>2015-04-29T11:40:46.490Z</time>
      </trkpt>
      <trkpt lat="43.22898" lon="6.35659">
        <ele>427.41799936</ele>
        <time>2015-04-29T11:40:54.490Z</time>
      </trkpt>
      <trkpt lat="43.22887" lon="6.35653">
        <ele>427.49100032</ele>
        <time>2015-04-29T11:41:02.490Z</time>
      </trkpt>
      <trkpt lat="43.22874" lon="6.35645">
        <ele>427.30899968</ele>
        <time>2015-04-29T11:41:10.490Z</time>
      </trkpt>
      <trkpt lat="43.22863" lon="6.35641">
        <ele>428</ele>
        <time>2015-04-29T11:41:18.490Z</time>
      </trkpt>
      <trkpt lat="43.22855" lon="6.35647">
        <ele>428</ele>
        <time>2015-04-29T11:41:26.490Z</time>
      </trkpt>
      <trkpt lat="43.22854" lon="6.35659">
        <ele>428.70899968</ele>
        <time>2015-04-29T11:41:34.490Z</time>
      </trkpt>
      <trkpt lat="43.22862" lon="6.3567">
        <ele>429</ele>
        <time>2015-04-29T11:41:41.290Z</time>
      </trkpt>
      <trkpt lat="43.2287" lon="6.3568">
        <ele>429.32199936</ele>
        <time>2015-04-29T11:41:49.010Z</time>
      </trkpt>
      <trkpt lat="43.22878" lon="6.35691">
        <ele>431.00099968</ele>
        <time>2015-04-29T11:41:57.410Z</time>
      </trkpt>
      <trkpt lat="43.22887" lon="6.35719">
        <ele>432.28200064</ele>
        <time>2015-04-29T11:42:10.220Z</time>
      </trkpt>
      <trkpt lat="43.22888" lon="6.35735">
        <ele>433</ele>
        <time>2015-04-29T11:42:23.110Z</time>
      </trkpt>
      <trkpt lat="43.22887" lon="6.35748">
        <ele>433.39839891142</ele>
        <time>2015-04-29T11:42:31.390Z</time>
      </trkpt>
      <trkpt lat="43.22885" lon="6.35763">
        <ele>434</ele>
        <time>2015-04-29T11:42:39.390Z</time>
      </trkpt>
      <trkpt lat="43.22882" lon="6.35778">
        <ele>434</ele>
        <time>2015-04-29T11:42:47.390Z</time>
      </trkpt>
      <trkpt lat="43.22875" lon="6.35792">
        <ele>434</ele>
        <time>2015-04-29T11:42:55.390Z</time>
      </trkpt>
      <trkpt lat="43.22868" lon="6.35804">
        <ele>434</ele>
        <time>2015-04-29T11:43:03.390Z</time>
      </trkpt>
      <trkpt lat="43.22862" lon="6.35818">
        <ele>434</ele>
        <time>2015-04-29T11:43:11.390Z</time>
      </trkpt>
      <trkpt lat="43.22856" lon="6.35834">
        <ele>434.39800064</ele>
        <time>2015-04-29T11:43:19.390Z</time>
      </trkpt>
      <trkpt lat="43.22853" lon="6.35847">
        <ele>435.99800064</ele>
        <time>2015-04-29T11:43:27.390Z</time>
      </trkpt>
      <trkpt lat="43.22849" lon="6.35861">
        <ele>435.20099968</ele>
        <time>2015-04-29T11:43:35.390Z</time>
      </trkpt>
      <trkpt lat="43.22842" lon="6.35874">
        <ele>435</ele>
        <time>2015-04-29T11:43:43.390Z</time>
      </trkpt>
      <trkpt lat="43.22834" lon="6.35883">
        <ele>435</ele>
        <time>2015-04-29T11:43:51.390Z</time>
      </trkpt>
      <trkpt lat="43.22823" lon="6.35885">
        <ele>435</ele>
        <time>2015-04-29T11:43:59.390Z</time>
      </trkpt>
      <trkpt lat="43.22811" lon="6.35879">
        <ele>435</ele>
        <time>2015-04-29T11:44:07.390Z</time>
      </trkpt>
      <trkpt lat="43.228" lon="6.35871">
        <ele>436.59800064</ele>
        <time>2015-04-29T11:44:15.390Z</time>
      </trkpt>
      <trkpt lat="43.2279" lon="6.35867">
        <ele>436.40099968</ele>
        <time>2015-04-29T11:44:23.390Z</time>
      </trkpt>
      <trkpt lat="43.22779" lon="6.35864">
        <ele>436.39900032</ele>
        <time>2015-04-29T11:44:31.390Z</time>
      </trkpt>
      <trkpt lat="43.22768" lon="6.35861">
        <ele>437</ele>
        <time>2015-04-29T11:44:39.390Z</time>
      </trkpt>
      <trkpt lat="43.22752" lon="6.35856">
        <ele>436.60099968</ele>
        <time>2015-04-29T11:44:51.390Z</time>
      </trkpt>
      <trkpt lat="43.22742" lon="6.3585">
        <ele>436.19395730591</ele>
        <time>2015-04-29T11:44:59.390Z</time>
      </trkpt>
      <trkpt lat="43.22731" lon="6.35844">
        <ele>436.97368391505</ele>
        <time>2015-04-29T11:45:07.390Z</time>
      </trkpt>
      <trkpt lat="43.22717" lon="6.35834">
        <ele>436.89100032</ele>
        <time>2015-04-29T11:45:18.490Z</time>
      </trkpt>
      <trkpt lat="43.22711" lon="6.35823">
        <ele>436.09100032</ele>
        <time>2015-04-29T11:45:26.490Z</time>
      </trkpt>
      <trkpt lat="43.22703" lon="6.35811">
        <ele>437.41799936</ele>
        <time>2015-04-29T11:45:34.490Z</time>
      </trkpt>
      <trkpt lat="43.22696" lon="6.35805">
        <ele>438</ele>
        <time>2015-04-29T11:45:46.490Z</time>
      </trkpt>
      <trkpt lat="43.2269" lon="6.35795">
        <ele>437</ele>
        <time>2015-04-29T11:46:30.490Z</time>
      </trkpt>
      <trkpt lat="43.22682" lon="6.35784">
        <ele>437.10899968</ele>
        <time>2015-04-29T11:46:38.490Z</time>
      </trkpt>
      <trkpt lat="43.22673" lon="6.35773">
        <ele>437.90899968</ele>
        <time>2015-04-29T11:46:46.490Z</time>
      </trkpt>
      <trkpt lat="43.22664" lon="6.35761">
        <ele>438</ele>
        <time>2015-04-29T11:46:54.490Z</time>
      </trkpt>
      <trkpt lat="43.22657" lon="6.35751">
        <ele>438</ele>
        <time>2015-04-29T11:47:02.490Z</time>
      </trkpt>
      <trkpt lat="43.22648" lon="6.35741">
        <ele>438</ele>
        <time>2015-04-29T11:47:14.490Z</time>
      </trkpt>
      <trkpt lat="43.22645" lon="6.35723">
        <ele>438.90809187871</ele>
        <time>2015-04-29T11:47:26.490Z</time>
      </trkpt>
      <trkpt lat="43.22634" lon="6.35708">
        <ele>439</ele>
        <time>2015-04-29T11:47:34.490Z</time>
      </trkpt>
      <trkpt lat="43.22625" lon="6.35699">
        <ele>439</ele>
        <time>2015-04-29T11:47:42.490Z</time>
      </trkpt>
      <trkpt lat="43.22615" lon="6.3568">
        <ele>440.41799936</ele>
        <time>2015-04-29T11:47:54.490Z</time>
      </trkpt>
      <trkpt lat="43.22511" lon="6.35295">
        <ele>447</ele>
        <time>2015-04-29T11:51:35.110Z</time>
      </trkpt>
      <trkpt lat="43.22506" lon="6.35281">
        <ele>446.79900032</ele>
        <time>2015-04-29T11:51:49.410Z</time>
      </trkpt>
      <trkpt lat="43.2251" lon="6.3526">
        <ele>444.63800064</ele>
        <time>2015-04-29T11:52:04.210Z</time>
      </trkpt>
      <trkpt lat="43.225" lon="6.3524">
        <ele>444</ele>
        <time>2015-04-29T11:52:12.210Z</time>
      </trkpt>
      <trkpt lat="43.22494" lon="6.35224">
        <ele>444</ele>
        <time>2015-04-29T11:52:20.490Z</time>
      </trkpt>
      <trkpt lat="43.22488" lon="6.35205">
        <ele>444</ele>
        <time>2015-04-29T11:52:30.120Z</time>
      </trkpt>
      <trkpt lat="43.22484" lon="6.35186">
        <ele>444</ele>
        <time>2015-04-29T11:52:42.490Z</time>
      </trkpt>
      <trkpt lat="43.22484" lon="6.35171">
        <ele>443.69100032</ele>
        <time>2015-04-29T11:52:50.490Z</time>
      </trkpt>
      <trkpt lat="43.22486" lon="6.35149">
        <ele>443</ele>
        <time>2015-04-29T11:53:04.110Z</time>
      </trkpt>
      <trkpt lat="43.22486" lon="6.35135">
        <ele>443</ele>
        <time>2015-04-29T11:53:12.120Z</time>
      </trkpt>
      <trkpt lat="43.22479" lon="6.35124">
        <ele>443.68899968</ele>
        <time>2015-04-29T11:53:24.290Z</time>
      </trkpt>
      <trkpt lat="43.22471" lon="6.35114">
        <ele>444</ele>
        <time>2015-04-29T11:53:33.220Z</time>
      </trkpt>
      <trkpt lat="43.2246" lon="6.35104">
        <ele>444</ele>
        <time>2015-04-29T11:53:42.210Z</time>
      </trkpt>
      <trkpt lat="43.22449" lon="6.35093">
        <ele>444</ele>
        <time>2015-04-29T11:53:50.490Z</time>
      </trkpt>
      <trkpt lat="43.22438" lon="6.35083">
        <ele>444.10899968</ele>
        <time>2015-04-29T11:53:58.490Z</time>
      </trkpt>
      <trkpt lat="43.22427" lon="6.35074">
        <ele>444.90899968</ele>
        <time>2015-04-29T11:54:06.490Z</time>
      </trkpt>
      <trkpt lat="43.22417" lon="6.35068">
        <ele>445</ele>
        <time>2015-04-29T11:54:14.490Z</time>
      </trkpt>
      <trkpt lat="43.22408" lon="6.35075">
        <ele>445</ele>
        <time>2015-04-29T11:54:26.490Z</time>
      </trkpt>
      <trkpt lat="43.22394" lon="6.35076">
        <ele>446</ele>
        <time>2015-04-29T11:54:41.210Z</time>
      </trkpt>
      <trkpt lat="43.2238" lon="6.35078">
        <ele>446.38099968</ele>
        <time>2015-04-29T11:54:51.210Z</time>
      </trkpt>
      <trkpt lat="43.22356" lon="6.35066">
        <ele>447.60899968</ele>
        <time>2015-04-29T11:55:03.490Z</time>
      </trkpt>
      <trkpt lat="43.22343" lon="6.35062">
        <ele>448</ele>
        <time>2015-04-29T11:55:12.220Z</time>
      </trkpt>
      <trkpt lat="43.22327" lon="6.35053">
        <ele>448.97055875311</ele>
        <time>2015-04-29T11:55:27.290Z</time>
      </trkpt>
      <trkpt lat="43.22316" lon="6.35046">
        <ele>449</ele>
        <time>2015-04-29T11:55:35.490Z</time>
      </trkpt>
      <trkpt lat="43.223" lon="6.35034">
        <ele>449.75984251968</ele>
        <time>2015-04-29T11:55:45.120Z</time>
      </trkpt>
      <trkpt lat="43.22283" lon="6.35029">
        <ele>450</ele>
        <time>2015-04-29T11:55:59.020Z</time>
      </trkpt>
      <trkpt lat="43.22259" lon="6.34995">
        <ele>450</ele>
        <time>2015-04-29T11:56:19.220Z</time>
      </trkpt>
      <trkpt lat="43.22248" lon="6.3498">
        <ele>450</ele>
        <time>2015-04-29T11:56:29.290Z</time>
      </trkpt>
      <trkpt lat="43.2224" lon="6.34969">
        <ele>450</ele>
        <time>2015-04-29T11:56:37.290Z</time>
      </trkpt>
      <trkpt lat="43.22226" lon="6.3495">
        <ele>449.81699968</ele>
        <time>2015-04-29T11:56:49.230Z</time>
      </trkpt>
      <trkpt lat="43.22214" lon="6.34936">
        <ele>449.38199936</ele>
        <time>2015-04-29T11:57:01.220Z</time>
      </trkpt>
      <trkpt lat="43.22205" lon="6.34923">
        <ele>450</ele>
        <time>2015-04-29T11:57:10.220Z</time>
      </trkpt>
      <trkpt lat="43.22198" lon="6.34912">
        <ele>450</ele>
        <time>2015-04-29T11:57:16.220Z</time>
      </trkpt>
      <trkpt lat="43.22191" lon="6.34896">
        <ele>451.76199936</ele>
        <time>2015-04-29T11:57:26.210Z</time>
      </trkpt>
      <trkpt lat="43.22186" lon="6.34881">
        <ele>452.76123964395</ele>
        <time>2015-04-29T11:57:35.020Z</time>
      </trkpt>
      <trkpt lat="43.22177" lon="6.34869">
        <ele>453</ele>
        <time>2015-04-29T11:57:43.290Z</time>
      </trkpt>
      <trkpt lat="43.2217" lon="6.34858">
        <ele>453</ele>
        <time>2015-04-29T11:57:51.290Z</time>
      </trkpt>
      <trkpt lat="43.22161" lon="6.3484">
        <ele>452.81100032</ele>
        <time>2015-04-29T11:57:59.290Z</time>
      </trkpt>
      <trkpt lat="43.22148" lon="6.34822">
        <ele>452.58199936</ele>
        <time>2015-04-29T11:58:13.220Z</time>
      </trkpt>
      <trkpt lat="43.22138" lon="6.34806">
        <ele>452.51799936</ele>
        <time>2015-04-29T11:58:22.220Z</time>
      </trkpt>
      <trkpt lat="43.2213" lon="6.34792">
        <ele>451.528</ele>
        <time>2015-04-29T11:58:32.120Z</time>
      </trkpt>
      <trkpt lat="43.22121" lon="6.34776">
        <ele>451.58199936</ele>
        <time>2015-04-29T11:58:43.220Z</time>
      </trkpt>
      <trkpt lat="43.2211" lon="6.34758">
        <ele>452.70899968</ele>
        <time>2015-04-29T11:58:54.490Z</time>
      </trkpt>
      <trkpt lat="43.22106" lon="6.34742">
        <ele>453.68099968</ele>
        <time>2015-04-29T11:59:04.210Z</time>
      </trkpt>
      <trkpt lat="43.22105" lon="6.34725">
        <ele>454</ele>
        <time>2015-04-29T11:59:13.110Z</time>
      </trkpt>
      <trkpt lat="43.22098" lon="6.34709">
        <ele>454.39839891142</ele>
        <time>2015-04-29T11:59:21.390Z</time>
      </trkpt>
      <trkpt lat="43.22088" lon="6.34695">
        <ele>455</ele>
        <time>2015-04-29T11:59:29.390Z</time>
      </trkpt>
      <trkpt lat="43.22077" lon="6.34675">
        <ele>455</ele>
        <time>2015-04-29T11:59:42.110Z</time>
      </trkpt>
      <trkpt lat="43.22067" lon="6.34664">
        <ele>455.27100032</ele>
        <time>2015-04-29T11:59:50.110Z</time>
      </trkpt>
      <trkpt lat="43.22055" lon="6.34653">
        <ele>456</ele>
        <time>2015-04-29T11:59:59.110Z</time>
      </trkpt>
      <trkpt lat="43.22046" lon="6.34645">
        <ele>456</ele>
        <time>2015-04-29T12:00:07.010Z</time>
      </trkpt>
      <trkpt lat="43.22037" lon="6.34635">
        <ele>457.81485190157</ele>
        <time>2015-04-29T12:00:16.490Z</time>
      </trkpt>
      <trkpt lat="43.22028" lon="6.34629">
        <ele>458.92049777778</ele>
        <time>2015-04-29T12:00:27.010Z</time>
      </trkpt>
      <trkpt lat="43.22011" lon="6.34624">
        <ele>459</ele>
        <time>2015-04-29T12:00:37.410Z</time>
      </trkpt>
      <trkpt lat="43.21998" lon="6.34625">
        <ele>459</ele>
        <time>2015-04-29T12:00:45.840Z</time>
      </trkpt>
      <trkpt lat="43.21987" lon="6.34626">
        <ele>459</ele>
        <time>2015-04-29T12:00:57.490Z</time>
      </trkpt>
      <trkpt lat="43.21972" lon="6.34622">
        <ele>459</ele>
        <time>2015-04-29T12:01:05.490Z</time>
      </trkpt>
      <trkpt lat="43.21958" lon="6.34617">
        <ele>459.60899968</ele>
        <time>2015-04-29T12:01:13.490Z</time>
      </trkpt>
      <trkpt lat="43.21946" lon="6.34611">
        <ele>460.40899968</ele>
        <time>2015-04-29T12:01:21.490Z</time>
      </trkpt>
      <trkpt lat="43.21935" lon="6.34607">
        <ele>461.20899968</ele>
        <time>2015-04-29T12:01:29.490Z</time>
      </trkpt>
      <trkpt lat="43.21925" lon="6.34599">
        <ele>462.00899968</ele>
        <time>2015-04-29T12:01:37.490Z</time>
      </trkpt>
      <trkpt lat="43.21914" lon="6.34587">
        <ele>463</ele>
        <time>2015-04-29T12:01:49.490Z</time>
      </trkpt>
      <trkpt lat="43.21903" lon="6.34576">
        <ele>463</ele>
        <time>2015-04-29T12:01:57.490Z</time>
      </trkpt>
      <trkpt lat="43.21894" lon="6.34558">
        <ele>463</ele>
        <time>2015-04-29T12:02:09.490Z</time>
      </trkpt>
      <trkpt lat="43.21888" lon="6.34543">
        <ele>463</ele>
        <time>2015-04-29T12:02:17.490Z</time>
      </trkpt>
      <trkpt lat="43.21882" lon="6.34529">
        <ele>463</ele>
        <time>2015-04-29T12:02:25.490Z</time>
      </trkpt>
      <trkpt lat="43.21876" lon="6.34517">
        <ele>463</ele>
        <time>2015-04-29T12:02:33.490Z</time>
      </trkpt>
      <trkpt lat="43.21871" lon="6.34503">
        <ele>463.40899968</ele>
        <time>2015-04-29T12:02:41.490Z</time>
      </trkpt>
      <trkpt lat="43.21861" lon="6.34481">
        <ele>464</ele>
        <time>2015-04-29T12:02:53.490Z</time>
      </trkpt>
      <trkpt lat="43.21855" lon="6.34469">
        <ele>464</ele>
        <time>2015-04-29T12:02:59.440Z</time>
      </trkpt>
      <trkpt lat="43.21849" lon="6.34451">
        <ele>464</ele>
        <time>2015-04-29T12:03:04.290Z</time>
      </trkpt>
      <trkpt lat="43.21842" lon="6.3444">
        <ele>464.47100032</ele>
        <time>2015-04-29T12:03:12.110Z</time>
      </trkpt>
      <trkpt lat="43.21836" lon="6.34427">
        <ele>465.29900032</ele>
        <time>2015-04-29T12:03:20.390Z</time>
      </trkpt>
      <trkpt lat="43.21827" lon="6.34415">
        <ele>466.19800064</ele>
        <time>2015-04-29T12:03:28.390Z</time>
      </trkpt>
      <trkpt lat="43.21818" lon="6.34406">
        <ele>467.79800064</ele>
        <time>2015-04-29T12:03:36.390Z</time>
      </trkpt>
      <trkpt lat="43.21809" lon="6.34395">
        <ele>467.30099968</ele>
        <time>2015-04-29T12:03:44.390Z</time>
      </trkpt>
      <trkpt lat="43.21799" lon="6.34388">
        <ele>466.50099968</ele>
        <time>2015-04-29T12:03:52.390Z</time>
      </trkpt>
      <trkpt lat="43.21789" lon="6.3438">
        <ele>465.40199936</ele>
        <time>2015-04-29T12:04:00.390Z</time>
      </trkpt>
      <trkpt lat="43.21774" lon="6.34368">
        <ele>464.49900032</ele>
        <time>2015-04-29T12:04:12.390Z</time>
      </trkpt>
      <trkpt lat="43.21763" lon="6.34364">
        <ele>465</ele>
        <time>2015-04-29T12:04:20.390Z</time>
      </trkpt>
      <trkpt lat="43.21753" lon="6.3436">
        <ele>465.19800064</ele>
        <time>2015-04-29T12:04:28.390Z</time>
      </trkpt>
      <trkpt lat="43.21746" lon="6.34349">
        <ele>466.79800064</ele>
        <time>2015-04-29T12:04:36.390Z</time>
      </trkpt>
      <trkpt lat="43.21743" lon="6.34336">
        <ele>467</ele>
        <time>2015-04-29T12:04:44.390Z</time>
      </trkpt>
      <trkpt lat="43.21738" lon="6.34324">
        <ele>467.99800064</ele>
        <time>2015-04-29T12:04:52.390Z</time>
      </trkpt>
      <trkpt lat="43.21731" lon="6.34312">
        <ele>469.29900032</ele>
        <time>2015-04-29T12:05:00.390Z</time>
      </trkpt>
      <trkpt lat="43.21721" lon="6.34302">
        <ele>470.09900032</ele>
        <time>2015-04-29T12:05:08.390Z</time>
      </trkpt>
      <trkpt lat="43.21711" lon="6.34291">
        <ele>470.89900032</ele>
        <time>2015-04-29T12:05:16.390Z</time>
      </trkpt>
      <trkpt lat="43.21704" lon="6.3428">
        <ele>471</ele>
        <time>2015-04-29T12:05:24.390Z</time>
      </trkpt>
      <trkpt lat="43.21699" lon="6.34267">
        <ele>471</ele>
        <time>2015-04-29T12:05:32.390Z</time>
      </trkpt>
      <trkpt lat="43.21697" lon="6.34252">
        <ele>471.29900032</ele>
        <time>2015-04-29T12:05:40.390Z</time>
      </trkpt>
      <trkpt lat="43.21696" lon="6.34236">
        <ele>472</ele>
        <time>2015-04-29T12:05:48.390Z</time>
      </trkpt>
      <trkpt lat="43.21691" lon="6.34221">
        <ele>472</ele>
        <time>2015-04-29T12:05:56.390Z</time>
      </trkpt>
      <trkpt lat="43.21684" lon="6.34209">
        <ele>472.69830224122</ele>
        <time>2015-04-29T12:06:04.390Z</time>
      </trkpt>
      <trkpt lat="43.21675" lon="6.34198">
        <ele>473.49849897946</ele>
        <time>2015-04-29T12:06:12.390Z</time>
      </trkpt>
      <trkpt lat="43.21659" lon="6.34185">
        <ele>474</ele>
        <time>2015-04-29T12:06:24.390Z</time>
      </trkpt>
      <trkpt lat="43.2165" lon="6.34175">
        <ele>474</ele>
        <time>2015-04-29T12:06:32.390Z</time>
      </trkpt>
      <trkpt lat="43.2164" lon="6.34167">
        <ele>474</ele>
        <time>2015-04-29T12:06:40.390Z</time>
      </trkpt>
      <trkpt lat="43.2163" lon="6.34155">
        <ele>473.90099968</ele>
        <time>2015-04-29T12:06:48.390Z</time>
      </trkpt>
      <trkpt lat="43.21626" lon="6.34141">
        <ele>473.10099968</ele>
        <time>2015-04-29T12:06:56.390Z</time>
      </trkpt>
      <trkpt lat="43.21625" lon="6.34128">
        <ele>473</ele>
        <time>2015-04-29T12:07:04.290Z</time>
      </trkpt>
      <trkpt lat="43.2162" lon="6.34114">
        <ele>473.97799936</ele>
        <time>2015-04-29T12:07:12.290Z</time>
      </trkpt>
      <trkpt lat="43.21614" lon="6.34102">
        <ele>475.28899968</ele>
        <time>2015-04-29T12:07:20.290Z</time>
      </trkpt>
      <trkpt lat="43.21604" lon="6.34091">
        <ele>476</ele>
        <time>2015-04-29T12:07:28.290Z</time>
      </trkpt>
      <trkpt lat="43.21596" lon="6.34081">
        <ele>476</ele>
        <time>2015-04-29T12:07:36.290Z</time>
      </trkpt>
      <trkpt lat="43.21588" lon="6.34068">
        <ele>476</ele>
        <time>2015-04-29T12:07:44.290Z</time>
      </trkpt>
      <trkpt lat="43.21586" lon="6.34053">
        <ele>476</ele>
        <time>2015-04-29T12:07:52.290Z</time>
      </trkpt>
      <trkpt lat="43.21591" lon="6.34038">
        <ele>476</ele>
        <time>2015-04-29T12:08:00.290Z</time>
      </trkpt>
      <trkpt lat="43.21595" lon="6.34025">
        <ele>476.08899968</ele>
        <time>2015-04-29T12:08:08.290Z</time>
      </trkpt>
      <trkpt lat="43.21593" lon="6.3401">
        <ele>476.88899968</ele>
        <time>2015-04-29T12:08:16.290Z</time>
      </trkpt>
      <trkpt lat="43.21588" lon="6.33995">
        <ele>477.68899968</ele>
        <time>2015-04-29T12:08:24.290Z</time>
      </trkpt>
      <trkpt lat="43.21585" lon="6.33983">
        <ele>478.97799936</ele>
        <time>2015-04-29T12:08:32.290Z</time>
      </trkpt>
      <trkpt lat="43.21579" lon="6.3397">
        <ele>480.28899968</ele>
        <time>2015-04-29T12:08:40.290Z</time>
      </trkpt>
      <trkpt lat="43.21571" lon="6.33957">
        <ele>481</ele>
        <time>2015-04-29T12:08:48.290Z</time>
      </trkpt>
      <trkpt lat="43.21567" lon="6.33949">
        <ele>481</ele>
        <time>2015-04-29T12:08:56.290Z</time>
      </trkpt>
      <trkpt lat="43.21558" lon="6.33941">
        <ele>480.31100032</ele>
        <time>2015-04-29T12:09:04.290Z</time>
      </trkpt>
      <trkpt lat="43.21548" lon="6.33935">
        <ele>480</ele>
        <time>2015-04-29T12:09:12.290Z</time>
      </trkpt>
      <trkpt lat="43.21538" lon="6.33927">
        <ele>479.71100032</ele>
        <time>2015-04-29T12:09:20.290Z</time>
      </trkpt>
      <trkpt lat="43.21529" lon="6.33918">
        <ele>479</ele>
        <time>2015-04-29T12:09:28.290Z</time>
      </trkpt>
      <trkpt lat="43.21515" lon="6.33904">
        <ele>478.71100032</ele>
        <time>2015-04-29T12:09:40.290Z</time>
      </trkpt>
      <trkpt lat="43.21506" lon="6.33894">
        <ele>478.17799936</ele>
        <time>2015-04-29T12:09:48.290Z</time>
      </trkpt>
      <trkpt lat="43.21499" lon="6.33881">
        <ele>479.77799936</ele>
        <time>2015-04-29T12:09:56.290Z</time>
      </trkpt>
      <trkpt lat="43.21493" lon="6.33869">
        <ele>479.31168841133</ele>
        <time>2015-04-29T12:10:04.290Z</time>
      </trkpt>
      <trkpt lat="43.21486" lon="6.33858">
        <ele>479</ele>
        <time>2015-04-29T12:10:12.290Z</time>
      </trkpt>
      <trkpt lat="43.21481" lon="6.33848">
        <ele>479</ele>
        <time>2015-04-29T12:10:20.290Z</time>
      </trkpt>
      <trkpt lat="43.21475" lon="6.33836">
        <ele>478.91100032</ele>
        <time>2015-04-29T12:10:28.290Z</time>
      </trkpt>
      <trkpt lat="43.21469" lon="6.33826">
        <ele>478.11100032</ele>
        <time>2015-04-29T12:10:36.290Z</time>
      </trkpt>
      <trkpt lat="43.21463" lon="6.33817">
        <ele>477.31100032</ele>
        <time>2015-04-29T12:10:44.290Z</time>
      </trkpt>
      <trkpt lat="43.21462" lon="6.33808">
        <ele>476.51100032</ele>
        <time>2015-04-29T12:10:52.290Z</time>
      </trkpt>
      <trkpt lat="43.21457" lon="6.33802">
        <ele>475.42200064</ele>
        <time>2015-04-29T12:11:00.290Z</time>
      </trkpt>
      <trkpt lat="43.21451" lon="6.3381">
        <ele>475</ele>
        <time>2015-04-29T12:11:30.390Z</time>
      </trkpt>
      <trkpt lat="43.21457" lon="6.33794">
        <ele>474</ele>
        <time>2015-04-29T12:12:27.490Z</time>
      </trkpt>
      <trkpt lat="43.21469" lon="6.33778">
        <ele>474</ele>
        <time>2015-04-29T12:12:39.110Z</time>
      </trkpt>
      <trkpt lat="43.21467" lon="6.33761">
        <ele>472.99899931964</ele>
        <time>2015-04-29T12:13:14.420Z</time>
      </trkpt>
      <trkpt lat="43.21488" lon="6.33738">
        <ele>472</ele>
        <time>2015-04-29T12:13:33.210Z</time>
      </trkpt>
      <trkpt lat="43.21501" lon="6.33723">
        <ele>472</ele>
        <time>2015-04-29T12:13:47.110Z</time>
      </trkpt>
      <trkpt lat="43.21512" lon="6.33713">
        <ele>472</ele>
        <time>2015-04-29T12:13:55.210Z</time>
      </trkpt>
      <trkpt lat="43.21522" lon="6.33705">
        <ele>472</ele>
        <time>2015-04-29T12:14:03.210Z</time>
      </trkpt>
      <trkpt lat="43.21536" lon="6.33703">
        <ele>472.19900032</ele>
        <time>2015-04-29T12:14:16.390Z</time>
      </trkpt>
      <trkpt lat="43.21552" lon="6.33715">
        <ele>473</ele>
        <time>2015-04-29T12:14:52.110Z</time>
      </trkpt>
      <trkpt lat="43.21561" lon="6.3372">
        <ele>472.08099968</ele>
        <time>2015-04-29T12:15:03.590Z</time>
      </trkpt>
      <trkpt lat="43.21571" lon="6.33727">
        <ele>474.92199936</ele>
        <time>2015-04-29T12:15:24.010Z</time>
      </trkpt>
      <trkpt lat="43.21582" lon="6.33736">
        <ele>474.40999936</ele>
        <time>2015-04-29T12:15:40.300Z</time>
      </trkpt>
      <trkpt lat="43.21594" lon="6.33745">
        <ele>474.38899968</ele>
        <time>2015-04-29T12:15:48.290Z</time>
      </trkpt>
      <trkpt lat="43.21606" lon="6.33752">
        <ele>474.81100032</ele>
        <time>2015-04-29T12:15:56.290Z</time>
      </trkpt>
      <trkpt lat="43.21617" lon="6.33757">
        <ele>473.61100032</ele>
        <time>2015-04-29T12:16:08.290Z</time>
      </trkpt>
      <trkpt lat="43.21629" lon="6.33763">
        <ele>473.18899968</ele>
        <time>2015-04-29T12:16:16.290Z</time>
      </trkpt>
      <trkpt lat="43.21641" lon="6.33766">
        <ele>473.98899968</ele>
        <time>2015-04-29T12:16:24.290Z</time>
      </trkpt>
      <trkpt lat="43.21428" lon="6.33811">
        <ele>477</ele>
        <time>2015-04-29T12:48:38.510Z</time>
      </trkpt>
      <trkpt lat="43.21413" lon="6.33815">
        <ele>477</ele>
        <time>2015-04-29T12:48:50.120Z</time>
      </trkpt>
      <trkpt lat="43.21409" lon="6.33799">
        <ele>477</ele>
        <time>2015-04-29T12:49:07.590Z</time>
      </trkpt>
      <trkpt lat="43.21401" lon="6.33789">
        <ele>477</ele>
        <time>2015-04-29T12:49:39.190Z</time>
      </trkpt>
      <trkpt lat="43.21412" lon="6.33794">
        <ele>477</ele>
        <time>2015-04-29T12:50:13.390Z</time>
      </trkpt>
      <trkpt lat="43.21405" lon="6.33809">
        <ele>477</ele>
        <time>2015-04-29T12:50:33.390Z</time>
      </trkpt>
      <trkpt lat="43.21395" lon="6.3382">
        <ele>477</ele>
        <time>2015-04-29T12:50:49.190Z</time>
      </trkpt>
      <trkpt lat="43.21384" lon="6.33825">
        <ele>477</ele>
        <time>2015-04-29T12:51:01.390Z</time>
      </trkpt>
      <trkpt lat="43.21376" lon="6.33808">
        <ele>477.59800064</ele>
        <time>2015-04-29T12:51:17.390Z</time>
      </trkpt>
      <trkpt lat="43.21368" lon="6.3379">
        <ele>478</ele>
        <time>2015-04-29T12:51:55.390Z</time>
      </trkpt>
      <trkpt lat="43.21358" lon="6.3378">
        <ele>478</ele>
        <time>2015-04-29T12:52:05.590Z</time>
      </trkpt>
      <trkpt lat="43.21351" lon="6.33762">
        <ele>478</ele>
        <time>2015-04-29T12:52:14.220Z</time>
      </trkpt>
      <trkpt lat="43.21349" lon="6.33749">
        <ele>478</ele>
        <time>2015-04-29T12:52:24.390Z</time>
      </trkpt>
      <trkpt lat="43.21344" lon="6.33733">
        <ele>478</ele>
        <time>2015-04-29T12:52:32.390Z</time>
      </trkpt>
      <trkpt lat="43.2134" lon="6.33719">
        <ele>478</ele>
        <time>2015-04-29T12:52:39.590Z</time>
      </trkpt>
      <trkpt lat="43.21339" lon="6.33704">
        <ele>478</ele>
        <time>2015-04-29T12:52:50.390Z</time>
      </trkpt>
      <trkpt lat="43.21335" lon="6.33682">
        <ele>478</ele>
        <time>2015-04-29T12:53:03.390Z</time>
      </trkpt>
      <trkpt lat="43.21331" lon="6.33666">
        <ele>478.79479491792</ele>
        <time>2015-04-29T12:53:15.390Z</time>
      </trkpt>
      <trkpt lat="43.21323" lon="6.33651">
        <ele>480.17100032</ele>
        <time>2015-04-29T12:53:23.120Z</time>
      </trkpt>
      <trkpt lat="43.21316" lon="6.33642">
        <ele>481.79600128</ele>
        <time>2015-04-29T12:53:35.390Z</time>
      </trkpt>
      <trkpt lat="43.21304" lon="6.33633">
        <ele>484.19600128</ele>
        <time>2015-04-29T12:53:47.390Z</time>
      </trkpt>
      <trkpt lat="43.21296" lon="6.33619">
        <ele>486.29800064</ele>
        <time>2015-04-29T12:54:04.390Z</time>
      </trkpt>
      <trkpt lat="43.21286" lon="6.33616">
        <ele>489.03600128</ele>
        <time>2015-04-29T12:54:31.590Z</time>
      </trkpt>
      <trkpt lat="43.21277" lon="6.336">
        <ele>491</ele>
        <time>2015-04-29T12:54:43.320Z</time>
      </trkpt>
      <trkpt lat="43.21271" lon="6.3359">
        <ele>491.14000128</ele>
        <time>2015-04-29T12:54:52.110Z</time>
      </trkpt>
      <trkpt lat="43.21268" lon="6.33576">
        <ele>493</ele>
        <time>2015-04-29T12:55:04.390Z</time>
      </trkpt>
      <trkpt lat="43.21258" lon="6.33557">
        <ele>493.69800064</ele>
        <time>2015-04-29T12:55:18.390Z</time>
      </trkpt>
      <trkpt lat="43.21245" lon="6.33545">
        <ele>495.38000128</ele>
        <time>2015-04-29T12:55:33.310Z</time>
      </trkpt>
      <trkpt lat="43.21234" lon="6.33541">
        <ele>498.26200064</ele>
        <time>2015-04-29T12:55:47.720Z</time>
      </trkpt>
      <trkpt lat="43.21227" lon="6.33532">
        <ele>500.63600128</ele>
        <time>2015-04-29T12:55:59.590Z</time>
      </trkpt>
      <trkpt lat="43.21217" lon="6.33524">
        <ele>502.03596528019</ele>
        <time>2015-04-29T12:56:11.590Z</time>
      </trkpt>
      <trkpt lat="43.21207" lon="6.3352">
        <ele>504.43443421127</ele>
        <time>2015-04-29T12:56:23.590Z</time>
      </trkpt>
      <trkpt lat="43.21193" lon="6.33511">
        <ele>508.00200192</ele>
        <time>2015-04-29T12:56:41.420Z</time>
      </trkpt>
      <trkpt lat="43.21178" lon="6.33513">
        <ele>510.39000064</ele>
        <time>2015-04-29T12:56:55.310Z</time>
      </trkpt>
      <trkpt lat="43.21166" lon="6.33522">
        <ele>511.81000192</ele>
        <time>2015-04-29T12:57:04.110Z</time>
      </trkpt>
      <trkpt lat="43.21156" lon="6.33511">
        <ele>517</ele>
        <time>2015-04-29T12:57:32.390Z</time>
      </trkpt>
      <trkpt lat="43.21147" lon="6.33499">
        <ele>517.29800064</ele>
        <time>2015-04-29T12:57:44.390Z</time>
      </trkpt>
      <trkpt lat="43.21144" lon="6.33483">
        <ele>518</ele>
        <time>2015-04-29T12:57:52.390Z</time>
      </trkpt>
      <trkpt lat="43.21142" lon="6.33469">
        <ele>518</ele>
        <time>2015-04-29T12:58:00.390Z</time>
      </trkpt>
      <trkpt lat="43.21138" lon="6.33449">
        <ele>517</ele>
        <time>2015-04-29T12:58:12.390Z</time>
      </trkpt>
      <trkpt lat="43.21138" lon="6.33432">
        <ele>517.69730266792</ele>
        <time>2015-04-29T12:58:28.390Z</time>
      </trkpt>
      <trkpt lat="43.2114" lon="6.33414">
        <ele>518.49749765525</ele>
        <time>2015-04-29T12:58:36.390Z</time>
      </trkpt>
      <trkpt lat="43.21138" lon="6.334">
        <ele>519</ele>
        <time>2015-04-29T12:58:44.390Z</time>
      </trkpt>
      <trkpt lat="43.2113" lon="6.33386">
        <ele>519.49800064</ele>
        <time>2015-04-29T12:58:56.390Z</time>
      </trkpt>
      <trkpt lat="43.21122" lon="6.33373">
        <ele>520.29800064</ele>
        <time>2015-04-29T12:59:04.390Z</time>
      </trkpt>
      <trkpt lat="43.21111" lon="6.33359">
        <ele>520.52899968</ele>
        <time>2015-04-29T12:59:16.120Z</time>
      </trkpt>
      <trkpt lat="43.21107" lon="6.33347">
        <ele>520.09800064</ele>
        <time>2015-04-29T12:59:32.390Z</time>
      </trkpt>
      <trkpt lat="43.21096" lon="6.33352">
        <ele>521.67000064</ele>
        <time>2015-04-29T13:00:08.110Z</time>
      </trkpt>
      <trkpt lat="43.21082" lon="6.33354">
        <ele>523.79600128</ele>
        <time>2015-04-29T13:00:20.390Z</time>
      </trkpt>
      <trkpt lat="43.2107" lon="6.33357">
        <ele>524</ele>
        <time>2015-04-29T13:00:32.390Z</time>
      </trkpt>
      <trkpt lat="43.21058" lon="6.33352">
        <ele>525.39600128</ele>
        <time>2015-04-29T13:00:48.390Z</time>
      </trkpt>
      <trkpt lat="43.21047" lon="6.33338">
        <ele>526.89800064</ele>
        <time>2015-04-29T13:01:00.390Z</time>
      </trkpt>
      <trkpt lat="43.21034" lon="6.33328">
        <ele>527.09800064</ele>
        <time>2015-04-29T13:01:12.390Z</time>
      </trkpt>
      <trkpt lat="43.21022" lon="6.33321">
        <ele>527.89800064</ele>
        <time>2015-04-29T13:01:20.390Z</time>
      </trkpt>
      <trkpt lat="43.21011" lon="6.33318">
        <ele>529.09619244646</ele>
        <time>2015-04-29T13:01:32.390Z</time>
      </trkpt>
      <trkpt lat="43.21" lon="6.33321">
        <ele>529.89779616692</ele>
        <time>2015-04-29T13:01:40.390Z</time>
      </trkpt>
      <trkpt lat="43.2099" lon="6.33318">
        <ele>530</ele>
        <time>2015-04-29T13:01:47.590Z</time>
      </trkpt>
      <trkpt lat="43.20985" lon="6.33331">
        <ele>530.89800064</ele>
        <time>2015-04-29T13:02:00.390Z</time>
      </trkpt>
      <trkpt lat="43.20984" lon="6.33345">
        <ele>531.21800064</ele>
        <time>2015-04-29T13:02:23.590Z</time>
      </trkpt>
      <trkpt lat="43.20979" lon="6.33354">
        <ele>532</ele>
        <time>2015-04-29T13:02:35.590Z</time>
      </trkpt>
      <trkpt lat="43.20979" lon="6.33368">
        <ele>532</ele>
        <time>2015-04-29T13:02:47.590Z</time>
      </trkpt>
      <trkpt lat="43.20977" lon="6.33383">
        <ele>533</ele>
        <time>2015-04-29T13:03:12.310Z</time>
      </trkpt>
      <trkpt lat="43.20972" lon="6.33402">
        <ele>533</ele>
        <time>2015-04-29T13:03:38.390Z</time>
      </trkpt>
      <trkpt lat="43.20969" lon="6.33422">
        <ele>533.96903067905</ele>
        <time>2015-04-29T13:03:51.110Z</time>
      </trkpt>
      <trkpt lat="43.2096" lon="6.33448">
        <ele>534.02000128</ele>
        <time>2015-04-29T13:04:01.510Z</time>
      </trkpt>
      <trkpt lat="43.20964" lon="6.33464">
        <ele>535.74000128</ele>
        <time>2015-04-29T13:04:10.110Z</time>
      </trkpt>
      <trkpt lat="43.20961" lon="6.33478">
        <ele>537.59600128</ele>
        <time>2015-04-29T13:04:19.390Z</time>
      </trkpt>
      <trkpt lat="43.2095" lon="6.33474">
        <ele>538.59740266383</ele>
        <time>2015-04-29T13:04:27.390Z</time>
      </trkpt>
      <trkpt lat="43.2094" lon="6.33456">
        <ele>539</ele>
        <time>2015-04-29T13:04:35.390Z</time>
      </trkpt>
      <trkpt lat="43.20931" lon="6.33438">
        <ele>539</ele>
        <time>2015-04-29T13:04:49.110Z</time>
      </trkpt>
      <trkpt lat="43.2092" lon="6.33424">
        <ele>540.19519570309</ele>
        <time>2015-04-29T13:04:57.390Z</time>
      </trkpt>
      <trkpt lat="43.20911" lon="6.33417">
        <ele>541</ele>
        <time>2015-04-29T13:05:09.590Z</time>
      </trkpt>
      <trkpt lat="43.209" lon="6.33419">
        <ele>541.61800064</ele>
        <time>2015-04-29T13:05:17.590Z</time>
      </trkpt>
      <trkpt lat="43.20889" lon="6.33419">
        <ele>542.49800064</ele>
        <time>2015-04-29T13:05:26.390Z</time>
      </trkpt>
      <trkpt lat="43.20877" lon="6.33423">
        <ele>543.29800064</ele>
        <time>2015-04-29T13:05:34.390Z</time>
      </trkpt>
      <trkpt lat="43.20864" lon="6.33423">
        <ele>544.18981064714</ele>
        <time>2015-04-29T13:05:43.310Z</time>
      </trkpt>
      <trkpt lat="43.20855" lon="6.33432">
        <ele>545.06906881512</ele>
        <time>2015-04-29T13:05:52.110Z</time>
      </trkpt>
      <trkpt lat="43.20845" lon="6.3344">
        <ele>545.86987038546</ele>
        <time>2015-04-29T13:06:00.110Z</time>
      </trkpt>
      <trkpt lat="43.20833" lon="6.33445">
        <ele>546</ele>
        <time>2015-04-29T13:06:08.390Z</time>
      </trkpt>
      <trkpt lat="43.20819" lon="6.33448">
        <ele>546.99500531948</ele>
        <time>2015-04-29T13:06:16.390Z</time>
      </trkpt>
      <trkpt lat="43.20809" lon="6.33464">
        <ele>548</ele>
        <time>2015-04-29T13:06:29.110Z</time>
      </trkpt>
      <trkpt lat="43.20797" lon="6.33472">
        <ele>548</ele>
        <time>2015-04-29T13:06:37.390Z</time>
      </trkpt>
      <trkpt lat="43.20784" lon="6.33475">
        <ele>548</ele>
        <time>2015-04-29T13:06:49.390Z</time>
      </trkpt>
      <trkpt lat="43.20771" lon="6.33481">
        <ele>548.93800064</ele>
        <time>2015-04-29T13:07:00.790Z</time>
      </trkpt>
      <trkpt lat="43.20762" lon="6.3349">
        <ele>549</ele>
        <time>2015-04-29T13:07:09.500Z</time>
      </trkpt>
      <trkpt lat="43.2075" lon="6.33493">
        <ele>549.608</ele>
        <time>2015-04-29T13:07:17.490Z</time>
      </trkpt>
      <trkpt lat="43.20739" lon="6.33491">
        <ele>550.408</ele>
        <time>2015-04-29T13:07:25.490Z</time>
      </trkpt>
      <trkpt lat="43.20728" lon="6.33488">
        <ele>551</ele>
        <time>2015-04-29T13:07:33.490Z</time>
      </trkpt>
      <trkpt lat="43.20717" lon="6.33487">
        <ele>551.016</ele>
        <time>2015-04-29T13:07:41.490Z</time>
      </trkpt>
      <trkpt lat="43.20707" lon="6.33487">
        <ele>552.616</ele>
        <time>2015-04-29T13:07:49.490Z</time>
      </trkpt>
      <trkpt lat="43.20696" lon="6.33491">
        <ele>553.608</ele>
        <time>2015-04-29T13:07:57.490Z</time>
      </trkpt>
      <trkpt lat="43.20687" lon="6.33497">
        <ele>554.816</ele>
        <time>2015-04-29T13:08:05.490Z</time>
      </trkpt>
      <trkpt lat="43.20677" lon="6.33503">
        <ele>556.208</ele>
        <time>2015-04-29T13:08:13.490Z</time>
      </trkpt>
      <trkpt lat="43.20667" lon="6.33508">
        <ele>557.008</ele>
        <time>2015-04-29T13:08:21.490Z</time>
      </trkpt>
      <trkpt lat="43.20658" lon="6.33513">
        <ele>557.808</ele>
        <time>2015-04-29T13:08:29.490Z</time>
      </trkpt>
      <trkpt lat="43.20646" lon="6.33518">
        <ele>558</ele>
        <time>2015-04-29T13:08:37.490Z</time>
      </trkpt>
      <trkpt lat="43.20637" lon="6.33522">
        <ele>558.408</ele>
        <time>2015-04-29T13:08:45.490Z</time>
      </trkpt>
      <trkpt lat="43.20626" lon="6.33527">
        <ele>559.416</ele>
        <time>2015-04-29T13:08:53.490Z</time>
      </trkpt>
      <trkpt lat="43.20616" lon="6.33531">
        <ele>561.016</ele>
        <time>2015-04-29T13:09:01.490Z</time>
      </trkpt>
      <trkpt lat="43.20601" lon="6.33537">
        <ele>563.208</ele>
        <time>2015-04-29T13:09:13.490Z</time>
      </trkpt>
      <trkpt lat="43.20591" lon="6.33541">
        <ele>564.008</ele>
        <time>2015-04-29T13:09:21.490Z</time>
      </trkpt>
      <trkpt lat="43.20581" lon="6.33545">
        <ele>564.808</ele>
        <time>2015-04-29T13:09:29.490Z</time>
      </trkpt>
      <trkpt lat="43.20571" lon="6.33549">
        <ele>565.608</ele>
        <time>2015-04-29T13:09:37.490Z</time>
      </trkpt>
      <trkpt lat="43.20562" lon="6.33556">
        <ele>566.408</ele>
        <time>2015-04-29T13:09:45.490Z</time>
      </trkpt>
      <trkpt lat="43.20552" lon="6.33562">
        <ele>567.416</ele>
        <time>2015-04-29T13:09:53.490Z</time>
      </trkpt>
      <trkpt lat="43.20544" lon="6.33556">
        <ele>569</ele>
        <time>2015-04-29T13:10:01.490Z</time>
      </trkpt>
      <trkpt lat="43.20549" lon="6.33542">
        <ele>569</ele>
        <time>2015-04-29T13:10:09.490Z</time>
      </trkpt>
      <trkpt lat="43.20556" lon="6.33528">
        <ele>570.008</ele>
        <time>2015-04-29T13:10:21.490Z</time>
      </trkpt>
      <trkpt lat="43.20556" lon="6.33509">
        <ele>571.416</ele>
        <time>2015-04-29T13:10:33.490Z</time>
      </trkpt>
      <trkpt lat="43.20546" lon="6.33506">
        <ele>573.008</ele>
        <time>2015-04-29T13:10:41.490Z</time>
      </trkpt>
      <trkpt lat="43.20536" lon="6.33509">
        <ele>573.808</ele>
        <time>2015-04-29T13:10:49.490Z</time>
      </trkpt>
      <trkpt lat="43.20525" lon="6.33511">
        <ele>575.216</ele>
        <time>2015-04-29T13:10:57.490Z</time>
      </trkpt>
      <trkpt lat="43.20526" lon="6.33526">
        <ele>575</ele>
        <time>2015-04-29T13:11:39.390Z</time>
      </trkpt>
      <trkpt lat="43.20516" lon="6.33538">
        <ele>575.59740266383</ele>
        <time>2015-04-29T13:11:47.390Z</time>
      </trkpt>
      <trkpt lat="43.20507" lon="6.3355">
        <ele>576</ele>
        <time>2015-04-29T13:11:58.590Z</time>
      </trkpt>
      <trkpt lat="43.20508" lon="6.33567">
        <ele>576</ele>
        <time>2015-04-29T13:12:05.590Z</time>
      </trkpt>
      <trkpt lat="43.20501" lon="6.33587">
        <ele>576.58000128</ele>
        <time>2015-04-29T13:12:14.310Z</time>
      </trkpt>
      <trkpt lat="43.20498" lon="6.33607">
        <ele>578</ele>
        <time>2015-04-29T13:12:27.590Z</time>
      </trkpt>
      <trkpt lat="43.20484" lon="6.33618">
        <ele>578.89800064</ele>
        <time>2015-04-29T13:12:40.390Z</time>
      </trkpt>
      <trkpt lat="43.20476" lon="6.33636">
        <ele>579.11788264419</ele>
        <time>2015-04-29T13:12:52.590Z</time>
      </trkpt>
      <trkpt lat="43.20483" lon="6.33654">
        <ele>579.9970026802</ele>
        <time>2015-04-29T13:13:01.390Z</time>
      </trkpt>
      <trkpt lat="43.20496" lon="6.33665">
        <ele>582.19780264746</ele>
        <time>2015-04-29T13:13:13.390Z</time>
      </trkpt>
      <trkpt lat="43.20513" lon="6.33673">
        <ele>583</ele>
        <time>2015-04-29T13:13:25.390Z</time>
      </trkpt>
      <trkpt lat="43.20525" lon="6.33685">
        <ele>583</ele>
        <time>2015-04-29T13:13:37.390Z</time>
      </trkpt>
      <trkpt lat="43.20541" lon="6.33703">
        <ele>584.59600128</ele>
        <time>2015-04-29T13:13:49.390Z</time>
      </trkpt>
      <trkpt lat="43.20546" lon="6.3372">
        <ele>585.59800064</ele>
        <time>2015-04-29T13:13:57.390Z</time>
      </trkpt>
      <trkpt lat="43.20555" lon="6.33733">
        <ele>587.59600128</ele>
        <time>2015-04-29T13:14:09.390Z</time>
      </trkpt>
      <trkpt lat="43.2056" lon="6.33752">
        <ele>588</ele>
        <time>2015-04-29T13:14:19.390Z</time>
      </trkpt>
      <trkpt lat="43.20555" lon="6.33767">
        <ele>588.96903067905</ele>
        <time>2015-04-29T13:14:31.110Z</time>
      </trkpt>
      <trkpt lat="43.20547" lon="6.33779">
        <ele>589.39600128</ele>
        <time>2015-04-29T13:14:43.390Z</time>
      </trkpt>
      <trkpt lat="43.20531" lon="6.33791">
        <ele>591.39800064</ele>
        <time>2015-04-29T13:14:55.390Z</time>
      </trkpt>
      <trkpt lat="43.20523" lon="6.33802">
        <ele>592</ele>
        <time>2015-04-29T13:15:03.390Z</time>
      </trkpt>
      <trkpt lat="43.20513" lon="6.33818">
        <ele>591.81018935286</ele>
        <time>2015-04-29T13:15:13.310Z</time>
      </trkpt>
      <trkpt lat="43.20504" lon="6.33829">
        <ele>591</ele>
        <time>2015-04-29T13:15:21.420Z</time>
      </trkpt>
      <trkpt lat="43.20496" lon="6.33845">
        <ele>590.12925827928</ele>
        <time>2015-04-29T13:15:30.110Z</time>
      </trkpt>
      <trkpt lat="43.20487" lon="6.33862">
        <ele>589.18099968</ele>
        <time>2015-04-29T13:15:39.590Z</time>
      </trkpt>
      <trkpt lat="43.20481" lon="6.33877">
        <ele>589</ele>
        <time>2015-04-29T13:15:48.590Z</time>
      </trkpt>
      <trkpt lat="43.20477" lon="6.33891">
        <ele>587.65799936</ele>
        <time>2015-04-29T13:15:58.110Z</time>
      </trkpt>
      <trkpt lat="43.20477" lon="6.33906">
        <ele>587</ele>
        <time>2015-04-29T13:16:06.390Z</time>
      </trkpt>
      <trkpt lat="43.20476" lon="6.33923">
        <ele>587</ele>
        <time>2015-04-29T13:16:14.590Z</time>
      </trkpt>
      <trkpt lat="43.20475" lon="6.33952">
        <ele>587</ele>
        <time>2015-04-29T13:16:27.590Z</time>
      </trkpt>
      <trkpt lat="43.20469" lon="6.33968">
        <ele>586.54138249928</ele>
        <time>2015-04-29T13:16:36.110Z</time>
      </trkpt>
      <trkpt lat="43.20469" lon="6.33983">
        <ele>585.72867411426</ele>
        <time>2015-04-29T13:16:44.310Z</time>
      </trkpt>
      <trkpt lat="43.20472" lon="6.34005">
        <ele>584.60899968</ele>
        <time>2015-04-29T13:16:55.310Z</time>
      </trkpt>
      <trkpt lat="43.20483" lon="6.34019">
        <ele>584.41900032</ele>
        <time>2015-04-29T13:17:05.590Z</time>
      </trkpt>
      <trkpt lat="43.20491" lon="6.34031">
        <ele>585</ele>
        <time>2015-04-29T13:17:13.310Z</time>
      </trkpt>
      <trkpt lat="43.20498" lon="6.34047">
        <ele>585</ele>
        <time>2015-04-29T13:17:22.590Z</time>
      </trkpt>
      <trkpt lat="43.20499" lon="6.34062">
        <ele>585</ele>
        <time>2015-04-29T13:17:30.590Z</time>
      </trkpt>
      <trkpt lat="43.20497" lon="6.34076">
        <ele>585.71900032</ele>
        <time>2015-04-29T13:17:38.590Z</time>
      </trkpt>
      <trkpt lat="43.20493" lon="6.34092">
        <ele>586</ele>
        <time>2015-04-29T13:17:47.390Z</time>
      </trkpt>
      <trkpt lat="43.20491" lon="6.34106">
        <ele>586.37100032</ele>
        <time>2015-04-29T13:17:55.110Z</time>
      </trkpt>
      <trkpt lat="43.20482" lon="6.34128">
        <ele>587</ele>
        <time>2015-04-29T13:18:06.590Z</time>
      </trkpt>
      <trkpt lat="43.20479" lon="6.34151">
        <ele>586</ele>
        <time>2015-04-29T13:18:23.390Z</time>
      </trkpt>
      <trkpt lat="43.20476" lon="6.34166">
        <ele>586</ele>
        <time>2015-04-29T13:18:31.390Z</time>
      </trkpt>
      <trkpt lat="43.20467" lon="6.34186">
        <ele>586.79900032</ele>
        <time>2015-04-29T13:18:39.390Z</time>
      </trkpt>
      <trkpt lat="43.20461" lon="6.34208">
        <ele>587</ele>
        <time>2015-04-29T13:18:46.590Z</time>
      </trkpt>
      <trkpt lat="43.20465" lon="6.3422">
        <ele>587</ele>
        <time>2015-04-29T13:18:51.590Z</time>
      </trkpt>
      <trkpt lat="43.20461" lon="6.34233">
        <ele>587</ele>
        <time>2015-04-29T13:19:04.390Z</time>
      </trkpt>
      <trkpt lat="43.2045" lon="6.34242">
        <ele>587.49900032</ele>
        <time>2015-04-29T13:19:16.390Z</time>
      </trkpt>
      <trkpt lat="43.20434" lon="6.34275">
        <ele>588.71900032</ele>
        <time>2015-04-29T13:19:28.590Z</time>
      </trkpt>
      <trkpt lat="43.20436" lon="6.34293">
        <ele>589</ele>
        <time>2015-04-29T13:19:35.590Z</time>
      </trkpt>
      <trkpt lat="43.20442" lon="6.34311">
        <ele>589</ele>
        <time>2015-04-29T13:19:46.110Z</time>
      </trkpt>
      <trkpt lat="43.20447" lon="6.34326">
        <ele>589.63800064</ele>
        <time>2015-04-29T13:19:54.590Z</time>
      </trkpt>
      <trkpt lat="43.20456" lon="6.34341">
        <ele>591</ele>
        <time>2015-04-29T13:20:04.390Z</time>
      </trkpt>
      <trkpt lat="43.20464" lon="6.34351">
        <ele>591.27132588574</ele>
        <time>2015-04-29T13:20:14.310Z</time>
      </trkpt>
      <trkpt lat="43.20478" lon="6.34377">
        <ele>592</ele>
        <time>2015-04-29T13:20:27.110Z</time>
      </trkpt>
      <trkpt lat="43.20474" lon="6.34393">
        <ele>592.39839891142</ele>
        <time>2015-04-29T13:20:35.390Z</time>
      </trkpt>
      <trkpt lat="43.20471" lon="6.34408">
        <ele>593.39800064</ele>
        <time>2015-04-29T13:20:43.390Z</time>
      </trkpt>
      <trkpt lat="43.20464" lon="6.34419">
        <ele>594.99800064</ele>
        <time>2015-04-29T13:20:51.390Z</time>
      </trkpt>
      <trkpt lat="43.20453" lon="6.3444">
        <ele>596.004</ele>
        <time>2015-04-29T13:21:01.440Z</time>
      </trkpt>
      <trkpt lat="43.20449" lon="6.34458">
        <ele>597</ele>
        <time>2015-04-29T13:21:15.110Z</time>
      </trkpt>
      <trkpt lat="43.20441" lon="6.34471">
        <ele>597.11900032</ele>
        <time>2015-04-29T13:21:22.590Z</time>
      </trkpt>
      <trkpt lat="43.20441" lon="6.34486">
        <ele>597.61900032</ele>
        <time>2015-04-29T13:21:27.590Z</time>
      </trkpt>
      <trkpt lat="43.20439" lon="6.34502">
        <ele>598</ele>
        <time>2015-04-29T13:21:35.590Z</time>
      </trkpt>
      <trkpt lat="43.20441" lon="6.34518">
        <ele>598.31900032</ele>
        <time>2015-04-29T13:21:44.590Z</time>
      </trkpt>
      <trkpt lat="43.20443" lon="6.34534">
        <ele>599.11900032</ele>
        <time>2015-04-29T13:21:52.590Z</time>
      </trkpt>
      <trkpt lat="43.20451" lon="6.34555">
        <ele>600.63800064</ele>
        <time>2015-04-29T13:22:04.590Z</time>
      </trkpt>
      <trkpt lat="43.20457" lon="6.34569">
        <ele>602</ele>
        <time>2015-04-29T13:22:12.590Z</time>
      </trkpt>
      <trkpt lat="43.20461" lon="6.34586">
        <ele>602</ele>
        <time>2015-04-29T13:22:21.390Z</time>
      </trkpt>
      <trkpt lat="43.20469" lon="6.34596">
        <ele>602</ele>
        <time>2015-04-29T13:22:29.390Z</time>
      </trkpt>
      <trkpt lat="43.20477" lon="6.34612">
        <ele>602.99900032</ele>
        <time>2015-04-29T13:22:41.390Z</time>
      </trkpt>
      <trkpt lat="43.20485" lon="6.34625">
        <ele>603</ele>
        <time>2015-04-29T13:22:48.590Z</time>
      </trkpt>
      <trkpt lat="43.20497" lon="6.34634">
        <ele>603</ele>
        <time>2015-04-29T13:22:57.390Z</time>
      </trkpt>
      <trkpt lat="43.2051" lon="6.34637">
        <ele>603</ele>
        <time>2015-04-29T13:23:05.390Z</time>
      </trkpt>
      <trkpt lat="43.20525" lon="6.34639">
        <ele>603</ele>
        <time>2015-04-29T13:23:13.390Z</time>
      </trkpt>
      <trkpt lat="43.20535" lon="6.34637">
        <ele>603</ele>
        <time>2015-04-29T13:23:21.390Z</time>
      </trkpt>
      <trkpt lat="43.20544" lon="6.34642">
        <ele>603.79900032</ele>
        <time>2015-04-29T13:23:29.390Z</time>
      </trkpt>
      <trkpt lat="43.20553" lon="6.34647">
        <ele>604.51900032</ele>
        <time>2015-04-29T13:23:36.590Z</time>
      </trkpt>
      <trkpt lat="43.20559" lon="6.34658">
        <ele>605.31900032</ele>
        <time>2015-04-29T13:23:44.590Z</time>
      </trkpt>
      <trkpt lat="43.20565" lon="6.34675">
        <ele>606.19900032</ele>
        <time>2015-04-29T13:23:53.390Z</time>
      </trkpt>
      <trkpt lat="43.20571" lon="6.34687">
        <ele>606.99900032</ele>
        <time>2015-04-29T13:24:01.390Z</time>
      </trkpt>
      <trkpt lat="43.20574" lon="6.347">
        <ele>607</ele>
        <time>2015-04-29T13:24:08.590Z</time>
      </trkpt>
      <trkpt lat="43.20574" lon="6.34716">
        <ele>607.51900032</ele>
        <time>2015-04-29T13:24:16.590Z</time>
      </trkpt>
      <trkpt lat="43.20572" lon="6.34732">
        <ele>608</ele>
        <time>2015-04-29T13:24:24.590Z</time>
      </trkpt>
      <trkpt lat="43.20573" lon="6.34748">
        <ele>608</ele>
        <time>2015-04-29T13:24:33.390Z</time>
      </trkpt>
      <trkpt lat="43.20576" lon="6.34765">
        <ele>608</ele>
        <time>2015-04-29T13:24:41.390Z</time>
      </trkpt>
      <trkpt lat="43.20582" lon="6.34777">
        <ele>607.20099968</ele>
        <time>2015-04-29T13:24:49.390Z</time>
      </trkpt>
      <trkpt lat="43.20589" lon="6.34789">
        <ele>605.80199936</ele>
        <time>2015-04-29T13:24:57.390Z</time>
      </trkpt>
      <trkpt lat="43.20599" lon="6.34795">
        <ele>605</ele>
        <time>2015-04-29T13:25:05.390Z</time>
      </trkpt>
      <trkpt lat="43.20608" lon="6.34812">
        <ele>603.72699904</ele>
        <time>2015-04-29T13:25:22.310Z</time>
      </trkpt>
      <trkpt lat="43.20621" lon="6.34824">
        <ele>601.62699904</ele>
        <time>2015-04-29T13:25:29.310Z</time>
      </trkpt>
      <trkpt lat="43.20635" lon="6.34838">
        <ele>599.03801198409</ele>
        <time>2015-04-29T13:25:38.110Z</time>
      </trkpt>
      <trkpt lat="43.20645" lon="6.34847">
        <ele>598</ele>
        <time>2015-04-29T13:25:44.310Z</time>
      </trkpt>
      <trkpt lat="43.20662" lon="6.34861">
        <ele>597.50899968</ele>
        <time>2015-04-29T13:25:56.310Z</time>
      </trkpt>
      <trkpt lat="43.20671" lon="6.34866">
        <ele>597.18999936</ele>
        <time>2015-04-29T13:26:03.300Z</time>
      </trkpt>
      <trkpt lat="43.20681" lon="6.34872">
        <ele>598</ele>
        <time>2015-04-29T13:26:12.100Z</time>
      </trkpt>
      <trkpt lat="43.20689" lon="6.34883">
        <ele>598.21821878896</ele>
        <time>2015-04-29T13:26:23.590Z</time>
      </trkpt>
      <trkpt lat="43.20694" lon="6.34899">
        <ele>599.19800064</ele>
        <time>2015-04-29T13:26:32.390Z</time>
      </trkpt>
      <trkpt lat="43.20704" lon="6.34919">
        <ele>601</ele>
        <time>2015-04-29T13:26:44.390Z</time>
      </trkpt>
      <trkpt lat="43.2071" lon="6.34937">
        <ele>601.09900032</ele>
        <time>2015-04-29T13:26:52.390Z</time>
      </trkpt>
      <trkpt lat="43.20719" lon="6.3495">
        <ele>602.21900032</ele>
        <time>2015-04-29T13:27:03.590Z</time>
      </trkpt>
      <trkpt lat="43.20728" lon="6.34959">
        <ele>603</ele>
        <time>2015-04-29T13:27:12.390Z</time>
      </trkpt>
      <trkpt lat="43.20742" lon="6.34969">
        <ele>603</ele>
        <time>2015-04-29T13:27:20.390Z</time>
      </trkpt>
      <trkpt lat="43.20753" lon="6.34982">
        <ele>603.79900032</ele>
        <time>2015-04-29T13:27:29.390Z</time>
      </trkpt>
      <trkpt lat="43.20759" lon="6.35003">
        <ele>604</ele>
        <time>2015-04-29T13:27:37.390Z</time>
      </trkpt>
      <trkpt lat="43.20766" lon="6.35024">
        <ele>603.60099968</ele>
        <time>2015-04-29T13:27:45.390Z</time>
      </trkpt>
      <trkpt lat="43.20775" lon="6.35044">
        <ele>603</ele>
        <time>2015-04-29T13:27:53.390Z</time>
      </trkpt>
      <trkpt lat="43.20776" lon="6.35062">
        <ele>603</ele>
        <time>2015-04-29T13:28:04.590Z</time>
      </trkpt>
      <trkpt lat="43.20791" lon="6.3506">
        <ele>602.80099968</ele>
        <time>2015-04-29T13:28:13.390Z</time>
      </trkpt>
      <trkpt lat="43.20803" lon="6.35057">
        <ele>602.00099968</ele>
        <time>2015-04-29T13:28:21.390Z</time>
      </trkpt>
      <trkpt lat="43.20818" lon="6.35044">
        <ele>601</ele>
        <time>2015-04-29T13:28:33.390Z</time>
      </trkpt>
      <trkpt lat="43.20828" lon="6.35044">
        <ele>601</ele>
        <time>2015-04-29T13:28:40.590Z</time>
      </trkpt>
      <trkpt lat="43.2084" lon="6.35048">
        <ele>600.28099968</ele>
        <time>2015-04-29T13:28:48.590Z</time>
      </trkpt>
      <trkpt lat="43.20856" lon="6.3508">
        <ele>599</ele>
        <time>2015-04-29T13:29:09.590Z</time>
      </trkpt>
      <trkpt lat="43.2086" lon="6.35107">
        <ele>599</ele>
        <time>2015-04-29T13:29:19.390Z</time>
      </trkpt>
      <trkpt lat="43.20867" lon="6.35134">
        <ele>598.08099968</ele>
        <time>2015-04-29T13:29:30.590Z</time>
      </trkpt>
      <trkpt lat="43.20882" lon="6.35163">
        <ele>598</ele>
        <time>2015-04-29T13:29:43.390Z</time>
      </trkpt>
      <trkpt lat="43.20891" lon="6.35171">
        <ele>598</ele>
        <time>2015-04-29T13:29:52.390Z</time>
      </trkpt>
      <trkpt lat="43.20905" lon="6.35167">
        <ele>599.39800064</ele>
        <time>2015-04-29T13:30:08.390Z</time>
      </trkpt>
      <trkpt lat="43.20927" lon="6.35166">
        <ele>600</ele>
        <time>2015-04-29T13:30:19.110Z</time>
      </trkpt>
      <trkpt lat="43.20937" lon="6.35165">
        <ele>600.53047001973</ele>
        <time>2015-04-29T13:30:26.710Z</time>
      </trkpt>
      <trkpt lat="43.20951" lon="6.35164">
        <ele>601.63663771399</ele>
        <time>2015-04-29T13:30:34.590Z</time>
      </trkpt>
      <trkpt lat="43.20964" lon="6.35161">
        <ele>603.27800064</ele>
        <time>2015-04-29T13:30:42.790Z</time>
      </trkpt>
      <trkpt lat="43.20974" lon="6.3517">
        <ele>605.01900032</ele>
        <time>2015-04-29T13:30:51.590Z</time>
      </trkpt>
      <trkpt lat="43.2099" lon="6.35178">
        <ele>605.89900032</ele>
        <time>2015-04-29T13:31:00.390Z</time>
      </trkpt>
      <trkpt lat="43.21003" lon="6.35192">
        <ele>607</ele>
        <time>2015-04-29T13:31:11.430Z</time>
      </trkpt>
      <trkpt lat="43.21014" lon="6.35199">
        <ele>607</ele>
        <time>2015-04-29T13:31:19.310Z</time>
      </trkpt>
      <trkpt lat="43.21023" lon="6.35209">
        <ele>607</ele>
        <time>2015-04-29T13:31:27.310Z</time>
      </trkpt>
      <trkpt lat="43.21035" lon="6.35225">
        <ele>607.99699795892</ele>
        <time>2015-04-29T13:31:36.390Z</time>
      </trkpt>
      <trkpt lat="43.21041" lon="6.35238">
        <ele>609</ele>
        <time>2015-04-29T13:31:44.390Z</time>
      </trkpt>
      <trkpt lat="43.21053" lon="6.35245">
        <ele>609.29700096</ele>
        <time>2015-04-29T13:31:52.390Z</time>
      </trkpt>
      <trkpt lat="43.21061" lon="6.35253">
        <ele>611.69700096</ele>
        <time>2015-04-29T13:32:00.390Z</time>
      </trkpt>
      <trkpt lat="43.21066" lon="6.35268">
        <ele>612.71900032</ele>
        <time>2015-04-29T13:32:08.590Z</time>
      </trkpt>
      <trkpt lat="43.2107" lon="6.35282">
        <ele>613.48099968</ele>
        <time>2015-04-29T13:32:16.210Z</time>
      </trkpt>
      <trkpt lat="43.2108" lon="6.353">
        <ele>615.38200064</ele>
        <time>2015-04-29T13:32:28.310Z</time>
      </trkpt>
      <trkpt lat="43.21087" lon="6.35311">
        <ele>616.490509967</ele>
        <time>2015-04-29T13:32:36.310Z</time>
      </trkpt>
      <trkpt lat="43.21104" lon="6.35323">
        <ele>617</ele>
        <time>2015-04-29T13:32:49.590Z</time>
      </trkpt>
      <trkpt lat="43.21113" lon="6.35332">
        <ele>617.59100032</ele>
        <time>2015-04-29T13:32:57.310Z</time>
      </trkpt>
      <trkpt lat="43.21123" lon="6.35341">
        <ele>618.83800064</ele>
        <time>2015-04-29T13:33:05.590Z</time>
      </trkpt>
      <trkpt lat="43.21131" lon="6.35351">
        <ele>620.21900032</ele>
        <time>2015-04-29T13:33:13.590Z</time>
      </trkpt>
      <trkpt lat="43.21142" lon="6.35357">
        <ele>621</ele>
        <time>2015-04-29T13:33:21.590Z</time>
      </trkpt>
      <trkpt lat="43.21153" lon="6.35362">
        <ele>621</ele>
        <time>2015-04-29T13:33:29.590Z</time>
      </trkpt>
      <trkpt lat="43.21168" lon="6.35369">
        <ele>621</ele>
        <time>2015-04-29T13:34:32.110Z</time>
      </trkpt>
      <trkpt lat="43.21185" lon="6.35366">
        <ele>621</ele>
        <time>2015-04-29T13:34:40.110Z</time>
      </trkpt>
      <trkpt lat="43.21202" lon="6.35362">
        <ele>621</ele>
        <time>2015-04-29T13:34:48.390Z</time>
      </trkpt>
      <trkpt lat="43.2122" lon="6.35356">
        <ele>621</ele>
        <time>2015-04-29T13:34:56.390Z</time>
      </trkpt>
      <trkpt lat="43.21228" lon="6.35364">
        <ele>621</ele>
        <time>2015-04-29T13:35:10.390Z</time>
      </trkpt>
      <trkpt lat="43.2124" lon="6.35369">
        <ele>619.80899968</ele>
        <time>2015-04-29T13:35:23.310Z</time>
      </trkpt>
      <trkpt lat="43.21251" lon="6.35381">
        <ele>618.99900032</ele>
        <time>2015-04-29T13:35:31.410Z</time>
      </trkpt>
      <trkpt lat="43.2126" lon="6.35398">
        <ele>618</ele>
        <time>2015-04-29T13:35:41.430Z</time>
      </trkpt>
      <trkpt lat="43.21269" lon="6.35413">
        <ele>617.81981987753</ele>
        <time>2015-04-29T13:35:53.210Z</time>
      </trkpt>
      <trkpt lat="43.21269" lon="6.35428">
        <ele>617.18081891894</ele>
        <time>2015-04-29T13:36:03.210Z</time>
      </trkpt>
      <trkpt lat="43.21268" lon="6.35445">
        <ele>618</ele>
        <time>2015-04-29T13:36:11.510Z</time>
      </trkpt>
      <trkpt lat="43.21269" lon="6.35462">
        <ele>618</ele>
        <time>2015-04-29T13:36:17.310Z</time>
      </trkpt>
      <trkpt lat="43.21274" lon="6.35482">
        <ele>617.52899968</ele>
        <time>2015-04-29T13:36:26.110Z</time>
      </trkpt>
      <trkpt lat="43.21281" lon="6.35502">
        <ele>617</ele>
        <time>2015-04-29T13:36:38.590Z</time>
      </trkpt>
      <trkpt lat="43.21285" lon="6.35515">
        <ele>616.509490033</ele>
        <time>2015-04-29T13:36:46.310Z</time>
      </trkpt>
      <trkpt lat="43.21287" lon="6.35535">
        <ele>616</ele>
        <time>2015-04-29T13:36:56.390Z</time>
      </trkpt>
      <trkpt lat="43.21295" lon="6.3555">
        <ele>616</ele>
        <time>2015-04-29T13:37:05.310Z</time>
      </trkpt>
      <trkpt lat="43.21303" lon="6.35571">
        <ele>616</ele>
        <time>2015-04-29T13:37:18.310Z</time>
      </trkpt>
      <trkpt lat="43.21313" lon="6.35588">
        <ele>616</ele>
        <time>2015-04-29T13:37:27.390Z</time>
      </trkpt>
      <trkpt lat="43.21319" lon="6.3561">
        <ele>616</ele>
        <time>2015-04-29T13:37:37.310Z</time>
      </trkpt>
      <trkpt lat="43.21327" lon="6.35626">
        <ele>616</ele>
        <time>2015-04-29T13:37:45.590Z</time>
      </trkpt>
      <trkpt lat="43.21332" lon="6.35644">
        <ele>616</ele>
        <time>2015-04-29T13:37:54.390Z</time>
      </trkpt>
      <trkpt lat="43.21334" lon="6.35668">
        <ele>616</ele>
        <time>2015-04-29T13:38:02.390Z</time>
      </trkpt>
      <trkpt lat="43.21345" lon="6.35688">
        <ele>616</ele>
        <time>2015-04-29T13:38:10.590Z</time>
      </trkpt>
      <trkpt lat="43.21355" lon="6.357">
        <ele>616.51900032</ele>
        <time>2015-04-29T13:38:26.590Z</time>
      </trkpt>
      <trkpt lat="43.21366" lon="6.35714">
        <ele>617.59900032</ele>
        <time>2015-04-29T13:38:37.390Z</time>
      </trkpt>
      <trkpt lat="43.21376" lon="6.35723">
        <ele>618</ele>
        <time>2015-04-29T13:38:44.310Z</time>
      </trkpt>
      <trkpt lat="43.21384" lon="6.35738">
        <ele>618.17100032</ele>
        <time>2015-04-29T13:38:53.110Z</time>
      </trkpt>
      <trkpt lat="43.21389" lon="6.3576">
        <ele>619</ele>
        <time>2015-04-29T13:39:04.210Z</time>
      </trkpt>
      <trkpt lat="43.21395" lon="6.35779">
        <ele>618.70899968</ele>
        <time>2015-04-29T13:39:14.310Z</time>
      </trkpt>
      <trkpt lat="43.21409" lon="6.35794">
        <ele>618</ele>
        <time>2015-04-29T13:39:28.310Z</time>
      </trkpt>
      <trkpt lat="43.21417" lon="6.35808">
        <ele>618.65399936</ele>
        <time>2015-04-29T13:39:37.940Z</time>
      </trkpt>
      <trkpt lat="43.21423" lon="6.35822">
        <ele>619.51900032</ele>
        <time>2015-04-29T13:39:46.590Z</time>
      </trkpt>
      <trkpt lat="43.21432" lon="6.35839">
        <ele>620</ele>
        <time>2015-04-29T13:39:58.590Z</time>
      </trkpt>
      <trkpt lat="43.21439" lon="6.35854">
        <ele>620.51900032</ele>
        <time>2015-04-29T13:40:06.590Z</time>
      </trkpt>
      <trkpt lat="43.21446" lon="6.35871">
        <ele>621</ele>
        <time>2015-04-29T13:40:14.590Z</time>
      </trkpt>
      <trkpt lat="43.21452" lon="6.35886">
        <ele>621</ele>
        <time>2015-04-29T13:40:22.590Z</time>
      </trkpt>
      <trkpt lat="43.21458" lon="6.359">
        <ele>621</ele>
        <time>2015-04-29T13:40:30.590Z</time>
      </trkpt>
      <trkpt lat="43.21466" lon="6.35913">
        <ele>621</ele>
        <time>2015-04-29T13:40:38.590Z</time>
      </trkpt>
      <trkpt lat="43.21476" lon="6.35923">
        <ele>621</ele>
        <time>2015-04-29T13:40:46.590Z</time>
      </trkpt>
      <trkpt lat="43.21488" lon="6.35933">
        <ele>620.68131825976</ele>
        <time>2015-04-29T13:40:54.590Z</time>
      </trkpt>
      <trkpt lat="43.21498" lon="6.35947">
        <ele>620</ele>
        <time>2015-04-29T13:41:02.590Z</time>
      </trkpt>
      <trkpt lat="43.21505" lon="6.3596">
        <ele>620</ele>
        <time>2015-04-29T13:41:10.590Z</time>
      </trkpt>
      <trkpt lat="43.21512" lon="6.35973">
        <ele>620</ele>
        <time>2015-04-29T13:41:18.590Z</time>
      </trkpt>
      <trkpt lat="43.21517" lon="6.35985">
        <ele>620</ele>
        <time>2015-04-29T13:41:26.590Z</time>
      </trkpt>
      <trkpt lat="43.21524" lon="6.35998">
        <ele>620.31900032</ele>
        <time>2015-04-29T13:41:34.590Z</time>
      </trkpt>
      <trkpt lat="43.2153" lon="6.36012">
        <ele>621</ele>
        <time>2015-04-29T13:41:42.590Z</time>
      </trkpt>
      <trkpt lat="43.21535" lon="6.36025">
        <ele>621</ele>
        <time>2015-04-29T13:41:50.590Z</time>
      </trkpt>
      <trkpt lat="43.21545" lon="6.36036">
        <ele>621.71900032</ele>
        <time>2015-04-29T13:41:58.590Z</time>
      </trkpt>
      <trkpt lat="43.21555" lon="6.36048">
        <ele>622</ele>
        <time>2015-04-29T13:42:06.590Z</time>
      </trkpt>
      <trkpt lat="43.21562" lon="6.36061">
        <ele>621.689386348</ele>
        <time>2015-04-29T13:42:14.590Z</time>
      </trkpt>
      <trkpt lat="43.21572" lon="6.36082">
        <ele>621</ele>
        <time>2015-04-29T13:42:24.320Z</time>
      </trkpt>
      <trkpt lat="43.21582" lon="6.36095">
        <ele>621</ele>
        <time>2015-04-29T13:42:32.310Z</time>
      </trkpt>
      <trkpt lat="43.21591" lon="6.36107">
        <ele>621</ele>
        <time>2015-04-29T13:42:41.410Z</time>
      </trkpt>
      <trkpt lat="43.21605" lon="6.36132">
        <ele>620.71900032</ele>
        <time>2015-04-29T13:42:54.210Z</time>
      </trkpt>
      <trkpt lat="43.21615" lon="6.36137">
        <ele>619.90899968</ele>
        <time>2015-04-29T13:43:02.310Z</time>
      </trkpt>
      <trkpt lat="43.2163" lon="6.36153">
        <ele>619</ele>
        <time>2015-04-29T13:43:19.390Z</time>
      </trkpt>
      <trkpt lat="43.21639" lon="6.36164">
        <ele>619</ele>
        <time>2015-04-29T13:43:26.590Z</time>
      </trkpt>
      <trkpt lat="43.21659" lon="6.36184">
        <ele>619</ele>
        <time>2015-04-29T13:43:39.590Z</time>
      </trkpt>
      <trkpt lat="43.2167" lon="6.36194">
        <ele>619</ele>
        <time>2015-04-29T13:43:47.310Z</time>
      </trkpt>
      <trkpt lat="43.21682" lon="6.36204">
        <ele>619</ele>
        <time>2015-04-29T13:43:56.390Z</time>
      </trkpt>
      <trkpt lat="43.21692" lon="6.36205">
        <ele>619</ele>
        <time>2015-04-29T13:44:03.210Z</time>
      </trkpt>
      <trkpt lat="43.21706" lon="6.36203">
        <ele>619</ele>
        <time>2015-04-29T13:44:15.310Z</time>
      </trkpt>
      <trkpt lat="43.21722" lon="6.3621">
        <ele>618.77100032</ele>
        <time>2015-04-29T13:44:23.690Z</time>
      </trkpt>
      <trkpt lat="43.21734" lon="6.36219">
        <ele>618.02899968</ele>
        <time>2015-04-29T13:44:31.690Z</time>
      </trkpt>
      <trkpt lat="43.21735" lon="6.36235">
        <ele>618.82899968</ele>
        <time>2015-04-29T13:44:39.690Z</time>
      </trkpt>
      <trkpt lat="43.21738" lon="6.36252">
        <ele>618.37100032</ele>
        <time>2015-04-29T13:44:47.690Z</time>
      </trkpt>
      <trkpt lat="43.2174" lon="6.36268">
        <ele>616.96199936</ele>
        <time>2015-04-29T13:44:56.590Z</time>
      </trkpt>
      <trkpt lat="43.2174" lon="6.36285">
        <ele>616</ele>
        <time>2015-04-29T13:45:04.410Z</time>
      </trkpt>
      <trkpt lat="43.21741" lon="6.36304">
        <ele>615.80099968</ele>
        <time>2015-04-29T13:45:13.390Z</time>
      </trkpt>
      <trkpt lat="43.21738" lon="6.36325">
        <ele>615</ele>
        <time>2015-04-29T13:45:23.210Z</time>
      </trkpt>
      <trkpt lat="43.21735" lon="6.36345">
        <ele>615</ele>
        <time>2015-04-29T13:45:32.210Z</time>
      </trkpt>
      <trkpt lat="43.21734" lon="6.3636">
        <ele>615</ele>
        <time>2015-04-29T13:45:40.310Z</time>
      </trkpt>
      <trkpt lat="43.2173" lon="6.36384">
        <ele>613.32199936</ele>
        <time>2015-04-29T13:45:49.790Z</time>
      </trkpt>
      <trkpt lat="43.21729" lon="6.36406">
        <ele>611.76199936</ele>
        <time>2015-04-29T13:45:57.590Z</time>
      </trkpt>
      <trkpt lat="43.21745" lon="6.36412">
        <ele>611</ele>
        <time>2015-04-29T13:46:10.590Z</time>
      </trkpt>
      <trkpt lat="43.21766" lon="6.36415">
        <ele>609.40199936</ele>
        <time>2015-04-29T13:46:19.390Z</time>
      </trkpt>
      <trkpt lat="43.21779" lon="6.36419">
        <ele>608.38099968</ele>
        <time>2015-04-29T13:46:27.590Z</time>
      </trkpt>
      <trkpt lat="43.21788" lon="6.36426">
        <ele>608</ele>
        <time>2015-04-29T13:46:33.410Z</time>
      </trkpt>
      <trkpt lat="43.21794" lon="6.36439">
        <ele>607.99700267636</ele>
        <time>2015-04-29T13:46:41.430Z</time>
      </trkpt>
      <trkpt lat="43.21806" lon="6.36448">
        <ele>607.20978963749</ele>
        <time>2015-04-29T13:46:49.310Z</time>
      </trkpt>
      <trkpt lat="43.21806" lon="6.36472">
        <ele>606</ele>
        <time>2015-04-29T13:47:01.420Z</time>
      </trkpt>
      <trkpt lat="43.21814" lon="6.36491">
        <ele>605.98899968</ele>
        <time>2015-04-29T13:47:11.510Z</time>
      </trkpt>
      <trkpt lat="43.21838" lon="6.36493">
        <ele>604.60899968</ele>
        <time>2015-04-29T13:47:25.310Z</time>
      </trkpt>
      <trkpt lat="43.21848" lon="6.36487">
        <ele>604</ele>
        <time>2015-04-29T13:47:33.310Z</time>
      </trkpt>
      <trkpt lat="43.21859" lon="6.36495">
        <ele>603.98998935256</ele>
        <time>2015-04-29T13:47:41.510Z</time>
      </trkpt>
      <trkpt lat="43.21864" lon="6.3651">
        <ele>603.21921946932</ele>
        <time>2015-04-29T13:47:49.210Z</time>
      </trkpt>
      <trkpt lat="43.21868" lon="6.36531">
        <ele>602.08099968</ele>
        <time>2015-04-29T13:48:00.590Z</time>
      </trkpt>
      <trkpt lat="43.21876" lon="6.36544">
        <ele>602.69100032</ele>
        <time>2015-04-29T13:48:08.310Z</time>
      </trkpt>
      <trkpt lat="43.21893" lon="6.36547">
        <ele>601.80199936</ele>
        <time>2015-04-29T13:48:17.390Z</time>
      </trkpt>
      <trkpt lat="43.21903" lon="6.36545">
        <ele>600.16199936</ele>
        <time>2015-04-29T13:48:25.590Z</time>
      </trkpt>
      <trkpt lat="43.21917" lon="6.36558">
        <ele>599</ele>
        <time>2015-04-29T13:48:37.590Z</time>
      </trkpt>
      <trkpt lat="43.21924" lon="6.36568">
        <ele>598.58099968</ele>
        <time>2015-04-29T13:48:45.590Z</time>
      </trkpt>
      <trkpt lat="43.21928" lon="6.36588">
        <ele>598</ele>
        <time>2015-04-29T13:48:53.790Z</time>
      </trkpt>
      <trkpt lat="43.21923" lon="6.36607">
        <ele>598</ele>
        <time>2015-04-29T13:49:03.210Z</time>
      </trkpt>
      <trkpt lat="43.21919" lon="6.36626">
        <ele>598</ele>
        <time>2015-04-29T13:49:13.410Z</time>
      </trkpt>
      <trkpt lat="43.21917" lon="6.36644">
        <ele>598</ele>
        <time>2015-04-29T13:49:22.410Z</time>
      </trkpt>
      <trkpt lat="43.21912" lon="6.36663">
        <ele>598</ele>
        <time>2015-04-29T13:49:30.310Z</time>
      </trkpt>
      <trkpt lat="43.21909" lon="6.36676">
        <ele>598</ele>
        <time>2015-04-29T13:49:38.590Z</time>
      </trkpt>
      <trkpt lat="43.21908" lon="6.36691">
        <ele>598</ele>
        <time>2015-04-29T13:49:46.590Z</time>
      </trkpt>
      <trkpt lat="43.21903" lon="6.36709">
        <ele>598</ele>
        <time>2015-04-29T13:49:54.590Z</time>
      </trkpt>
      <trkpt lat="43.21898" lon="6.3673">
        <ele>598</ele>
        <time>2015-04-29T13:50:02.590Z</time>
      </trkpt>
      <trkpt lat="43.21896" lon="6.36748">
        <ele>598</ele>
        <time>2015-04-29T13:50:10.590Z</time>
      </trkpt>
      <trkpt lat="43.21895" lon="6.36778">
        <ele>598.11900032</ele>
        <time>2015-04-29T13:50:22.590Z</time>
      </trkpt>
      <trkpt lat="43.21896" lon="6.36792">
        <ele>598.63900032</ele>
        <time>2015-04-29T13:50:27.790Z</time>
      </trkpt>
      <trkpt lat="43.21897" lon="6.36809">
        <ele>600</ele>
        <time>2015-04-29T13:50:51.590Z</time>
      </trkpt>
      <trkpt lat="43.21898" lon="6.36822">
        <ele>600</ele>
        <time>2015-04-29T13:50:59.590Z</time>
      </trkpt>
      <trkpt lat="43.21898" lon="6.36837">
        <ele>600</ele>
        <time>2015-04-29T13:51:07.590Z</time>
      </trkpt>
      <trkpt lat="43.21899" lon="6.36852">
        <ele>599.58099968</ele>
        <time>2015-04-29T13:51:15.590Z</time>
      </trkpt>
      <trkpt lat="43.219" lon="6.36868">
        <ele>599.22</ele>
        <time>2015-04-29T13:51:23.600Z</time>
      </trkpt>
      <trkpt lat="43.21901" lon="6.36883">
        <ele>600.01900032</ele>
        <time>2015-04-29T13:51:31.590Z</time>
      </trkpt>
      <trkpt lat="43.21904" lon="6.36896">
        <ele>600.81900032</ele>
        <time>2015-04-29T13:51:39.590Z</time>
      </trkpt>
      <trkpt lat="43.21905" lon="6.36909">
        <ele>601</ele>
        <time>2015-04-29T13:51:47.590Z</time>
      </trkpt>
      <trkpt lat="43.21905" lon="6.36924">
        <ele>600.16199936</ele>
        <time>2015-04-29T13:51:55.590Z</time>
      </trkpt>
      <trkpt lat="43.21901" lon="6.36939">
        <ele>599</ele>
        <time>2015-04-29T13:52:03.590Z</time>
      </trkpt>
      <trkpt lat="43.21898" lon="6.36952">
        <ele>598.98099968</ele>
        <time>2015-04-29T13:52:11.590Z</time>
      </trkpt>
      <trkpt lat="43.21896" lon="6.36965">
        <ele>598.18099968</ele>
        <time>2015-04-29T13:52:19.590Z</time>
      </trkpt>
      <trkpt lat="43.21894" lon="6.36979">
        <ele>598</ele>
        <time>2015-04-29T13:52:27.590Z</time>
      </trkpt>
      <trkpt lat="43.21891" lon="6.36994">
        <ele>598</ele>
        <time>2015-04-29T13:52:35.590Z</time>
      </trkpt>
      <trkpt lat="43.21888" lon="6.37007">
        <ele>597.78099968</ele>
        <time>2015-04-29T13:52:43.590Z</time>
      </trkpt>
      <trkpt lat="43.21882" lon="6.37022">
        <ele>596.96199936</ele>
        <time>2015-04-29T13:52:51.590Z</time>
      </trkpt>
      <trkpt lat="43.21882" lon="6.37038">
        <ele>595.36199936</ele>
        <time>2015-04-29T13:52:59.590Z</time>
      </trkpt>
      <trkpt lat="43.2188" lon="6.37054">
        <ele>595</ele>
        <time>2015-04-29T13:53:07.590Z</time>
      </trkpt>
      <trkpt lat="43.21867" lon="6.37079">
        <ele>594.18099968</ele>
        <time>2015-04-29T13:53:19.590Z</time>
      </trkpt>
      <trkpt lat="43.21861" lon="6.37093">
        <ele>593.38099968</ele>
        <time>2015-04-29T13:53:27.590Z</time>
      </trkpt>
      <trkpt lat="43.21865" lon="6.37111">
        <ele>592.58099968</ele>
        <time>2015-04-29T13:53:35.590Z</time>
      </trkpt>
      <trkpt lat="43.21866" lon="6.37126">
        <ele>591.78099968</ele>
        <time>2015-04-29T13:53:43.590Z</time>
      </trkpt>
      <trkpt lat="43.21858" lon="6.37136">
        <ele>590.98099968</ele>
        <time>2015-04-29T13:53:51.590Z</time>
      </trkpt>
      <trkpt lat="43.21846" lon="6.3714">
        <ele>590.14099968</ele>
        <time>2015-04-29T13:53:59.990Z</time>
      </trkpt>
      <trkpt lat="43.21835" lon="6.37149">
        <ele>589.98101865527</ele>
        <time>2015-04-29T13:54:11.590Z</time>
      </trkpt>
      <trkpt lat="43.2183" lon="6.37162">
        <ele>589.18181760058</ele>
        <time>2015-04-29T13:54:19.590Z</time>
      </trkpt>
      <trkpt lat="43.21833" lon="6.37177">
        <ele>589</ele>
        <time>2015-04-29T13:54:27.600Z</time>
      </trkpt>
      <trkpt lat="43.21835" lon="6.37195">
        <ele>589</ele>
        <time>2015-04-29T13:54:35.590Z</time>
      </trkpt>
      <trkpt lat="43.21842" lon="6.37211">
        <ele>589</ele>
        <time>2015-04-29T13:54:43.590Z</time>
      </trkpt>
      <trkpt lat="43.21849" lon="6.37226">
        <ele>588.98099968</ele>
        <time>2015-04-29T13:54:51.590Z</time>
      </trkpt>
      <trkpt lat="43.21855" lon="6.37241">
        <ele>588.18099968</ele>
        <time>2015-04-29T13:54:59.590Z</time>
      </trkpt>
      <trkpt lat="43.21863" lon="6.37255">
        <ele>587.38099968</ele>
        <time>2015-04-29T13:55:07.590Z</time>
      </trkpt>
      <trkpt lat="43.21868" lon="6.37273">
        <ele>586.58099968</ele>
        <time>2015-04-29T13:55:15.590Z</time>
      </trkpt>
      <trkpt lat="43.2187" lon="6.37289">
        <ele>585.78099968</ele>
        <time>2015-04-29T13:55:23.590Z</time>
      </trkpt>
      <trkpt lat="43.21875" lon="6.37305">
        <ele>585</ele>
        <time>2015-04-29T13:55:31.590Z</time>
      </trkpt>
      <trkpt lat="43.21881" lon="6.37322">
        <ele>585</ele>
        <time>2015-04-29T13:55:39.600Z</time>
      </trkpt>
      <trkpt lat="43.21888" lon="6.37338">
        <ele>584.38099968</ele>
        <time>2015-04-29T13:55:47.590Z</time>
      </trkpt>
      <trkpt lat="43.21889" lon="6.37355">
        <ele>582.74299904</ele>
        <time>2015-04-29T13:55:55.590Z</time>
      </trkpt>
      <trkpt lat="43.2189" lon="6.37372">
        <ele>581</ele>
        <time>2015-04-29T13:56:03.590Z</time>
      </trkpt>
      <trkpt lat="43.21891" lon="6.37387">
        <ele>580.98099968</ele>
        <time>2015-04-29T13:56:11.590Z</time>
      </trkpt>
      <trkpt lat="43.21893" lon="6.37403">
        <ele>580.18099968</ele>
        <time>2015-04-29T13:56:19.590Z</time>
      </trkpt>
      <trkpt lat="43.21896" lon="6.37421">
        <ele>579.38099968</ele>
        <time>2015-04-29T13:56:27.590Z</time>
      </trkpt>
      <trkpt lat="43.21898" lon="6.37436">
        <ele>578.58099968</ele>
        <time>2015-04-29T13:56:35.590Z</time>
      </trkpt>
      <trkpt lat="43.21901" lon="6.37453">
        <ele>577.78099968</ele>
        <time>2015-04-29T13:56:43.590Z</time>
      </trkpt>
      <trkpt lat="43.21903" lon="6.3747">
        <ele>576.98099968</ele>
        <time>2015-04-29T13:56:51.590Z</time>
      </trkpt>
      <trkpt lat="43.21909" lon="6.37484">
        <ele>576.18099968</ele>
        <time>2015-04-29T13:56:59.590Z</time>
      </trkpt>
      <trkpt lat="43.21916" lon="6.37496">
        <ele>575.38099968</ele>
        <time>2015-04-29T13:57:07.590Z</time>
      </trkpt>
      <trkpt lat="43.21921" lon="6.37511">
        <ele>574.58099968</ele>
        <time>2015-04-29T13:57:15.590Z</time>
      </trkpt>
      <trkpt lat="43.21925" lon="6.37525">
        <ele>573.78099968</ele>
        <time>2015-04-29T13:57:23.590Z</time>
      </trkpt>
      <trkpt lat="43.2193" lon="6.37541">
        <ele>572.98099968</ele>
        <time>2015-04-29T13:57:31.590Z</time>
      </trkpt>
      <trkpt lat="43.21934" lon="6.37557">
        <ele>572.18099968</ele>
        <time>2015-04-29T13:57:39.590Z</time>
      </trkpt>
      <trkpt lat="43.21941" lon="6.37572">
        <ele>571.38099968</ele>
        <time>2015-04-29T13:57:47.590Z</time>
      </trkpt>
      <trkpt lat="43.21946" lon="6.37589">
        <ele>571</ele>
        <time>2015-04-29T13:57:55.590Z</time>
      </trkpt>
      <trkpt lat="43.21952" lon="6.37605">
        <ele>571</ele>
        <time>2015-04-29T13:58:03.590Z</time>
      </trkpt>
      <trkpt lat="43.21959" lon="6.37618">
        <ele>570.98099968</ele>
        <time>2015-04-29T13:58:11.590Z</time>
      </trkpt>
      <trkpt lat="43.21967" lon="6.3763">
        <ele>570.18099968</ele>
        <time>2015-04-29T13:58:19.590Z</time>
      </trkpt>
      <trkpt lat="43.21974" lon="6.37643">
        <ele>569.38099968</ele>
        <time>2015-04-29T13:58:27.590Z</time>
      </trkpt>
      <trkpt lat="43.21977" lon="6.37657">
        <ele>568.58099968</ele>
        <time>2015-04-29T13:58:35.590Z</time>
      </trkpt>
      <trkpt lat="43.2198" lon="6.37673">
        <ele>568</ele>
        <time>2015-04-29T13:58:43.590Z</time>
      </trkpt>
      <trkpt lat="43.2198" lon="6.37692">
        <ele>568.05700096</ele>
        <time>2015-04-29T13:58:51.590Z</time>
      </trkpt>
      <trkpt lat="43.21978" lon="6.37709">
        <ele>570.45700096</ele>
        <time>2015-04-29T13:58:59.590Z</time>
      </trkpt>
      <trkpt lat="43.21976" lon="6.37725">
        <ele>569.76199936</ele>
        <time>2015-04-29T13:59:07.590Z</time>
      </trkpt>
      <trkpt lat="43.21973" lon="6.37741">
        <ele>569</ele>
        <time>2015-04-29T13:59:15.590Z</time>
      </trkpt>
      <trkpt lat="43.21969" lon="6.37758">
        <ele>568.78099968</ele>
        <time>2015-04-29T13:59:23.590Z</time>
      </trkpt>
      <trkpt lat="43.21964" lon="6.37773">
        <ele>567.98099968</ele>
        <time>2015-04-29T13:59:31.590Z</time>
      </trkpt>
      <trkpt lat="43.21957" lon="6.37787">
        <ele>567.18099968</ele>
        <time>2015-04-29T13:59:39.590Z</time>
      </trkpt>
      <trkpt lat="43.21956" lon="6.37806">
        <ele>566.38099968</ele>
        <time>2015-04-29T13:59:47.590Z</time>
      </trkpt>
      <trkpt lat="43.2196" lon="6.37824">
        <ele>565.58099968</ele>
        <time>2015-04-29T13:59:55.590Z</time>
      </trkpt>
      <trkpt lat="43.21959" lon="6.3784">
        <ele>565</ele>
        <time>2015-04-29T14:00:03.410Z</time>
      </trkpt>
      <trkpt lat="43.2196" lon="6.37857">
        <ele>565</ele>
        <time>2015-04-29T14:00:11.690Z</time>
      </trkpt>
      <trkpt lat="43.2196" lon="6.37873">
        <ele>565</ele>
        <time>2015-04-29T14:00:19.690Z</time>
      </trkpt>
      <trkpt lat="43.21957" lon="6.37889">
        <ele>564.37100032</ele>
        <time>2015-04-29T14:00:27.690Z</time>
      </trkpt>
      <trkpt lat="43.21955" lon="6.37905">
        <ele>564</ele>
        <time>2015-04-29T14:00:35.690Z</time>
      </trkpt>
      <trkpt lat="43.21943" lon="6.37919">
        <ele>562.79900032</ele>
        <time>2015-04-29T14:00:53.410Z</time>
      </trkpt>
      <trkpt lat="43.21934" lon="6.37929">
        <ele>562.20899968</ele>
        <time>2015-04-29T14:00:59.310Z</time>
      </trkpt>
      <trkpt lat="43.21926" lon="6.37943">
        <ele>562</ele>
        <time>2015-04-29T14:01:07.310Z</time>
      </trkpt>
      <trkpt lat="43.21922" lon="6.37962">
        <ele>562</ele>
        <time>2015-04-29T14:01:15.590Z</time>
      </trkpt>
      <trkpt lat="43.2192" lon="6.37981">
        <ele>561.78099968</ele>
        <time>2015-04-29T14:01:23.590Z</time>
      </trkpt>
      <trkpt lat="43.21923" lon="6.37998">
        <ele>560.98099968</ele>
        <time>2015-04-29T14:01:31.590Z</time>
      </trkpt>
      <trkpt lat="43.21925" lon="6.38016">
        <ele>560.18099968</ele>
        <time>2015-04-29T14:01:39.590Z</time>
      </trkpt>
      <trkpt lat="43.21927" lon="6.38033">
        <ele>560</ele>
        <time>2015-04-29T14:01:47.590Z</time>
      </trkpt>
      <trkpt lat="43.21928" lon="6.38048">
        <ele>559.58099968</ele>
        <time>2015-04-29T14:01:55.590Z</time>
      </trkpt>
      <trkpt lat="43.21934" lon="6.38065">
        <ele>559</ele>
        <time>2015-04-29T14:02:03.590Z</time>
      </trkpt>
      <trkpt lat="43.21943" lon="6.3808">
        <ele>559</ele>
        <time>2015-04-29T14:02:11.590Z</time>
      </trkpt>
      <trkpt lat="43.2195" lon="6.38095">
        <ele>559</ele>
        <time>2015-04-29T14:02:19.590Z</time>
      </trkpt>
      <trkpt lat="43.21955" lon="6.3811">
        <ele>559</ele>
        <time>2015-04-29T14:02:27.590Z</time>
      </trkpt>
      <trkpt lat="43.21959" lon="6.38125">
        <ele>558.58099968</ele>
        <time>2015-04-29T14:02:35.590Z</time>
      </trkpt>
      <trkpt lat="43.21965" lon="6.3814">
        <ele>558</ele>
        <time>2015-04-29T14:02:43.590Z</time>
      </trkpt>
      <trkpt lat="43.21971" lon="6.38155">
        <ele>558</ele>
        <time>2015-04-29T14:02:51.590Z</time>
      </trkpt>
      <trkpt lat="43.21975" lon="6.3817">
        <ele>558</ele>
        <time>2015-04-29T14:02:59.590Z</time>
      </trkpt>
      <trkpt lat="43.21977" lon="6.38189">
        <ele>558</ele>
        <time>2015-04-29T14:03:07.590Z</time>
      </trkpt>
      <trkpt lat="43.21973" lon="6.38206">
        <ele>557.58099968</ele>
        <time>2015-04-29T14:03:15.590Z</time>
      </trkpt>
      <trkpt lat="43.21969" lon="6.38223">
        <ele>557</ele>
        <time>2015-04-29T14:03:23.590Z</time>
      </trkpt>
      <trkpt lat="43.21965" lon="6.38238">
        <ele>556.96199936</ele>
        <time>2015-04-29T14:03:31.590Z</time>
      </trkpt>
      <trkpt lat="43.21963" lon="6.38253">
        <ele>555.36199936</ele>
        <time>2015-04-29T14:03:39.590Z</time>
      </trkpt>
      <trkpt lat="43.2196" lon="6.38272">
        <ele>555</ele>
        <time>2015-04-29T14:03:47.590Z</time>
      </trkpt>
      <trkpt lat="43.21956" lon="6.38292">
        <ele>554.58099968</ele>
        <time>2015-04-29T14:03:55.590Z</time>
      </trkpt>
      <trkpt lat="43.21953" lon="6.38309">
        <ele>554</ele>
        <time>2015-04-29T14:04:03.590Z</time>
      </trkpt>
      <trkpt lat="43.2195" lon="6.38326">
        <ele>553.98099968</ele>
        <time>2015-04-29T14:04:11.590Z</time>
      </trkpt>
      <trkpt lat="43.21947" lon="6.38343">
        <ele>553.18099968</ele>
        <time>2015-04-29T14:04:19.590Z</time>
      </trkpt>
      <trkpt lat="43.21946" lon="6.3836">
        <ele>552.38099968</ele>
        <time>2015-04-29T14:04:27.590Z</time>
      </trkpt>
      <trkpt lat="43.21948" lon="6.38375">
        <ele>552</ele>
        <time>2015-04-29T14:04:35.590Z</time>
      </trkpt>
      <trkpt lat="43.21951" lon="6.38392">
        <ele>551.78099968</ele>
        <time>2015-04-29T14:04:43.590Z</time>
      </trkpt>
      <trkpt lat="43.21955" lon="6.38408">
        <ele>550.98099968</ele>
        <time>2015-04-29T14:04:51.590Z</time>
      </trkpt>
      <trkpt lat="43.21957" lon="6.38423">
        <ele>550.17100032</ele>
        <time>2015-04-29T14:04:59.690Z</time>
      </trkpt>
      <trkpt lat="43.2196" lon="6.3844">
        <ele>550</ele>
        <time>2015-04-29T14:05:07.690Z</time>
      </trkpt>
      <trkpt lat="43.21958" lon="6.38457">
        <ele>550</ele>
        <time>2015-04-29T14:05:15.690Z</time>
      </trkpt>
      <trkpt lat="43.21955" lon="6.38475">
        <ele>549.77100032</ele>
        <time>2015-04-29T14:05:23.690Z</time>
      </trkpt>
      <trkpt lat="43.21952" lon="6.38489">
        <ele>548.94200064</ele>
        <time>2015-04-29T14:05:31.690Z</time>
      </trkpt>
      <trkpt lat="43.21949" lon="6.38505">
        <ele>547.34200064</ele>
        <time>2015-04-29T14:05:39.690Z</time>
      </trkpt>
      <trkpt lat="43.21947" lon="6.38525">
        <ele>546.37100032</ele>
        <time>2015-04-29T14:05:47.690Z</time>
      </trkpt>
      <trkpt lat="43.21941" lon="6.38545">
        <ele>546</ele>
        <time>2015-04-29T14:05:55.690Z</time>
      </trkpt>
      <trkpt lat="43.21937" lon="6.38562">
        <ele>546</ele>
        <time>2015-04-29T14:06:03.690Z</time>
      </trkpt>
      <trkpt lat="43.21935" lon="6.38579">
        <ele>545.97100032</ele>
        <time>2015-04-29T14:06:11.690Z</time>
      </trkpt>
      <trkpt lat="43.21932" lon="6.38593">
        <ele>545.17100032</ele>
        <time>2015-04-29T14:06:19.690Z</time>
      </trkpt>
      <trkpt lat="43.21927" lon="6.38612">
        <ele>544.37100032</ele>
        <time>2015-04-29T14:06:27.690Z</time>
      </trkpt>
      <trkpt lat="43.21931" lon="6.38626">
        <ele>544</ele>
        <time>2015-04-29T14:06:35.690Z</time>
      </trkpt>
      <trkpt lat="43.21947" lon="6.38638">
        <ele>543.77100032</ele>
        <time>2015-04-29T14:06:43.690Z</time>
      </trkpt>
      <trkpt lat="43.21958" lon="6.38647">
        <ele>542.97100032</ele>
        <time>2015-04-29T14:06:51.690Z</time>
      </trkpt>
      <trkpt lat="43.21968" lon="6.38659">
        <ele>542.17100032</ele>
        <time>2015-04-29T14:06:59.690Z</time>
      </trkpt>
      <trkpt lat="43.21972" lon="6.38675">
        <ele>542</ele>
        <time>2015-04-29T14:07:07.690Z</time>
      </trkpt>
      <trkpt lat="43.21975" lon="6.3869">
        <ele>542</ele>
        <time>2015-04-29T14:07:15.690Z</time>
      </trkpt>
      <trkpt lat="43.21977" lon="6.38707">
        <ele>541.77100032</ele>
        <time>2015-04-29T14:07:23.690Z</time>
      </trkpt>
      <trkpt lat="43.21978" lon="6.38725">
        <ele>540.97100032</ele>
        <time>2015-04-29T14:07:31.690Z</time>
      </trkpt>
      <trkpt lat="43.21978" lon="6.38744">
        <ele>540.17100032</ele>
        <time>2015-04-29T14:07:39.690Z</time>
      </trkpt>
      <trkpt lat="43.2198" lon="6.3876">
        <ele>540</ele>
        <time>2015-04-29T14:07:47.690Z</time>
      </trkpt>
      <trkpt lat="43.21983" lon="6.38778">
        <ele>539.57100032</ele>
        <time>2015-04-29T14:07:55.690Z</time>
      </trkpt>
      <trkpt lat="43.21984" lon="6.38796">
        <ele>539</ele>
        <time>2015-04-29T14:08:03.690Z</time>
      </trkpt>
      <trkpt lat="43.21987" lon="6.38812">
        <ele>539</ele>
        <time>2015-04-29T14:08:11.690Z</time>
      </trkpt>
      <trkpt lat="43.21995" lon="6.38826">
        <ele>539</ele>
        <time>2015-04-29T14:08:19.690Z</time>
      </trkpt>
      <trkpt lat="43.22005" lon="6.38839">
        <ele>538.37100032</ele>
        <time>2015-04-29T14:08:27.690Z</time>
      </trkpt>
      <trkpt lat="43.22013" lon="6.38853">
        <ele>538</ele>
        <time>2015-04-29T14:08:35.690Z</time>
      </trkpt>
      <trkpt lat="43.22018" lon="6.38871">
        <ele>538</ele>
        <time>2015-04-29T14:08:43.690Z</time>
      </trkpt>
      <trkpt lat="43.22016" lon="6.38895">
        <ele>537.57100032</ele>
        <time>2015-04-29T14:08:55.690Z</time>
      </trkpt>
      <trkpt lat="43.2201" lon="6.38908">
        <ele>536.77100032</ele>
        <time>2015-04-29T14:09:03.690Z</time>
      </trkpt>
      <trkpt lat="43.22002" lon="6.38921">
        <ele>535.97100032</ele>
        <time>2015-04-29T14:09:11.690Z</time>
      </trkpt>
      <trkpt lat="43.21996" lon="6.38934">
        <ele>535.17100032</ele>
        <time>2015-04-29T14:09:19.690Z</time>
      </trkpt>
      <trkpt lat="43.21995" lon="6.38956">
        <ele>535</ele>
        <time>2015-04-29T14:09:27.690Z</time>
      </trkpt>
      <trkpt lat="43.22002" lon="6.38971">
        <ele>535</ele>
        <time>2015-04-29T14:09:35.690Z</time>
      </trkpt>
      <trkpt lat="43.22015" lon="6.38988">
        <ele>534.37100032</ele>
        <time>2015-04-29T14:09:47.690Z</time>
      </trkpt>
      <trkpt lat="43.22024" lon="6.38997">
        <ele>533.57100032</ele>
        <time>2015-04-29T14:09:55.690Z</time>
      </trkpt>
      <trkpt lat="43.22037" lon="6.38998">
        <ele>533</ele>
        <time>2015-04-29T14:10:03.690Z</time>
      </trkpt>
      <trkpt lat="43.22049" lon="6.39003">
        <ele>533</ele>
        <time>2015-04-29T14:10:11.690Z</time>
      </trkpt>
      <trkpt lat="43.22059" lon="6.3902">
        <ele>532.54200064</ele>
        <time>2015-04-29T14:10:23.690Z</time>
      </trkpt>
      <trkpt lat="43.22074" lon="6.39041">
        <ele>531</ele>
        <time>2015-04-29T14:10:35.690Z</time>
      </trkpt>
      <trkpt lat="43.2209" lon="6.39052">
        <ele>531</ele>
        <time>2015-04-29T14:10:47.690Z</time>
      </trkpt>
      <trkpt lat="43.22099" lon="6.39062">
        <ele>530.57100032</ele>
        <time>2015-04-29T14:10:55.690Z</time>
      </trkpt>
      <trkpt lat="43.22109" lon="6.39072">
        <ele>530.39100032</ele>
        <time>2015-04-29T14:11:05.310Z</time>
      </trkpt>
      <trkpt lat="43.22119" lon="6.39085">
        <ele>531</ele>
        <time>2015-04-29T14:11:13.310Z</time>
      </trkpt>
      <trkpt lat="43.22126" lon="6.39097">
        <ele>530.98198134711</ele>
        <time>2015-04-29T14:11:21.590Z</time>
      </trkpt>
      <trkpt lat="43.22134" lon="6.39109">
        <ele>530.18118080282</ele>
        <time>2015-04-29T14:11:29.590Z</time>
      </trkpt>
      <trkpt lat="43.22143" lon="6.39122">
        <ele>530</ele>
        <time>2015-04-29T14:11:37.590Z</time>
      </trkpt>
      <trkpt lat="43.22153" lon="6.39133">
        <ele>530</ele>
        <time>2015-04-29T14:11:45.590Z</time>
      </trkpt>
      <trkpt lat="43.2216" lon="6.39144">
        <ele>530</ele>
        <time>2015-04-29T14:11:53.590Z</time>
      </trkpt>
      <trkpt lat="43.22168" lon="6.39156">
        <ele>530</ele>
        <time>2015-04-29T14:12:01.590Z</time>
      </trkpt>
      <trkpt lat="43.22183" lon="6.39175">
        <ele>530</ele>
        <time>2015-04-29T14:12:13.590Z</time>
      </trkpt>
      <trkpt lat="43.22186" lon="6.39182">
        <ele>530</ele>
        <time>2015-04-29T14:12:21.590Z</time>
      </trkpt>
      <trkpt lat="43.22192" lon="6.39193">
        <ele>530</ele>
        <time>2015-04-29T14:12:29.590Z</time>
      </trkpt>
      <trkpt lat="43.22199" lon="6.39205">
        <ele>529.38099968</ele>
        <time>2015-04-29T14:12:37.590Z</time>
      </trkpt>
      <trkpt lat="43.22206" lon="6.39217">
        <ele>528.58099968</ele>
        <time>2015-04-29T14:12:45.590Z</time>
      </trkpt>
      <trkpt lat="43.22218" lon="6.39233">
        <ele>528</ele>
        <time>2015-04-29T14:12:57.590Z</time>
      </trkpt>
      <trkpt lat="43.22222" lon="6.3924">
        <ele>528</ele>
        <time>2015-04-29T14:13:49.590Z</time>
      </trkpt>
      <trkpt lat="43.22224" lon="6.39253">
        <ele>527.38099968</ele>
        <time>2015-04-29T14:13:57.590Z</time>
      </trkpt>
      <trkpt lat="43.22226" lon="6.39261">
        <ele>527</ele>
        <time>2015-04-29T14:14:21.590Z</time>
      </trkpt>
      <trkpt lat="43.22234" lon="6.39274">
        <ele>527</ele>
        <time>2015-04-29T14:14:29.590Z</time>
      </trkpt>
      <trkpt lat="43.22244" lon="6.39288">
        <ele>527</ele>
        <time>2015-04-29T14:14:37.590Z</time>
      </trkpt>
      <trkpt lat="43.22249" lon="6.39302">
        <ele>527.41900032</ele>
        <time>2015-04-29T14:14:45.590Z</time>
      </trkpt>
      <trkpt lat="43.22251" lon="6.39314">
        <ele>528.21900032</ele>
        <time>2015-04-29T14:14:53.590Z</time>
      </trkpt>
      <trkpt lat="43.22257" lon="6.39328">
        <ele>529</ele>
        <time>2015-04-29T14:15:01.410Z</time>
      </trkpt>
      <trkpt lat="43.22265" lon="6.39346">
        <ele>528.78099968</ele>
        <time>2015-04-29T14:15:13.590Z</time>
      </trkpt>
      <trkpt lat="43.22272" lon="6.39364">
        <ele>528</ele>
        <time>2015-04-29T14:15:29.590Z</time>
      </trkpt>
      <trkpt lat="43.22276" lon="6.39377">
        <ele>528.61900032</ele>
        <time>2015-04-29T14:15:37.590Z</time>
      </trkpt>
      <trkpt lat="43.22279" lon="6.39391">
        <ele>529.41900032</ele>
        <time>2015-04-29T14:15:45.590Z</time>
      </trkpt>
      <trkpt lat="43.22283" lon="6.39406">
        <ele>530</ele>
        <time>2015-04-29T14:15:53.590Z</time>
      </trkpt>
      <trkpt lat="43.22289" lon="6.39421">
        <ele>530.01900032</ele>
        <time>2015-04-29T14:16:01.590Z</time>
      </trkpt>
      <trkpt lat="43.22293" lon="6.39438">
        <ele>530.81900032</ele>
        <time>2015-04-29T14:16:09.590Z</time>
      </trkpt>
      <trkpt lat="43.22296" lon="6.39454">
        <ele>531</ele>
        <time>2015-04-29T14:16:17.590Z</time>
      </trkpt>
      <trkpt lat="43.22304" lon="6.39469">
        <ele>531.41900032</ele>
        <time>2015-04-29T14:16:25.590Z</time>
      </trkpt>
      <trkpt lat="43.22306" lon="6.39486">
        <ele>532</ele>
        <time>2015-04-29T14:16:33.590Z</time>
      </trkpt>
      <trkpt lat="43.2231" lon="6.39499">
        <ele>532.01900032</ele>
        <time>2015-04-29T14:16:41.590Z</time>
      </trkpt>
      <trkpt lat="43.22314" lon="6.39516">
        <ele>533</ele>
        <time>2015-04-29T14:16:53.590Z</time>
      </trkpt>
      <trkpt lat="43.22319" lon="6.39531">
        <ele>533.01900032</ele>
        <time>2015-04-29T14:17:01.590Z</time>
      </trkpt>
      <trkpt lat="43.22326" lon="6.39546">
        <ele>533.81900032</ele>
        <time>2015-04-29T14:17:09.590Z</time>
      </trkpt>
      <trkpt lat="43.2233" lon="6.39555">
        <ele>534</ele>
        <time>2015-04-29T14:17:17.590Z</time>
      </trkpt>
      <trkpt lat="43.22334" lon="6.39569">
        <ele>534</ele>
        <time>2015-04-29T14:17:25.590Z</time>
      </trkpt>
      <trkpt lat="43.22338" lon="6.39585">
        <ele>534.43643757792</ele>
        <time>2015-04-29T14:17:33.590Z</time>
      </trkpt>
      <trkpt lat="43.22341" lon="6.39599">
        <ele>536</ele>
        <time>2015-04-29T14:17:41.590Z</time>
      </trkpt>
      <trkpt lat="43.22345" lon="6.39612">
        <ele>536</ele>
        <time>2015-04-29T14:17:49.590Z</time>
      </trkpt>
      <trkpt lat="43.22349" lon="6.39626">
        <ele>536</ele>
        <time>2015-04-29T14:17:57.590Z</time>
      </trkpt>
      <trkpt lat="43.22352" lon="6.39643">
        <ele>536</ele>
        <time>2015-04-29T14:18:05.690Z</time>
      </trkpt>
      <trkpt lat="43.22358" lon="6.39662">
        <ele>536</ele>
        <time>2015-04-29T14:18:13.690Z</time>
      </trkpt>
      <trkpt lat="43.22368" lon="6.39673">
        <ele>536.02899968</ele>
        <time>2015-04-29T14:18:21.690Z</time>
      </trkpt>
      <trkpt lat="43.22376" lon="6.39675">
        <ele>537</ele>
        <time>2015-04-29T14:18:33.690Z</time>
      </trkpt>
      <trkpt lat="43.22385" lon="6.39683">
        <ele>537</ele>
        <time>2015-04-29T14:18:41.690Z</time>
      </trkpt>
      <trkpt lat="43.22394" lon="6.39695">
        <ele>537</ele>
        <time>2015-04-29T14:18:49.690Z</time>
      </trkpt>
      <trkpt lat="43.22402" lon="6.39707">
        <ele>536.37100032</ele>
        <time>2015-04-29T14:18:57.690Z</time>
      </trkpt>
      <trkpt lat="43.2241" lon="6.3972">
        <ele>536</ele>
        <time>2015-04-29T14:19:05.690Z</time>
      </trkpt>
      <trkpt lat="43.22416" lon="6.39734">
        <ele>536</ele>
        <time>2015-04-29T14:19:13.690Z</time>
      </trkpt>
      <trkpt lat="43.22427" lon="6.39749">
        <ele>536.02899968</ele>
        <time>2015-04-29T14:19:21.690Z</time>
      </trkpt>
      <trkpt lat="43.22434" lon="6.39765">
        <ele>536.82899968</ele>
        <time>2015-04-29T14:19:29.690Z</time>
      </trkpt>
      <trkpt lat="43.22443" lon="6.39778">
        <ele>537</ele>
        <time>2015-04-29T14:19:37.690Z</time>
      </trkpt>
      <trkpt lat="43.22452" lon="6.39788">
        <ele>537</ele>
        <time>2015-04-29T14:19:45.690Z</time>
      </trkpt>
      <trkpt lat="43.2246" lon="6.398">
        <ele>537</ele>
        <time>2015-04-29T14:19:53.690Z</time>
      </trkpt>
      <trkpt lat="43.22462" lon="6.39814">
        <ele>537</ele>
        <time>2015-04-29T14:20:01.690Z</time>
      </trkpt>
      <trkpt lat="43.22451" lon="6.39826">
        <ele>537</ele>
        <time>2015-04-29T14:20:13.690Z</time>
      </trkpt>
      <trkpt lat="43.22441" lon="6.39825">
        <ele>537</ele>
        <time>2015-04-29T14:20:21.690Z</time>
      </trkpt>
      <trkpt lat="43.22429" lon="6.39828">
        <ele>537</ele>
        <time>2015-04-29T14:20:29.690Z</time>
      </trkpt>
      <trkpt lat="43.22425" lon="6.39841">
        <ele>536.21900032</ele>
        <time>2015-04-29T14:20:39.210Z</time>
      </trkpt>
      <trkpt lat="43.22416" lon="6.39869">
        <ele>535</ele>
        <time>2015-04-29T14:20:51.590Z</time>
      </trkpt>
      <trkpt lat="43.22412" lon="6.39881">
        <ele>535</ele>
        <time>2015-04-29T14:20:59.590Z</time>
      </trkpt>
      <trkpt lat="43.22406" lon="6.39887">
        <ele>535</ele>
        <time>2015-04-29T14:21:07.590Z</time>
      </trkpt>
      <trkpt lat="43.22396" lon="6.39894">
        <ele>535</ele>
        <time>2015-04-29T14:21:15.590Z</time>
      </trkpt>
      <trkpt lat="43.22384" lon="6.3991">
        <ele>535</ele>
        <time>2015-04-29T14:21:27.590Z</time>
      </trkpt>
      <trkpt lat="43.22385" lon="6.39927">
        <ele>533</ele>
        <time>2015-04-29T14:22:18.120Z</time>
      </trkpt>
      <trkpt lat="43.22384" lon="6.39945">
        <ele>532.17100032</ele>
        <time>2015-04-29T14:22:29.690Z</time>
      </trkpt>
      <trkpt lat="43.22388" lon="6.39961">
        <ele>532</ele>
        <time>2015-04-29T14:22:37.490Z</time>
      </trkpt>
      <trkpt lat="43.22388" lon="6.39975">
        <ele>531.51799936</ele>
        <time>2015-04-29T14:22:46.220Z</time>
      </trkpt>
      <trkpt lat="43.22387" lon="6.39999">
        <ele>531</ele>
        <time>2015-04-29T14:23:05.690Z</time>
      </trkpt>
      <trkpt lat="43.22385" lon="6.40015">
        <ele>530.81900032</ele>
        <time>2015-04-29T14:23:13.210Z</time>
      </trkpt>
      <trkpt lat="43.22381" lon="6.4003">
        <ele>530</ele>
        <time>2015-04-29T14:23:21.490Z</time>
      </trkpt>
      <trkpt lat="43.22383" lon="6.40046">
        <ele>530</ele>
        <time>2015-04-29T14:23:29.690Z</time>
      </trkpt>
      <trkpt lat="43.22387" lon="6.40062">
        <ele>529.37100032</ele>
        <time>2015-04-29T14:23:37.690Z</time>
      </trkpt>
      <trkpt lat="43.2239" lon="6.40078">
        <ele>529</ele>
        <time>2015-04-29T14:23:45.690Z</time>
      </trkpt>
      <trkpt lat="43.22394" lon="6.40094">
        <ele>528.79100032</ele>
        <time>2015-04-29T14:23:53.490Z</time>
      </trkpt>
      <trkpt lat="43.22392" lon="6.40108">
        <ele>528</ele>
        <time>2015-04-29T14:24:01.410Z</time>
      </trkpt>
      <trkpt lat="43.22386" lon="6.40129">
        <ele>528</ele>
        <time>2015-04-29T14:24:09.210Z</time>
      </trkpt>
      <trkpt lat="43.22385" lon="6.40159">
        <ele>526.99100032</ele>
        <time>2015-04-29T14:24:21.490Z</time>
      </trkpt>
      <trkpt lat="43.22392" lon="6.4018">
        <ele>526.19100032</ele>
        <time>2015-04-29T14:24:29.490Z</time>
      </trkpt>
      <trkpt lat="43.22401" lon="6.40203">
        <ele>523</ele>
        <time>2015-04-29T14:24:41.490Z</time>
      </trkpt>
      <trkpt lat="43.22407" lon="6.40221">
        <ele>522.39800064</ele>
        <time>2015-04-29T14:24:54.410Z</time>
      </trkpt>
      <trkpt lat="43.22413" lon="6.4024">
        <ele>521</ele>
        <time>2015-04-29T14:25:08.410Z</time>
      </trkpt>
      <trkpt lat="43.22411" lon="6.40256">
        <ele>520.51948068555</ele>
        <time>2015-04-29T14:25:16.210Z</time>
      </trkpt>
      <trkpt lat="43.22405" lon="6.40275">
        <ele>519.69169179045</ele>
        <time>2015-04-29T14:25:24.490Z</time>
      </trkpt>
      <trkpt lat="43.22396" lon="6.40298">
        <ele>519</ele>
        <time>2015-04-29T14:25:38.690Z</time>
      </trkpt>
      <trkpt lat="43.2239" lon="6.40318">
        <ele>518</ele>
        <time>2015-04-29T14:25:52.310Z</time>
      </trkpt>
      <trkpt lat="43.22388" lon="6.40345">
        <ele>517.17100032</ele>
        <time>2015-04-29T14:26:19.690Z</time>
      </trkpt>
      <trkpt lat="43.22383" lon="6.40388">
        <ele>516.91900032</ele>
        <time>2015-04-29T14:26:32.210Z</time>
      </trkpt>
      <trkpt lat="43.22395" lon="6.40398">
        <ele>516</ele>
        <time>2015-04-29T14:26:44.500Z</time>
      </trkpt>
      <trkpt lat="43.22401" lon="6.4042">
        <ele>516</ele>
        <time>2015-04-29T14:26:52.690Z</time>
      </trkpt>
      <trkpt lat="43.22394" lon="6.40445">
        <ele>516</ele>
        <time>2015-04-29T14:27:00.890Z</time>
      </trkpt>
      <trkpt lat="43.22388" lon="6.4046">
        <ele>515.80899968</ele>
        <time>2015-04-29T14:27:13.310Z</time>
      </trkpt>
      <trkpt lat="43.22381" lon="6.40473">
        <ele>514.99900032</ele>
        <time>2015-04-29T14:27:21.410Z</time>
      </trkpt>
      <trkpt lat="43.22378" lon="6.40488">
        <ele>513</ele>
        <time>2015-04-29T14:27:41.490Z</time>
      </trkpt>
      <trkpt lat="43.22381" lon="6.40505">
        <ele>513</ele>
        <time>2015-04-29T14:27:49.490Z</time>
      </trkpt>
      <trkpt lat="43.22382" lon="6.40535">
        <ele>512.19900032</ele>
        <time>2015-04-29T14:27:59.410Z</time>
      </trkpt>
      <trkpt lat="43.22382" lon="6.40552">
        <ele>512</ele>
        <time>2015-04-29T14:28:06.210Z</time>
      </trkpt>
      <trkpt lat="43.22384" lon="6.40566">
        <ele>511.80899968</ele>
        <time>2015-04-29T14:28:13.310Z</time>
      </trkpt>
      <trkpt lat="43.22387" lon="6.40582">
        <ele>511</ele>
        <time>2015-04-29T14:28:21.410Z</time>
      </trkpt>
      <trkpt lat="43.22395" lon="6.40597">
        <ele>511</ele>
        <time>2015-04-29T14:28:32.310Z</time>
      </trkpt>
      <trkpt lat="43.22408" lon="6.40619">
        <ele>510.30899968</ele>
        <time>2015-04-29T14:28:48.310Z</time>
      </trkpt>
      <trkpt lat="43.22415" lon="6.40634">
        <ele>509.0389613711</ele>
        <time>2015-04-29T14:28:56.210Z</time>
      </trkpt>
      <trkpt lat="43.22423" lon="6.40647">
        <ele>508</ele>
        <time>2015-04-29T14:29:04.500Z</time>
      </trkpt>
      <trkpt lat="43.22435" lon="6.40661">
        <ele>508</ele>
        <time>2015-04-29T14:29:12.490Z</time>
      </trkpt>
      <trkpt lat="43.22437" lon="6.40678">
        <ele>508</ele>
        <time>2015-04-29T14:29:19.690Z</time>
      </trkpt>
      <trkpt lat="43.22439" lon="6.40701">
        <ele>508</ele>
        <time>2015-04-29T14:29:27.210Z</time>
      </trkpt>
      <trkpt lat="43.22442" lon="6.40716">
        <ele>507.19100032</ele>
        <time>2015-04-29T14:29:39.490Z</time>
      </trkpt>
      <trkpt lat="43.22433" lon="6.40733">
        <ele>507</ele>
        <time>2015-04-29T14:29:47.690Z</time>
      </trkpt>
      <trkpt lat="43.2243" lon="6.40748">
        <ele>506.37100032</ele>
        <time>2015-04-29T14:29:57.690Z</time>
      </trkpt>
      <trkpt lat="43.22427" lon="6.40767">
        <ele>506</ele>
        <time>2015-04-29T14:30:09.310Z</time>
      </trkpt>
      <trkpt lat="43.22425" lon="6.40785">
        <ele>506</ele>
        <time>2015-04-29T14:30:17.590Z</time>
      </trkpt>
      <trkpt lat="43.22421" lon="6.40803">
        <ele>506</ele>
        <time>2015-04-29T14:30:29.590Z</time>
      </trkpt>
      <trkpt lat="43.22423" lon="6.40822">
        <ele>506</ele>
        <time>2015-04-29T14:30:37.590Z</time>
      </trkpt>
      <trkpt lat="43.22429" lon="6.40833">
        <ele>505.58099968</ele>
        <time>2015-04-29T14:30:45.590Z</time>
      </trkpt>
      <trkpt lat="43.22439" lon="6.40828">
        <ele>505</ele>
        <time>2015-04-29T14:30:57.590Z</time>
      </trkpt>
      <trkpt lat="43.22448" lon="6.4082">
        <ele>505</ele>
        <time>2015-04-29T14:31:05.590Z</time>
      </trkpt>
      <trkpt lat="43.22461" lon="6.40821">
        <ele>505</ele>
        <time>2015-04-29T14:31:13.590Z</time>
      </trkpt>
      <trkpt lat="43.22476" lon="6.40839">
        <ele>505</ele>
        <time>2015-04-29T14:31:26.690Z</time>
      </trkpt>
      <trkpt lat="43.22481" lon="6.40851">
        <ele>504.39800064</ele>
        <time>2015-04-29T14:31:34.410Z</time>
      </trkpt>
      <trkpt lat="43.22488" lon="6.40861">
        <ele>502.87100032</ele>
        <time>2015-04-29T14:31:42.690Z</time>
      </trkpt>
      <trkpt lat="43.22492" lon="6.40876">
        <ele>502.07100032</ele>
        <time>2015-04-29T14:31:50.690Z</time>
      </trkpt>
      <trkpt lat="43.22493" lon="6.4089">
        <ele>500.58200064</ele>
        <time>2015-04-29T14:31:58.490Z</time>
      </trkpt>
      <trkpt lat="43.22514" lon="6.40897">
        <ele>499</ele>
        <time>2015-04-29T14:32:11.430Z</time>
      </trkpt>
      <trkpt lat="43.22528" lon="6.40903">
        <ele>499</ele>
        <time>2015-04-29T14:32:19.210Z</time>
      </trkpt>
      <trkpt lat="43.2254" lon="6.40906">
        <ele>498.39100032</ele>
        <time>2015-04-29T14:32:27.490Z</time>
      </trkpt>
      <trkpt lat="43.22553" lon="6.40907">
        <ele>497.57100032</ele>
        <time>2015-04-29T14:32:35.690Z</time>
      </trkpt>
      <trkpt lat="43.22568" lon="6.40912">
        <ele>496.37100032</ele>
        <time>2015-04-29T14:32:47.690Z</time>
      </trkpt>
      <trkpt lat="43.22579" lon="6.40916">
        <ele>496</ele>
        <time>2015-04-29T14:32:57.410Z</time>
      </trkpt>
      <trkpt lat="43.22589" lon="6.40923">
        <ele>496.22822815512</ele>
        <time>2015-04-29T14:33:13.690Z</time>
      </trkpt>
      <trkpt lat="43.226" lon="6.40926">
        <ele>497</ele>
        <time>2015-04-29T14:33:21.690Z</time>
      </trkpt>
      <trkpt lat="43.22613" lon="6.40927">
        <ele>497</ele>
        <time>2015-04-29T14:33:33.690Z</time>
      </trkpt>
      <trkpt lat="43.22623" lon="6.40928">
        <ele>497</ele>
        <time>2015-04-29T14:33:45.690Z</time>
      </trkpt>
      <trkpt lat="43.22631" lon="6.40937">
        <ele>497.68068046265</ele>
        <time>2015-04-29T14:34:48.210Z</time>
      </trkpt>
      <trkpt lat="43.22644" lon="6.40929">
        <ele>496</ele>
        <time>2015-04-29T14:35:10.410Z</time>
      </trkpt>
      <trkpt lat="43.22656" lon="6.4092">
        <ele>494.87100032</ele>
        <time>2015-04-29T14:35:22.690Z</time>
      </trkpt>
      <trkpt lat="43.22666" lon="6.40914">
        <ele>493.34200064</ele>
        <time>2015-04-29T14:35:34.690Z</time>
      </trkpt>
      <trkpt lat="43.22673" lon="6.40904">
        <ele>492</ele>
        <time>2015-04-29T14:35:42.690Z</time>
      </trkpt>
      <trkpt lat="43.22685" lon="6.40894">
        <ele>492</ele>
        <time>2015-04-29T14:35:50.690Z</time>
      </trkpt>
      <trkpt lat="43.22697" lon="6.40888">
        <ele>490.54200064</ele>
        <time>2015-04-29T14:35:58.690Z</time>
      </trkpt>
      <trkpt lat="43.22704" lon="6.40874">
        <ele>490</ele>
        <time>2015-04-29T14:36:06.690Z</time>
      </trkpt>
      <trkpt lat="43.22702" lon="6.40855">
        <ele>489.34200064</ele>
        <time>2015-04-29T14:36:14.690Z</time>
      </trkpt>
      <trkpt lat="43.22701" lon="6.40838">
        <ele>487.87100032</ele>
        <time>2015-04-29T14:36:22.690Z</time>
      </trkpt>
      <trkpt lat="43.22699" lon="6.40822">
        <ele>487.07100032</ele>
        <time>2015-04-29T14:36:30.690Z</time>
      </trkpt>
      <trkpt lat="43.22699" lon="6.40806">
        <ele>486.27100032</ele>
        <time>2015-04-29T14:36:38.690Z</time>
      </trkpt>
      <trkpt lat="43.22698" lon="6.4079">
        <ele>486</ele>
        <time>2015-04-29T14:36:46.690Z</time>
      </trkpt>
      <trkpt lat="43.22696" lon="6.40776">
        <ele>485.34200064</ele>
        <time>2015-04-29T14:36:54.690Z</time>
      </trkpt>
      <trkpt lat="43.22695" lon="6.4076">
        <ele>484</ele>
        <time>2015-04-29T14:37:02.690Z</time>
      </trkpt>
      <trkpt lat="43.22692" lon="6.40744">
        <ele>484</ele>
        <time>2015-04-29T14:37:10.690Z</time>
      </trkpt>
      <trkpt lat="43.22688" lon="6.4073">
        <ele>483.27100032</ele>
        <time>2015-04-29T14:37:18.690Z</time>
      </trkpt>
      <trkpt lat="43.22684" lon="6.40717">
        <ele>481.94200064</ele>
        <time>2015-04-29T14:37:26.690Z</time>
      </trkpt>
      <trkpt lat="43.2268" lon="6.40698">
        <ele>480.27100032</ele>
        <time>2015-04-29T14:37:38.690Z</time>
      </trkpt>
      <trkpt lat="43.22678" lon="6.40683">
        <ele>479.47100032</ele>
        <time>2015-04-29T14:37:46.690Z</time>
      </trkpt>
      <trkpt lat="43.22673" lon="6.40668">
        <ele>478.34200064</ele>
        <time>2015-04-29T14:37:54.690Z</time>
      </trkpt>
      <trkpt lat="43.22669" lon="6.40652">
        <ele>477</ele>
        <time>2015-04-29T14:38:02.690Z</time>
      </trkpt>
      <trkpt lat="43.22665" lon="6.40637">
        <ele>477</ele>
        <time>2015-04-29T14:38:10.690Z</time>
      </trkpt>
      <trkpt lat="43.22663" lon="6.40621">
        <ele>476.27100032</ele>
        <time>2015-04-29T14:38:18.690Z</time>
      </trkpt>
      <trkpt lat="43.22676" lon="6.40617">
        <ele>474.14200064</ele>
        <time>2015-04-29T14:38:30.690Z</time>
      </trkpt>
      <trkpt lat="43.22686" lon="6.40614">
        <ele>473.07100032</ele>
        <time>2015-04-29T14:38:40.690Z</time>
      </trkpt>
      <trkpt lat="43.22698" lon="6.4061">
        <ele>473</ele>
        <time>2015-04-29T14:38:48.310Z</time>
      </trkpt>
      <trkpt lat="43.22708" lon="6.40608">
        <ele>471.96296201387</ele>
        <time>2015-04-29T14:38:56.590Z</time>
      </trkpt>
      <trkpt lat="43.22718" lon="6.40604">
        <ele>471</ele>
        <time>2015-04-29T14:39:04.590Z</time>
      </trkpt>
      <trkpt lat="43.2273" lon="6.40605">
        <ele>471</ele>
        <time>2015-04-29T14:39:12.590Z</time>
      </trkpt>
      <trkpt lat="43.22745" lon="6.40606">
        <ele>471</ele>
        <time>2015-04-29T14:39:20.590Z</time>
      </trkpt>
      <trkpt lat="43.22756" lon="6.40609">
        <ele>470.28171773242</ele>
        <time>2015-04-29T14:39:28.590Z</time>
      </trkpt>
      <trkpt lat="43.22768" lon="6.4061">
        <ele>468.96399872</ele>
        <time>2015-04-29T14:39:36.590Z</time>
      </trkpt>
      <trkpt lat="43.22786" lon="6.40609">
        <ele>467.07107136863</ele>
        <time>2015-04-29T14:39:50.690Z</time>
      </trkpt>
      <trkpt lat="43.22796" lon="6.40615">
        <ele>467</ele>
        <time>2015-04-29T14:39:58.310Z</time>
      </trkpt>
      <trkpt lat="43.22807" lon="6.40622">
        <ele>467</ele>
        <time>2015-04-29T14:40:06.590Z</time>
      </trkpt>
      <trkpt lat="43.22818" lon="6.40629">
        <ele>466.68099968</ele>
        <time>2015-04-29T14:40:14.590Z</time>
      </trkpt>
      <trkpt lat="43.22831" lon="6.40632">
        <ele>465.69900032</ele>
        <time>2015-04-29T14:40:24.410Z</time>
      </trkpt>
      <trkpt lat="43.22842" lon="6.40638">
        <ele>464.89100032</ele>
        <time>2015-04-29T14:40:32.490Z</time>
      </trkpt>
      <trkpt lat="43.22854" lon="6.40646">
        <ele>464.07100032</ele>
        <time>2015-04-29T14:40:40.690Z</time>
      </trkpt>
      <trkpt lat="43.22867" lon="6.40647">
        <ele>464</ele>
        <time>2015-04-29T14:40:48.700Z</time>
      </trkpt>
      <trkpt lat="43.22877" lon="6.40652">
        <ele>463.47100032</ele>
        <time>2015-04-29T14:40:56.690Z</time>
      </trkpt>
      <trkpt lat="43.22889" lon="6.40657">
        <ele>463</ele>
        <time>2015-04-29T14:41:04.690Z</time>
      </trkpt>
      <trkpt lat="43.229" lon="6.40664">
        <ele>462.74200064</ele>
        <time>2015-04-29T14:41:12.690Z</time>
      </trkpt>
      <trkpt lat="43.22909" lon="6.40672">
        <ele>461.14200064</ele>
        <time>2015-04-29T14:41:20.690Z</time>
      </trkpt>
      <trkpt lat="43.22923" lon="6.4068">
        <ele>461</ele>
        <time>2015-04-29T14:41:32.690Z</time>
      </trkpt>
      <trkpt lat="43.22937" lon="6.40687">
        <ele>461</ele>
        <time>2015-04-29T14:41:40.690Z</time>
      </trkpt>
      <trkpt lat="43.22947" lon="6.40686">
        <ele>461</ele>
        <time>2015-04-29T14:41:48.690Z</time>
      </trkpt>
      <trkpt lat="43.22956" lon="6.40679">
        <ele>461.52899968</ele>
        <time>2015-04-29T14:41:56.690Z</time>
      </trkpt>
      <trkpt lat="43.22967" lon="6.40668">
        <ele>462.32899968</ele>
        <time>2015-04-29T14:42:04.690Z</time>
      </trkpt>
      <trkpt lat="43.22979" lon="6.40663">
        <ele>462.87100032</ele>
        <time>2015-04-29T14:42:12.690Z</time>
      </trkpt>
      <trkpt lat="43.22991" lon="6.4065">
        <ele>462</ele>
        <time>2015-04-29T14:42:24.690Z</time>
      </trkpt>
      <trkpt lat="43.22996" lon="6.40638">
        <ele>462.52899968</ele>
        <time>2015-04-29T14:42:36.690Z</time>
      </trkpt>
      <trkpt lat="43.22998" lon="6.40618">
        <ele>463</ele>
        <time>2015-04-29T14:42:48.690Z</time>
      </trkpt>
      <trkpt lat="43.22998" lon="6.40603">
        <ele>463</ele>
        <time>2015-04-29T14:42:56.690Z</time>
      </trkpt>
      <trkpt lat="43.23003" lon="6.40589">
        <ele>464.45799936</ele>
        <time>2015-04-29T14:43:08.690Z</time>
      </trkpt>
      <trkpt lat="43.23001" lon="6.40574">
        <ele>465</ele>
        <time>2015-04-29T14:43:16.690Z</time>
      </trkpt>
      <trkpt lat="43.22998" lon="6.40554">
        <ele>465.32899968</ele>
        <time>2015-04-29T14:43:24.690Z</time>
      </trkpt>
      <trkpt lat="43.23001" lon="6.40536">
        <ele>466</ele>
        <time>2015-04-29T14:43:32.690Z</time>
      </trkpt>
      <trkpt lat="43.23003" lon="6.40515">
        <ele>465.67167177684</ele>
        <time>2015-04-29T14:43:44.690Z</time>
      </trkpt>
      <trkpt lat="43.23017" lon="6.40531">
        <ele>463.14200064</ele>
        <time>2015-04-29T14:44:00.690Z</time>
      </trkpt>
      <trkpt lat="43.23027" lon="6.40535">
        <ele>462.90909056035</ele>
        <time>2015-04-29T14:44:12.310Z</time>
      </trkpt>
      <trkpt lat="43.23038" lon="6.40542">
        <ele>461.69969979589</ele>
        <time>2015-04-29T14:44:24.410Z</time>
      </trkpt>
      <trkpt lat="43.23044" lon="6.40558">
        <ele>461</ele>
        <time>2015-04-29T14:44:36.310Z</time>
      </trkpt>
      <trkpt lat="43.23049" lon="6.40574">
        <ele>460.59100032</ele>
        <time>2015-04-29T14:44:45.490Z</time>
      </trkpt>
      <trkpt lat="43.2306" lon="6.4059">
        <ele>459.35900032</ele>
        <time>2015-04-29T14:44:57.810Z</time>
      </trkpt>
      <trkpt lat="43.23069" lon="6.40601">
        <ele>459</ele>
        <time>2015-04-29T14:45:06.890Z</time>
      </trkpt>
      <trkpt lat="43.23071" lon="6.40618">
        <ele>459</ele>
        <time>2015-04-29T14:45:13.310Z</time>
      </trkpt>
      <trkpt lat="43.23077" lon="6.4063">
        <ele>459</ele>
        <time>2015-04-29T14:45:21.420Z</time>
      </trkpt>
      <trkpt lat="43.23087" lon="6.40646">
        <ele>459</ele>
        <time>2015-04-29T14:45:29.410Z</time>
      </trkpt>
      <trkpt lat="43.23099" lon="6.40654">
        <ele>459</ele>
        <time>2015-04-29T14:45:37.690Z</time>
      </trkpt>
      <trkpt lat="43.23108" lon="6.40664">
        <ele>459</ele>
        <time>2015-04-29T14:45:45.700Z</time>
      </trkpt>
      <trkpt lat="43.23121" lon="6.40673">
        <ele>458.37100032</ele>
        <time>2015-04-29T14:45:57.690Z</time>
      </trkpt>
      <trkpt lat="43.2313" lon="6.40679">
        <ele>458</ele>
        <time>2015-04-29T14:46:05.690Z</time>
      </trkpt>
      <trkpt lat="43.23143" lon="6.40685">
        <ele>457.37100032</ele>
        <time>2015-04-29T14:46:17.690Z</time>
      </trkpt>
      <trkpt lat="43.23154" lon="6.40689">
        <ele>456.57100032</ele>
        <time>2015-04-29T14:46:25.690Z</time>
      </trkpt>
      <trkpt lat="43.23165" lon="6.40695">
        <ele>455.77100032</ele>
        <time>2015-04-29T14:46:33.690Z</time>
      </trkpt>
      <trkpt lat="43.23176" lon="6.40703">
        <ele>455</ele>
        <time>2015-04-29T14:46:41.690Z</time>
      </trkpt>
      <trkpt lat="43.23187" lon="6.40709">
        <ele>455</ele>
        <time>2015-04-29T14:46:49.690Z</time>
      </trkpt>
      <trkpt lat="43.23197" lon="6.40721">
        <ele>453.74200064</ele>
        <time>2015-04-29T14:46:57.690Z</time>
      </trkpt>
      <trkpt lat="43.23208" lon="6.40733">
        <ele>453</ele>
        <time>2015-04-29T14:47:09.690Z</time>
      </trkpt>
      <trkpt lat="43.23216" lon="6.40745">
        <ele>452.97100032</ele>
        <time>2015-04-29T14:47:21.690Z</time>
      </trkpt>
      <trkpt lat="43.23225" lon="6.40761">
        <ele>452.17100032</ele>
        <time>2015-04-29T14:47:29.690Z</time>
      </trkpt>
      <trkpt lat="43.23234" lon="6.40773">
        <ele>452</ele>
        <time>2015-04-29T14:47:36.690Z</time>
      </trkpt>
      <trkpt lat="43.23242" lon="6.4079">
        <ele>451.80919042851</ele>
        <time>2015-04-29T14:47:43.310Z</time>
      </trkpt>
      <trkpt lat="43.2325" lon="6.40811">
        <ele>450.89989993196</ele>
        <time>2015-04-29T14:47:52.410Z</time>
      </trkpt>
      <trkpt lat="43.23258" lon="6.40828">
        <ele>450</ele>
        <time>2015-04-29T14:48:02.410Z</time>
      </trkpt>
      <trkpt lat="43.23263" lon="6.40844">
        <ele>450</ele>
        <time>2015-04-29T14:48:12.310Z</time>
      </trkpt>
      <trkpt lat="43.23269" lon="6.40855">
        <ele>450</ele>
        <time>2015-04-29T14:48:20.610Z</time>
      </trkpt>
      <trkpt lat="43.23279" lon="6.40864">
        <ele>449.29100032</ele>
        <time>2015-04-29T14:48:28.490Z</time>
      </trkpt>
      <trkpt lat="43.23288" lon="6.40873">
        <ele>449</ele>
        <time>2015-04-29T14:48:36.490Z</time>
      </trkpt>
      <trkpt lat="43.23296" lon="6.40883">
        <ele>448.69100032</ele>
        <time>2015-04-29T14:48:44.490Z</time>
      </trkpt>
      <trkpt lat="43.23308" lon="6.40891">
        <ele>447.21799936</ele>
        <time>2015-04-29T14:48:55.310Z</time>
      </trkpt>
      <trkpt lat="43.23318" lon="6.40902">
        <ele>446</ele>
        <time>2015-04-29T14:49:07.220Z</time>
      </trkpt>
      <trkpt lat="43.23328" lon="6.40907">
        <ele>446</ele>
        <time>2015-04-29T14:49:15.590Z</time>
      </trkpt>
      <trkpt lat="43.23339" lon="6.40913">
        <ele>446</ele>
        <time>2015-04-29T14:49:23.590Z</time>
      </trkpt>
      <trkpt lat="43.23351" lon="6.4092">
        <ele>445.98099968</ele>
        <time>2015-04-29T14:49:31.590Z</time>
      </trkpt>
      <trkpt lat="43.23362" lon="6.40919">
        <ele>445.19100032</ele>
        <time>2015-04-29T14:49:39.490Z</time>
      </trkpt>
      <trkpt lat="43.23376" lon="6.40912">
        <ele>445.49150864863</ele>
        <time>2015-04-29T14:50:06.320Z</time>
      </trkpt>
      <trkpt lat="43.23389" lon="6.40899">
        <ele>446</ele>
        <time>2015-04-29T14:50:18.590Z</time>
      </trkpt>
      <trkpt lat="43.23397" lon="6.40891">
        <ele>446</ele>
        <time>2015-04-29T14:50:26.590Z</time>
      </trkpt>
      <trkpt lat="43.23407" lon="6.40884">
        <ele>446</ele>
        <time>2015-04-29T14:50:34.590Z</time>
      </trkpt>
      <trkpt lat="43.23416" lon="6.40878">
        <ele>445.88099968</ele>
        <time>2015-04-29T14:50:42.590Z</time>
      </trkpt>
      <trkpt lat="43.23427" lon="6.40871">
        <ele>445.06099968</ele>
        <time>2015-04-29T14:50:50.790Z</time>
      </trkpt>
      <trkpt lat="43.23435" lon="6.40858">
        <ele>443.54200064</ele>
        <time>2015-04-29T14:50:58.690Z</time>
      </trkpt>
      <trkpt lat="43.23441" lon="6.40842">
        <ele>443</ele>
        <time>2015-04-29T14:51:06.690Z</time>
      </trkpt>
      <trkpt lat="43.23442" lon="6.40827">
        <ele>442.67100032</ele>
        <time>2015-04-29T14:51:14.690Z</time>
      </trkpt>
      <trkpt lat="43.23439" lon="6.40806">
        <ele>441.47100032</ele>
        <time>2015-04-29T14:51:26.690Z</time>
      </trkpt>
      <trkpt lat="43.23433" lon="6.40794">
        <ele>440.81800064</ele>
        <time>2015-04-29T14:51:33.220Z</time>
      </trkpt>
      <trkpt lat="43.23428" lon="6.4078">
        <ele>440</ele>
        <time>2015-04-29T14:51:41.410Z</time>
      </trkpt>
      <trkpt lat="43.23424" lon="6.40765">
        <ele>440</ele>
        <time>2015-04-29T14:51:49.210Z</time>
      </trkpt>
      <trkpt lat="43.23417" lon="6.4075">
        <ele>438.78200064</ele>
        <time>2015-04-29T14:51:57.490Z</time>
      </trkpt>
      <trkpt lat="43.23409" lon="6.40736">
        <ele>438</ele>
        <time>2015-04-29T14:52:05.490Z</time>
      </trkpt>
      <trkpt lat="43.234" lon="6.40726">
        <ele>438</ele>
        <time>2015-04-29T14:52:13.490Z</time>
      </trkpt>
      <trkpt lat="43.23391" lon="6.40715">
        <ele>437.99100032</ele>
        <time>2015-04-29T14:52:21.490Z</time>
      </trkpt>
      <trkpt lat="43.23384" lon="6.40701">
        <ele>437.19100032</ele>
        <time>2015-04-29T14:52:29.490Z</time>
      </trkpt>
      <trkpt lat="43.23373" lon="6.40694">
        <ele>436.38999936</ele>
        <time>2015-04-29T14:52:37.500Z</time>
      </trkpt>
      <trkpt lat="43.23364" lon="6.40685">
        <ele>435.57100032</ele>
        <time>2015-04-29T14:52:45.690Z</time>
      </trkpt>
      <trkpt lat="43.23353" lon="6.4068">
        <ele>434.79100032</ele>
        <time>2015-04-29T14:52:53.490Z</time>
      </trkpt>
      <trkpt lat="43.23341" lon="6.40676">
        <ele>434</ele>
        <time>2015-04-29T14:53:01.490Z</time>
      </trkpt>
      <trkpt lat="43.23329" lon="6.4067">
        <ele>434</ele>
        <time>2015-04-29T14:53:13.490Z</time>
      </trkpt>
      <trkpt lat="43.23322" lon="6.40658">
        <ele>434</ele>
        <time>2015-04-29T14:53:33.690Z</time>
      </trkpt>
      <trkpt lat="43.2332" lon="6.40645">
        <ele>433.99100032</ele>
        <time>2015-04-29T14:53:41.490Z</time>
      </trkpt>
      <trkpt lat="43.23319" lon="6.40624">
        <ele>433</ele>
        <time>2015-04-29T14:53:53.490Z</time>
      </trkpt>
      <trkpt lat="43.23318" lon="6.40609">
        <ele>433</ele>
        <time>2015-04-29T14:54:01.490Z</time>
      </trkpt>
      <trkpt lat="43.23315" lon="6.40591">
        <ele>433</ele>
        <time>2015-04-29T14:54:09.690Z</time>
      </trkpt>
      <trkpt lat="43.23314" lon="6.40577">
        <ele>433</ele>
        <time>2015-04-29T14:54:21.690Z</time>
      </trkpt>
      <trkpt lat="43.23314" lon="6.40564">
        <ele>433</ele>
        <time>2015-04-29T14:54:29.690Z</time>
      </trkpt>
      <trkpt lat="43.23314" lon="6.40547">
        <ele>432.39100032</ele>
        <time>2015-04-29T14:54:37.490Z</time>
      </trkpt>
      <trkpt lat="43.23318" lon="6.40531">
        <ele>432</ele>
        <time>2015-04-29T14:54:45.490Z</time>
      </trkpt>
      <trkpt lat="43.23325" lon="6.40513">
        <ele>432</ele>
        <time>2015-04-29T14:54:53.490Z</time>
      </trkpt>
      <trkpt lat="43.23331" lon="6.40495">
        <ele>432.01000064</ele>
        <time>2015-04-29T14:55:01.500Z</time>
      </trkpt>
      <trkpt lat="43.23337" lon="6.40482">
        <ele>432.80899968</ele>
        <time>2015-04-29T14:55:09.490Z</time>
      </trkpt>
      <trkpt lat="43.23341" lon="6.40468">
        <ele>433.60899968</ele>
        <time>2015-04-29T14:55:17.490Z</time>
      </trkpt>
      <trkpt lat="43.23346" lon="6.40447">
        <ele>434</ele>
        <time>2015-04-29T14:55:29.490Z</time>
      </trkpt>
      <trkpt lat="43.23349" lon="6.40429">
        <ele>433.39100032</ele>
        <time>2015-04-29T14:55:37.490Z</time>
      </trkpt>
      <trkpt lat="43.23353" lon="6.40412">
        <ele>433.82817177324</ele>
        <time>2015-04-29T14:55:49.690Z</time>
      </trkpt>
      <trkpt lat="43.23358" lon="6.40396">
        <ele>434.60860841366</ele>
        <time>2015-04-29T14:55:57.490Z</time>
      </trkpt>
      <trkpt lat="43.23361" lon="6.40382">
        <ele>435.40899968</ele>
        <time>2015-04-29T14:56:05.490Z</time>
      </trkpt>
      <trkpt lat="43.23362" lon="6.40368">
        <ele>436</ele>
        <time>2015-04-29T14:56:13.500Z</time>
      </trkpt>
      <trkpt lat="43.23361" lon="6.40354">
        <ele>435.99100032</ele>
        <time>2015-04-29T14:56:21.490Z</time>
      </trkpt>
      <trkpt lat="43.23359" lon="6.40336">
        <ele>435</ele>
        <time>2015-04-29T14:56:33.490Z</time>
      </trkpt>
      <trkpt lat="43.23361" lon="6.40323">
        <ele>434.97100032</ele>
        <time>2015-04-29T14:56:41.690Z</time>
      </trkpt>
      <trkpt lat="43.23364" lon="6.40307">
        <ele>434.19100032</ele>
        <time>2015-04-29T14:56:49.490Z</time>
      </trkpt>
      <trkpt lat="43.23356" lon="6.40284">
        <ele>433.37100032</ele>
        <time>2015-04-29T14:56:57.690Z</time>
      </trkpt>
      <trkpt lat="43.23355" lon="6.40249">
        <ele>432.19100032</ele>
        <time>2015-04-29T14:57:09.490Z</time>
      </trkpt>
      <trkpt lat="43.23364" lon="6.40232">
        <ele>431.39100032</ele>
        <time>2015-04-29T14:57:17.490Z</time>
      </trkpt>
      <trkpt lat="43.23371" lon="6.40217">
        <ele>430.59100032</ele>
        <time>2015-04-29T14:57:25.490Z</time>
      </trkpt>
      <trkpt lat="43.23386" lon="6.40196">
        <ele>429.37100032</ele>
        <time>2015-04-29T14:57:37.690Z</time>
      </trkpt>
      <trkpt lat="43.23395" lon="6.40182">
        <ele>428.60899968</ele>
        <time>2015-04-29T14:57:45.310Z</time>
      </trkpt>
      <trkpt lat="43.23402" lon="6.40169">
        <ele>427.78099968</ele>
        <time>2015-04-29T14:57:53.590Z</time>
      </trkpt>
      <trkpt lat="43.23413" lon="6.40162">
        <ele>426.96199936</ele>
        <time>2015-04-29T14:58:01.590Z</time>
      </trkpt>
      <trkpt lat="43.23423" lon="6.40156">
        <ele>425.36199936</ele>
        <time>2015-04-29T14:58:09.590Z</time>
      </trkpt>
      <trkpt lat="43.23433" lon="6.40151">
        <ele>424.38099968</ele>
        <time>2015-04-29T14:58:17.590Z</time>
      </trkpt>
      <trkpt lat="43.23444" lon="6.40143">
        <ele>424</ele>
        <time>2015-04-29T14:58:25.590Z</time>
      </trkpt>
      <trkpt lat="43.23463" lon="6.40139">
        <ele>424</ele>
        <time>2015-04-29T14:58:40.690Z</time>
      </trkpt>
      <trkpt lat="43.23474" lon="6.40143">
        <ele>423.19900032</ele>
        <time>2015-04-29T14:58:49.410Z</time>
      </trkpt>
      <trkpt lat="43.23487" lon="6.40138">
        <ele>422.41900032</ele>
        <time>2015-04-29T14:58:57.210Z</time>
      </trkpt>
      <trkpt lat="43.23495" lon="6.4012">
        <ele>422.490509967</ele>
        <time>2015-04-29T14:59:06.310Z</time>
      </trkpt>
      <trkpt lat="43.23495" lon="6.401">
        <ele>423.32832822316</ele>
        <time>2015-04-29T14:59:14.690Z</time>
      </trkpt>
      <trkpt lat="43.23498" lon="6.40085">
        <ele>424</ele>
        <time>2015-04-29T14:59:22.690Z</time>
      </trkpt>
      <trkpt lat="43.23499" lon="6.40071">
        <ele>424</ele>
        <time>2015-04-29T14:59:30.690Z</time>
      </trkpt>
      <trkpt lat="43.23494" lon="6.40056">
        <ele>424</ele>
        <time>2015-04-29T14:59:38.690Z</time>
      </trkpt>
      <trkpt lat="43.23491" lon="6.40042">
        <ele>424</ele>
        <time>2015-04-29T14:59:46.690Z</time>
      </trkpt>
      <trkpt lat="43.23491" lon="6.40031">
        <ele>424</ele>
        <time>2015-04-29T14:59:54.790Z</time>
      </trkpt>
      <trkpt lat="43.23486" lon="6.40025">
        <ele>425</ele>
        <time>2015-04-29T15:10:52.360Z</time>
      </trkpt>
      <trkpt lat="43.23483" lon="6.40023">
        <ele>425</ele>
        <time>2015-04-29T15:10:56.690Z</time>
      </trkpt>
      <trkpt lat="43.23477" lon="6.40018">
        <ele>425</ele>
        <time>2015-04-29T15:11:05.690Z</time>
      </trkpt>
      <trkpt lat="43.23471" lon="6.40005">
        <ele>424.37100032</ele>
        <time>2015-04-29T15:11:17.690Z</time>
      </trkpt>
      <trkpt lat="43.23468" lon="6.39992">
        <ele>424</ele>
        <time>2015-04-29T15:11:25.690Z</time>
      </trkpt>
      <trkpt lat="43.23462" lon="6.39979">
        <ele>424</ele>
        <time>2015-04-29T15:11:40.690Z</time>
      </trkpt>
      <trkpt lat="43.23456" lon="6.39967">
        <ele>424</ele>
        <time>2015-04-29T15:11:49.690Z</time>
      </trkpt>
      <trkpt lat="43.2345" lon="6.39954">
        <ele>423.37100032</ele>
        <time>2015-04-29T15:11:57.690Z</time>
      </trkpt>
      <trkpt lat="43.23441" lon="6.39945">
        <ele>423</ele>
        <time>2015-04-29T15:12:09.690Z</time>
      </trkpt>
      <trkpt lat="43.23439" lon="6.39932">
        <ele>419.94200064</ele>
        <time>2015-04-29T15:12:26.690Z</time>
      </trkpt>
      <trkpt lat="43.23446" lon="6.39919">
        <ele>418.57100032</ele>
        <time>2015-04-29T15:12:35.690Z</time>
      </trkpt>
      <trkpt lat="43.23453" lon="6.39908">
        <ele>418</ele>
        <time>2015-04-29T15:12:43.690Z</time>
      </trkpt>
      <trkpt lat="43.2346" lon="6.39896">
        <ele>418</ele>
        <time>2015-04-29T15:12:49.690Z</time>
      </trkpt>
      <trkpt lat="43.23467" lon="6.39886">
        <ele>417.27100032</ele>
        <time>2015-04-29T15:12:58.690Z</time>
      </trkpt>
      <trkpt lat="43.23474" lon="6.39876">
        <ele>417</ele>
        <time>2015-04-29T15:13:06.690Z</time>
      </trkpt>
      <trkpt lat="43.23475" lon="6.39862">
        <ele>416.67100032</ele>
        <time>2015-04-29T15:13:14.690Z</time>
      </trkpt>
      <trkpt lat="43.23475" lon="6.39847">
        <ele>415.67132888594</ele>
        <time>2015-04-29T15:13:24.690Z</time>
      </trkpt>
      <trkpt lat="43.23471" lon="6.39834">
        <ele>414.61561573874</ele>
        <time>2015-04-29T15:13:32.690Z</time>
      </trkpt>
      <trkpt lat="43.2347" lon="6.3982">
        <ele>412</ele>
        <time>2015-04-29T15:13:43.690Z</time>
      </trkpt>
      <trkpt lat="43.2347" lon="6.39803">
        <ele>412</ele>
        <time>2015-04-29T15:13:50.690Z</time>
      </trkpt>
      <trkpt lat="43.23474" lon="6.39789">
        <ele>410.54200064</ele>
        <time>2015-04-29T15:13:58.690Z</time>
      </trkpt>
      <trkpt lat="43.23485" lon="6.39786">
        <ele>410</ele>
        <time>2015-04-29T15:14:06.690Z</time>
      </trkpt>
      <trkpt lat="43.23493" lon="6.39795">
        <ele>410</ele>
        <time>2015-04-29T15:14:14.700Z</time>
      </trkpt>
      <trkpt lat="43.23503" lon="6.39802">
        <ele>410.02899968</ele>
        <time>2015-04-29T15:14:21.690Z</time>
      </trkpt>
      <trkpt lat="43.23511" lon="6.39812">
        <ele>410.62899968</ele>
        <time>2015-04-29T15:14:27.690Z</time>
      </trkpt>
      <trkpt lat="43.2352" lon="6.39817">
        <ele>411.52899968</ele>
        <time>2015-04-29T15:14:36.690Z</time>
      </trkpt>
      <trkpt lat="43.2353" lon="6.39821">
        <ele>412</ele>
        <time>2015-04-29T15:14:44.690Z</time>
      </trkpt>
      <trkpt lat="43.2354" lon="6.39827">
        <ele>412</ele>
        <time>2015-04-29T15:14:53.690Z</time>
      </trkpt>
      <trkpt lat="43.23548" lon="6.39836">
        <ele>412</ele>
        <time>2015-04-29T15:15:01.410Z</time>
      </trkpt>
      <trkpt lat="43.23557" lon="6.39843">
        <ele>412</ele>
        <time>2015-04-29T15:15:10.310Z</time>
      </trkpt>
      <trkpt lat="43.23566" lon="6.39851">
        <ele>413.23923948293</ele>
        <time>2015-04-29T15:15:17.600Z</time>
      </trkpt>
      <trkpt lat="43.23575" lon="6.39858">
        <ele>414.31900032</ele>
        <time>2015-04-29T15:15:24.590Z</time>
      </trkpt>
      <trkpt lat="43.23585" lon="6.39863">
        <ele>415.21900032</ele>
        <time>2015-04-29T15:15:33.590Z</time>
      </trkpt>
      <trkpt lat="43.23595" lon="6.39862">
        <ele>416.11900032</ele>
        <time>2015-04-29T15:15:42.590Z</time>
      </trkpt>
      <trkpt lat="43.23605" lon="6.39856">
        <ele>417</ele>
        <time>2015-04-29T15:15:52.590Z</time>
      </trkpt>
      <trkpt lat="43.23612" lon="6.39847">
        <ele>417</ele>
        <time>2015-04-29T15:16:01.590Z</time>
      </trkpt>
      <trkpt lat="43.23619" lon="6.39835">
        <ele>417</ele>
        <time>2015-04-29T15:16:09.790Z</time>
      </trkpt>
      <trkpt lat="43.23625" lon="6.39824">
        <ele>417</ele>
        <time>2015-04-29T15:16:18.590Z</time>
      </trkpt>
      <trkpt lat="43.23632" lon="6.39813">
        <ele>418.23800064</ele>
        <time>2015-04-29T15:16:27.590Z</time>
      </trkpt>
      <trkpt lat="43.23641" lon="6.39805">
        <ele>419.51900032</ele>
        <time>2015-04-29T15:16:36.590Z</time>
      </trkpt>
      <trkpt lat="43.23649" lon="6.39794">
        <ele>420.21900032</ele>
        <time>2015-04-29T15:16:43.590Z</time>
      </trkpt>
      <trkpt lat="43.23658" lon="6.39787">
        <ele>421</ele>
        <time>2015-04-29T15:16:51.590Z</time>
      </trkpt>
      <trkpt lat="43.23669" lon="6.39782">
        <ele>421</ele>
        <time>2015-04-29T15:16:59.590Z</time>
      </trkpt>
      <trkpt lat="43.23676" lon="6.39773">
        <ele>421.41900032</ele>
        <time>2015-04-29T15:17:05.590Z</time>
      </trkpt>
      <trkpt lat="43.23685" lon="6.39766">
        <ele>422.23900032</ele>
        <time>2015-04-29T15:17:13.790Z</time>
      </trkpt>
      <trkpt lat="43.23692" lon="6.39756">
        <ele>422.81900032</ele>
        <time>2015-04-29T15:17:19.590Z</time>
      </trkpt>
      <trkpt lat="43.237" lon="6.39745">
        <ele>423.61900032</ele>
        <time>2015-04-29T15:17:27.590Z</time>
      </trkpt>
      <trkpt lat="43.23706" lon="6.39734">
        <ele>424</ele>
        <time>2015-04-29T15:17:37.590Z</time>
      </trkpt>
      <trkpt lat="43.23715" lon="6.39725">
        <ele>425.27800064</ele>
        <time>2015-04-29T15:17:47.790Z</time>
      </trkpt>
      <trkpt lat="43.23722" lon="6.39716">
        <ele>426</ele>
        <time>2015-04-29T15:17:55.590Z</time>
      </trkpt>
      <trkpt lat="43.2373" lon="6.39708">
        <ele>426</ele>
        <time>2015-04-29T15:18:03.590Z</time>
      </trkpt>
      <trkpt lat="43.23739" lon="6.39704">
        <ele>426</ele>
        <time>2015-04-29T15:18:11.590Z</time>
      </trkpt>
      <trkpt lat="43.23741" lon="6.39703">
        <ele>426</ele>
        <time>2015-04-29T15:18:13.980Z</time>
      </trkpt>
    </trkseg>
  </trk>
</gpx>